PWSweather.com
Personal Weather Stations
Station Observations
KMNHANSK2
Andys Live Weather Stations, Hanska, MN 56041

Andys Live Weather StationsHanska, MN 56041

Lat: 44.170119, Lon: -94.381619

Elevation: 1004

Station Type: Davis Instruments Vantage Pro2 Plus

http://www.madeliasliveweather.com/thompsonfarms/

High Low Average
Temperature 71.9°F22.2°F 60.0°F15.6°F 65.0°F18.3°F
Dew Point 68.9°F20.5°F 58.6°F14.8°F 63.5°F17.5°F
Winds 13.0 mph SE20.9 mph SE Calm Calm 4.6 mph 7.4 mph
Wind Gusts 15.0 mph24.1 mph 2.0 mph3.2 mph 8.8 mph14.2 mph
Humidity 99% 89% 95%
Pressure 30.08 in1018.60 in 29.83 in1010.20 in -
Precipitation 23.03 in585.00 in - -
Hour Temp Dew Point Humidity Winds Wind Gusts Pressure Precip Precip Rate Daily Precip Total
12:00 AM 62.2°F16.8°C 59.9°F15.5°C 92% 2.0 mph SE3.2 kmh SE 6.0 mph9.7 kmh 30.08 in1018.6 mb 0.00 in0.0 mm 0.00 in/hr0.0 mm/hr 0.00 in0.0 mm
12:01 AM 62.2°F16.8°C 59.9°F15.5°C 92% 2.0 mph SE3.2 kmh SE 2.0 mph3.2 kmh 30.08 in1018.6 mb 0.00 in0.0 mm 0.00 in/hr0.0 mm/hr 0.00 in0.0 mm
12:02 AM 62.2°F16.8°C 59.9°F15.5°C 92% 3.0 mph SE4.8 kmh SE 5.0 mph8.0 kmh 30.08 in1018.6 mb 0.00 in0.0 mm 0.00 in/hr0.0 mm/hr 0.00 in0.0 mm
12:03 AM 62.2°F16.8°C 59.9°F15.5°C 92% 2.0 mph SE3.2 kmh SE 5.0 mph8.0 kmh 30.08 in1018.6 mb 0.00 in0.0 mm 0.00 in/hr0.0 mm/hr 0.00 in0.0 mm
12:04 AM 62.2°F16.8°C 59.9°F15.5°C 92% 2.0 mph SE3.2 kmh SE 7.0 mph11.3 kmh 30.08 in1018.6 mb 0.00 in0.0 mm 0.00 in/hr0.0 mm/hr 0.00 in0.0 mm
12:05 AM 62.2°F16.8°C 59.9°F15.5°C 92% 3.0 mph SE4.8 kmh SE 7.0 mph11.3 kmh 30.08 in1018.6 mb 0.00 in0.0 mm 0.00 in/hr0.0 mm/hr 0.00 in0.0 mm
12:06 AM 62.2°F16.8°C 59.9°F15.5°C 92% 3.0 mph SSE4.8 kmh SSE 7.0 mph11.3 kmh 30.08 in1018.6 mb 0.00 in0.0 mm 0.00 in/hr0.0 mm/hr 0.00 in0.0 mm
12:07 AM 62.3°F16.8°C 60.0°F15.6°C 92% 4.0 mph SE6.4 kmh SE 7.0 mph11.3 kmh 30.08 in1018.6 mb 0.00 in0.0 mm 0.00 in/hr0.0 mm/hr 0.00 in0.0 mm
12:08 AM 62.3°F16.8°C 60.0°F15.6°C 92% 2.0 mph SE3.2 kmh SE 7.0 mph11.3 kmh 30.08 in1018.6 mb 0.00 in0.0 mm 0.00 in/hr0.0 mm/hr 0.00 in0.0 mm
12:09 AM 62.3°F16.8°C 60.0°F15.6°C 92% 3.0 mph SE4.8 kmh SE 7.0 mph11.3 kmh 30.08 in1018.6 mb 0.00 in0.0 mm 0.00 in/hr0.0 mm/hr 0.00 in0.0 mm
12:10 AM 62.3°F16.8°C 60.0°F15.6°C 92% 3.0 mph SE4.8 kmh SE 7.0 mph11.3 kmh 30.08 in1018.6 mb 0.00 in0.0 mm 0.00 in/hr0.0 mm/hr 0.00 in0.0 mm
12:11 AM 62.3°F16.8°C 60.0°F15.6°C 92% 3.0 mph SSE4.8 kmh SSE 7.0 mph11.3 kmh 30.08 in1018.6 mb 0.00 in0.0 mm 0.00 in/hr0.0 mm/hr 0.00 in0.0 mm
12:12 AM 62.3°F16.8°C 60.0°F15.6°C 92% 3.0 mph SSE4.8 kmh SSE 7.0 mph11.3 kmh 30.08 in1018.6 mb 0.00 in0.0 mm 0.00 in/hr0.0 mm/hr 0.00 in0.0 mm
12:13 AM 62.2°F16.8°C 59.9°F15.5°C 92% 3.0 mph SE4.8 kmh SE 7.0 mph11.3 kmh 30.08 in1018.6 mb 0.00 in0.0 mm 0.00 in/hr0.0 mm/hr 0.00 in0.0 mm
12:14 AM 62.2°F16.8°C 59.9°F15.5°C 92% 3.0 mph SE4.8 kmh SE 7.0 mph11.3 kmh 30.08 in1018.6 mb 0.00 in0.0 mm 0.00 in/hr0.0 mm/hr 0.00 in0.0 mm
12:15 AM 62.2°F16.8°C 59.9°F15.5°C 92% 2.0 mph SSE3.2 kmh SSE 7.0 mph11.3 kmh 30.08 in1018.6 mb 0.00 in0.0 mm 0.00 in/hr0.0 mm/hr 0.00 in0.0 mm
12:16 AM 62.3°F16.8°C 60.0°F15.6°C 92% 3.0 mph SSE4.8 kmh SSE 7.0 mph11.3 kmh 30.08 in1018.6 mb 0.00 in0.0 mm 0.00 in/hr0.0 mm/hr 0.00 in0.0 mm
12:17 AM 62.2°F16.8°C 59.9°F15.5°C 92% 4.0 mph SSE6.4 kmh SSE 7.0 mph11.3 kmh 30.08 in1018.6 mb 0.00 in0.0 mm 0.00 in/hr0.0 mm/hr 0.00 in0.0 mm
12:18 AM 62.3°F16.8°C 60.0°F15.6°C 92% 3.0 mph SSE4.8 kmh SSE 7.0 mph11.3 kmh 30.08 in1018.6 mb 0.00 in0.0 mm 0.00 in/hr0.0 mm/hr 0.00 in0.0 mm
12:19 AM 62.3°F16.8°C 60.0°F15.6°C 92% 2.0 mph SSE3.2 kmh SSE 7.0 mph11.3 kmh 30.08 in1018.6 mb 0.00 in0.0 mm 0.00 in/hr0.0 mm/hr 0.00 in0.0 mm
12:20 AM 62.2°F16.8°C 59.9°F15.5°C 92% 2.0 mph SE3.2 kmh SE 7.0 mph11.3 kmh 30.08 in1018.6 mb 0.00 in0.0 mm 0.00 in/hr0.0 mm/hr 0.00 in0.0 mm
12:21 AM 62.2°F16.8°C 59.9°F15.5°C 92% 2.0 mph SE3.2 kmh SE 7.0 mph11.3 kmh 30.08 in1018.6 mb 0.00 in0.0 mm 0.00 in/hr0.0 mm/hr 0.00 in0.0 mm
12:22 AM 62.2°F16.8°C 59.9°F15.5°C 92% 3.0 mph SE4.8 kmh SE 7.0 mph11.3 kmh 30.08 in1018.6 mb 0.00 in0.0 mm 0.00 in/hr0.0 mm/hr 0.00 in0.0 mm
12:23 AM 62.2°F16.8°C 59.9°F15.5°C 92% 2.0 mph SE3.2 kmh SE 7.0 mph11.3 kmh 30.08 in1018.6 mb 0.00 in0.0 mm 0.00 in/hr0.0 mm/hr 0.00 in0.0 mm
12:24 AM 62.1°F16.7°C 59.8°F15.4°C 92% 2.0 mph SE3.2 kmh SE 7.0 mph11.3 kmh 30.08 in1018.6 mb 0.00 in0.0 mm 0.00 in/hr0.0 mm/hr 0.00 in0.0 mm
12:25 AM 62.1°F16.7°C 59.8°F15.4°C 92% 4.0 mph SE6.4 kmh SE 7.0 mph11.3 kmh 30.08 in1018.6 mb 0.00 in0.0 mm 0.00 in/hr0.0 mm/hr 0.00 in0.0 mm
12:26 AM 62.0°F16.7°C 60.0°F15.6°C 93% 4.0 mph SE6.4 kmh SE 7.0 mph11.3 kmh 30.08 in1018.6 mb 0.00 in0.0 mm 0.00 in/hr0.0 mm/hr 0.00 in0.0 mm
12:27 AM 62.0°F16.7°C 60.0°F15.6°C 93% 3.0 mph SSE4.8 kmh SSE 7.0 mph11.3 kmh 30.08 in1018.6 mb 0.00 in0.0 mm 0.00 in/hr0.0 mm/hr 0.00 in0.0 mm
12:28 AM 62.0°F16.7°C 60.0°F15.6°C 93% 2.0 mph SE3.2 kmh SE 7.0 mph11.3 kmh 30.08 in1018.6 mb 0.00 in0.0 mm 0.00 in/hr0.0 mm/hr 0.00 in0.0 mm
12:29 AM 61.9°F16.6°C 59.9°F15.5°C 93% 2.0 mph SE3.2 kmh SE 7.0 mph11.3 kmh 30.08 in1018.6 mb 0.00 in0.0 mm 0.00 in/hr0.0 mm/hr 0.00 in0.0 mm
12:30 AM 61.9°F16.6°C 59.9°F15.5°C 93% 3.0 mph SE4.8 kmh SE 7.0 mph11.3 kmh 30.08 in1018.6 mb 0.00 in0.0 mm 0.00 in/hr0.0 mm/hr 0.00 in0.0 mm
12:31 AM 61.9°F16.6°C 59.9°F15.5°C 93% 3.0 mph SE4.8 kmh SE 4.0 mph6.4 kmh 30.08 in1018.6 mb 0.00 in0.0 mm 0.00 in/hr0.0 mm/hr 0.00 in0.0 mm
12:32 AM 61.9°F16.6°C 59.9°F15.5°C 93% 6.0 mph SE9.7 kmh SE 6.0 mph9.7 kmh 30.08 in1018.6 mb 0.00 in0.0 mm 0.00 in/hr0.0 mm/hr 0.00 in0.0 mm
12:33 AM 61.9°F16.6°C 59.9°F15.5°C 93% 3.0 mph SE4.8 kmh SE 6.0 mph9.7 kmh 30.08 in1018.6 mb 0.00 in0.0 mm 0.00 in/hr0.0 mm/hr 0.00 in0.0 mm
12:34 AM 61.9°F16.6°C 59.9°F15.5°C 93% 3.0 mph SE4.8 kmh SE 6.0 mph9.7 kmh 30.08 in1018.6 mb 0.00 in0.0 mm 0.00 in/hr0.0 mm/hr 0.00 in0.0 mm
12:35 AM 61.9°F16.6°C 59.9°F15.5°C 93% 2.0 mph SE3.2 kmh SE 6.0 mph9.7 kmh 30.08 in1018.6 mb 0.00 in0.0 mm 0.00 in/hr0.0 mm/hr 0.00 in0.0 mm
12:36 AM 61.9°F16.6°C 59.9°F15.5°C 93% 4.0 mph SSE6.4 kmh SSE 6.0 mph9.7 kmh 30.08 in1018.6 mb 0.00 in0.0 mm 0.00 in/hr0.0 mm/hr 0.00 in0.0 mm
12:37 AM 61.9°F16.6°C 59.9°F15.5°C 93% 3.0 mph SE4.8 kmh SE 6.0 mph9.7 kmh 30.08 in1018.6 mb 0.00 in0.0 mm 0.00 in/hr0.0 mm/hr 0.00 in0.0 mm
12:38 AM 62.0°F16.7°C 60.0°F15.6°C 93% 4.0 mph SE6.4 kmh SE 7.0 mph11.3 kmh 30.08 in1018.6 mb 0.00 in0.0 mm 0.00 in/hr0.0 mm/hr 0.00 in0.0 mm
12:39 AM 62.0°F16.7°C 60.0°F15.6°C 93% 4.0 mph SSE6.4 kmh SSE 7.0 mph11.3 kmh 30.08 in1018.6 mb 0.00 in0.0 mm 0.00 in/hr0.0 mm/hr 0.00 in0.0 mm
12:40 AM 62.1°F16.7°C 60.1°F15.6°C 93% 3.0 mph SSE4.8 kmh SSE 7.0 mph11.3 kmh 30.08 in1018.6 mb 0.00 in0.0 mm 0.00 in/hr0.0 mm/hr 0.00 in0.0 mm
12:41 AM 62.1°F16.7°C 60.1°F15.6°C 93% 4.0 mph SE6.4 kmh SE 7.0 mph11.3 kmh 30.08 in1018.6 mb 0.00 in0.0 mm 0.00 in/hr0.0 mm/hr 0.00 in0.0 mm
12:42 AM 62.1°F16.7°C 60.1°F15.6°C 93% 5.0 mph SE8.0 kmh SE 7.0 mph11.3 kmh 30.08 in1018.6 mb 0.00 in0.0 mm 0.00 in/hr0.0 mm/hr 0.00 in0.0 mm
12:43 AM 62.2°F16.8°C 60.2°F15.7°C 93% 5.0 mph SSE8.0 kmh SSE 7.0 mph11.3 kmh 30.08 in1018.6 mb 0.00 in0.0 mm 0.00 in/hr0.0 mm/hr 0.00 in0.0 mm
12:44 AM 62.2°F16.8°C 60.2°F15.7°C 93% 4.0 mph SE6.4 kmh SE 7.0 mph11.3 kmh 30.08 in1018.6 mb 0.00 in0.0 mm 0.00 in/hr0.0 mm/hr 0.00 in0.0 mm
12:45 AM 62.2°F16.8°C 60.2°F15.7°C 93% 1.0 mph SE1.6 kmh SE 7.0 mph11.3 kmh 30.08 in1018.6 mb 0.00 in0.0 mm 0.00 in/hr0.0 mm/hr 0.00 in0.0 mm
12:46 AM 62.2°F16.8°C 60.2°F15.7°C 93% 2.0 mph SE3.2 kmh SE 7.0 mph11.3 kmh 30.08 in1018.6 mb 0.00 in0.0 mm 0.00 in/hr0.0 mm/hr 0.00 in0.0 mm
12:47 AM 62.2°F16.8°C 60.2°F15.7°C 93% 3.0 mph SE4.8 kmh SE 7.0 mph11.3 kmh 30.08 in1018.6 mb 0.00 in0.0 mm 0.00 in/hr0.0 mm/hr 0.00 in0.0 mm
12:48 AM 62.2°F16.8°C 60.2°F15.7°C 93% 1.0 mph SE1.6 kmh SE 7.0 mph11.3 kmh 30.08 in1018.6 mb 0.00 in0.0 mm 0.00 in/hr0.0 mm/hr 0.00 in0.0 mm
12:49 AM 62.2°F16.8°C 60.2°F15.7°C 93% 3.0 mph SE4.8 kmh SE 7.0 mph11.3 kmh 30.08 in1018.6 mb 0.00 in0.0 mm 0.00 in/hr0.0 mm/hr 0.00 in0.0 mm
12:50 AM 62.2°F16.8°C 60.2°F15.7°C 93% 3.0 mph SE4.8 kmh SE 7.0 mph11.3 kmh 30.08 in1018.6 mb 0.00 in0.0 mm 0.00 in/hr0.0 mm/hr 0.00 in0.0 mm
12:51 AM 62.2°F16.8°C 60.2°F15.7°C 93% 2.0 mph SE3.2 kmh SE 7.0 mph11.3 kmh 30.08 in1018.6 mb 0.00 in0.0 mm 0.00 in/hr0.0 mm/hr 0.00 in0.0 mm
12:52 AM 62.2°F16.8°C 60.2°F15.7°C 93% 3.0 mph SE4.8 kmh SE 7.0 mph11.3 kmh 30.08 in1018.6 mb 0.00 in0.0 mm 0.00 in/hr0.0 mm/hr 0.00 in0.0 mm
12:53 AM 62.1°F16.7°C 60.1°F15.6°C 93% 2.0 mph SE3.2 kmh SE 7.0 mph11.3 kmh 30.08 in1018.6 mb 0.00 in0.0 mm 0.00 in/hr0.0 mm/hr 0.00 in0.0 mm
12:54 AM 62.1°F16.7°C 60.1°F15.6°C 93% 3.0 mph SE4.8 kmh SE 7.0 mph11.3 kmh 30.08 in1018.6 mb 0.00 in0.0 mm 0.00 in/hr0.0 mm/hr 0.00 in0.0 mm
12:55 AM 62.1°F16.7°C 60.1°F15.6°C 93% 4.0 mph SE6.4 kmh SE 7.0 mph11.3 kmh 30.08 in1018.6 mb 0.00 in0.0 mm 0.00 in/hr0.0 mm/hr 0.00 in0.0 mm
12:56 AM 62.1°F16.7°C 60.1°F15.6°C 93% 3.0 mph SE4.8 kmh SE 7.0 mph11.3 kmh 30.08 in1018.6 mb 0.00 in0.0 mm 0.00 in/hr0.0 mm/hr 0.00 in0.0 mm
12:57 AM 62.1°F16.7°C 60.1°F15.6°C 93% 4.0 mph SSE6.4 kmh SSE 7.0 mph11.3 kmh 30.08 in1018.6 mb 0.00 in0.0 mm 0.00 in/hr0.0 mm/hr 0.00 in0.0 mm
12:58 AM 62.1°F16.7°C 60.1°F15.6°C 93% 3.0 mph SE4.8 kmh SE 7.0 mph11.3 kmh 30.08 in1018.6 mb 0.00 in0.0 mm 0.00 in/hr0.0 mm/hr 0.00 in0.0 mm
12:59 AM 62.1°F16.7°C 60.1°F15.6°C 93% 2.0 mph SSE3.2 kmh SSE 7.0 mph11.3 kmh 30.08 in1018.6 mb 0.00 in0.0 mm 0.00 in/hr0.0 mm/hr 0.00 in0.0 mm
01:00 AM 62.1°F16.7°C 60.1°F15.6°C 93% 2.0 mph SSE3.2 kmh SSE 7.0 mph11.3 kmh 30.08 in1018.6 mb 0.00 in0.0 mm 0.00 in/hr0.0 mm/hr 0.00 in0.0 mm
01:01 AM 62.1°F16.7°C 60.1°F15.6°C 93% 3.0 mph SSE4.8 kmh SSE 4.0 mph6.4 kmh 30.08 in1018.6 mb 0.00 in0.0 mm 0.00 in/hr0.0 mm/hr 0.00 in0.0 mm
01:02 AM 62.1°F16.7°C 60.1°F15.6°C 93% 3.0 mph SSE4.8 kmh SSE 4.0 mph6.4 kmh 30.08 in1018.6 mb 0.00 in0.0 mm 0.00 in/hr0.0 mm/hr 0.00 in0.0 mm
01:03 AM 62.1°F16.7°C 60.1°F15.6°C 93% 2.0 mph SSE3.2 kmh SSE 4.0 mph6.4 kmh 30.07 in1018.3 mb 0.00 in0.0 mm 0.00 in/hr0.0 mm/hr 0.00 in0.0 mm
01:04 AM 62.1°F16.7°C 60.1°F15.6°C 93% 1.0 mph SSE1.6 kmh SSE 4.0 mph6.4 kmh 30.07 in1018.3 mb 0.00 in0.0 mm 0.00 in/hr0.0 mm/hr 0.00 in0.0 mm
01:05 AM 62.1°F16.7°C 60.1°F15.6°C 93% 3.0 mph SE4.8 kmh SE 4.0 mph6.4 kmh 30.08 in1018.6 mb 0.00 in0.0 mm 0.00 in/hr0.0 mm/hr 0.00 in0.0 mm
01:06 AM 62.0°F16.7°C 60.0°F15.6°C 93% 2.0 mph SE3.2 kmh SE 4.0 mph6.4 kmh 30.07 in1018.3 mb 0.00 in0.0 mm 0.00 in/hr0.0 mm/hr 0.00 in0.0 mm
01:07 AM 62.0°F16.7°C 60.0°F15.6°C 93% 2.0 mph SE3.2 kmh SE 4.0 mph6.4 kmh 30.07 in1018.3 mb 0.00 in0.0 mm 0.00 in/hr0.0 mm/hr 0.00 in0.0 mm
01:08 AM 62.0°F16.7°C 60.0°F15.6°C 93% 3.0 mph SE4.8 kmh SE 4.0 mph6.4 kmh 30.07 in1018.3 mb 0.00 in0.0 mm 0.00 in/hr0.0 mm/hr 0.00 in0.0 mm
01:09 AM 62.0°F16.7°C 60.0°F15.6°C 93% 3.0 mph SE4.8 kmh SE 4.0 mph6.4 kmh 30.07 in1018.3 mb 0.00 in0.0 mm 0.00 in/hr0.0 mm/hr 0.00 in0.0 mm
01:10 AM 62.0°F16.7°C 60.0°F15.6°C 93% 2.0 mph SE3.2 kmh SE 4.0 mph6.4 kmh 30.07 in1018.3 mb 0.00 in0.0 mm 0.00 in/hr0.0 mm/hr 0.00 in0.0 mm
01:11 AM 62.0°F16.7°C 60.0°F15.6°C 93% 3.0 mph SSE4.8 kmh SSE 5.0 mph8.0 kmh 30.07 in1018.3 mb 0.00 in0.0 mm 0.00 in/hr0.0 mm/hr 0.00 in0.0 mm
01:12 AM 62.0°F16.7°C 60.0°F15.6°C 93% 2.0 mph SE3.2 kmh SE 5.0 mph8.0 kmh 30.07 in1018.3 mb 0.00 in0.0 mm 0.00 in/hr0.0 mm/hr 0.00 in0.0 mm
01:13 AM 62.0°F16.7°C 60.0°F15.6°C 93% 2.0 mph SE3.2 kmh SE 5.0 mph8.0 kmh 30.07 in1018.3 mb 0.00 in0.0 mm 0.00 in/hr0.0 mm/hr 0.00 in0.0 mm
01:14 AM 62.0°F16.7°C 60.0°F15.6°C 93% 2.0 mph SE3.2 kmh SE 5.0 mph8.0 kmh 30.07 in1018.3 mb 0.00 in0.0 mm 0.00 in/hr0.0 mm/hr 0.00 in0.0 mm
01:15 AM 62.0°F16.7°C 60.0°F15.6°C 93% 3.0 mph SE4.8 kmh SE 5.0 mph8.0 kmh 30.07 in1018.3 mb 0.00 in0.0 mm 0.00 in/hr0.0 mm/hr 0.00 in0.0 mm
01:16 AM 62.0°F16.7°C 60.0°F15.6°C 93% 2.0 mph SE3.2 kmh SE 5.0 mph8.0 kmh 30.07 in1018.3 mb 0.00 in0.0 mm 0.00 in/hr0.0 mm/hr 0.00 in0.0 mm
01:17 AM 62.0°F16.7°C 60.0°F15.6°C 93% 4.0 mph SE6.4 kmh SE 5.0 mph8.0 kmh 30.07 in1018.3 mb 0.00 in0.0 mm 0.00 in/hr0.0 mm/hr 0.00 in0.0 mm
01:18 AM 62.0°F16.7°C 60.0°F15.6°C 93% 4.0 mph SSE6.4 kmh SSE 5.0 mph8.0 kmh 30.07 in1018.3 mb 0.00 in0.0 mm 0.00 in/hr0.0 mm/hr 0.00 in0.0 mm
01:19 AM 62.0°F16.7°C 60.0°F15.6°C 93% 4.0 mph SSE6.4 kmh SSE 5.0 mph8.0 kmh 30.07 in1018.3 mb 0.00 in0.0 mm 0.00 in/hr0.0 mm/hr 0.00 in0.0 mm
01:20 AM 61.9°F16.6°C 59.9°F15.5°C 93% 4.0 mph SE6.4 kmh SE 5.0 mph8.0 kmh 30.07 in1018.3 mb 0.00 in0.0 mm 0.00 in/hr0.0 mm/hr 0.00 in0.0 mm
01:21 AM 61.9°F16.6°C 59.9°F15.5°C 93% 4.0 mph SE6.4 kmh SE 5.0 mph8.0 kmh 30.07 in1018.3 mb 0.00 in0.0 mm 0.00 in/hr0.0 mm/hr 0.00 in0.0 mm
01:22 AM 61.9°F16.6°C 59.9°F15.5°C 93% 3.0 mph SE4.8 kmh SE 5.0 mph8.0 kmh 30.07 in1018.3 mb 0.00 in0.0 mm 0.00 in/hr0.0 mm/hr 0.00 in0.0 mm
01:23 AM 61.9°F16.6°C 59.9°F15.5°C 93% 3.0 mph SE4.8 kmh SE 5.0 mph8.0 kmh 30.07 in1018.3 mb 0.00 in0.0 mm 0.00 in/hr0.0 mm/hr 0.00 in0.0 mm
01:24 AM 61.9°F16.6°C 59.9°F15.5°C 93% 4.0 mph SE6.4 kmh SE 5.0 mph8.0 kmh 30.07 in1018.3 mb 0.00 in0.0 mm 0.00 in/hr0.0 mm/hr 0.00 in0.0 mm
01:25 AM 61.9°F16.6°C 59.9°F15.5°C 93% 2.0 mph SE3.2 kmh SE 5.0 mph8.0 kmh 30.07 in1018.3 mb 0.00 in0.0 mm 0.00 in/hr0.0 mm/hr 0.00 in0.0 mm
01:26 AM 61.8°F16.6°C 59.8°F15.4°C 93% 3.0 mph SSE4.8 kmh SSE 5.0 mph8.0 kmh 30.07 in1018.3 mb 0.00 in0.0 mm 0.00 in/hr0.0 mm/hr 0.00 in0.0 mm
01:27 AM 61.8°F16.6°C 59.8°F15.4°C 93% 3.0 mph SE4.8 kmh SE 5.0 mph8.0 kmh 30.07 in1018.3 mb 0.00 in0.0 mm 0.00 in/hr0.0 mm/hr 0.00 in0.0 mm
01:28 AM 61.8°F16.6°C 59.8°F15.4°C 93% 4.0 mph SSE6.4 kmh SSE 5.0 mph8.0 kmh 30.07 in1018.3 mb 0.00 in0.0 mm 0.00 in/hr0.0 mm/hr 0.00 in0.0 mm
01:29 AM 61.8°F16.6°C 59.8°F15.4°C 93% 3.0 mph SSE4.8 kmh SSE 5.0 mph8.0 kmh 30.07 in1018.3 mb 0.00 in0.0 mm 0.00 in/hr0.0 mm/hr 0.00 in0.0 mm
01:30 AM 61.7°F16.5°C 59.7°F15.4°C 93% 3.0 mph SSE4.8 kmh SSE 5.0 mph8.0 kmh 30.07 in1018.3 mb 0.00 in0.0 mm 0.00 in/hr0.0 mm/hr 0.00 in0.0 mm
01:31 AM 61.7°F16.5°C 59.7°F15.4°C 93% 2.0 mph SSE3.2 kmh SSE 3.0 mph4.8 kmh 30.07 in1018.3 mb 0.00 in0.0 mm 0.00 in/hr0.0 mm/hr 0.00 in0.0 mm
01:32 AM 61.7°F16.5°C 59.7°F15.4°C 93% 3.0 mph SE4.8 kmh SE 5.0 mph8.0 kmh 30.07 in1018.3 mb 0.00 in0.0 mm 0.00 in/hr0.0 mm/hr 0.00 in0.0 mm
01:33 AM 61.7°F16.5°C 59.7°F15.4°C 93% 3.0 mph SE4.8 kmh SE 5.0 mph8.0 kmh 30.06 in1017.9 mb 0.00 in0.0 mm 0.00 in/hr0.0 mm/hr 0.00 in0.0 mm
01:34 AM 61.7°F16.5°C 59.7°F15.4°C 93% 3.0 mph SE4.8 kmh SE 5.0 mph8.0 kmh 30.07 in1018.3 mb 0.00 in0.0 mm 0.00 in/hr0.0 mm/hr 0.00 in0.0 mm
01:35 AM 61.7°F16.5°C 59.7°F15.4°C 93% 1.0 mph SE1.6 kmh SE 5.0 mph8.0 kmh 30.06 in1017.9 mb 0.00 in0.0 mm 0.00 in/hr0.0 mm/hr 0.00 in0.0 mm
01:36 AM 61.7°F16.5°C 59.7°F15.4°C 93% 3.0 mph SE4.8 kmh SE 5.0 mph8.0 kmh 30.06 in1017.9 mb 0.00 in0.0 mm 0.00 in/hr0.0 mm/hr 0.00 in0.0 mm
01:37 AM 61.6°F16.4°C 59.6°F15.3°C 93% 3.0 mph SE4.8 kmh SE 5.0 mph8.0 kmh 30.06 in1017.9 mb 0.00 in0.0 mm 0.00 in/hr0.0 mm/hr 0.00 in0.0 mm
01:38 AM 61.6°F16.4°C 59.6°F15.3°C 93% 2.0 mph SE3.2 kmh SE 5.0 mph8.0 kmh 30.06 in1017.9 mb 0.00 in0.0 mm 0.00 in/hr0.0 mm/hr 0.00 in0.0 mm
01:39 AM 61.5°F16.4°C 59.5°F15.3°C 93% 2.0 mph ESE3.2 kmh ESE 5.0 mph8.0 kmh 30.06 in1017.9 mb 0.00 in0.0 mm 0.00 in/hr0.0 mm/hr 0.00 in0.0 mm
01:40 AM 61.5°F16.4°C 59.5°F15.3°C 93% 2.0 mph SE3.2 kmh SE 5.0 mph8.0 kmh 30.06 in1017.9 mb 0.00 in0.0 mm 0.00 in/hr0.0 mm/hr 0.00 in0.0 mm
01:41 AM 61.4°F16.3°C 59.7°F15.4°C 94% 3.0 mph SE4.8 kmh SE 5.0 mph8.0 kmh 30.06 in1017.9 mb 0.00 in0.0 mm 0.00 in/hr0.0 mm/hr 0.00 in0.0 mm
01:42 AM 61.4°F16.3°C 59.7°F15.4°C 94% 2.0 mph SE3.2 kmh SE 5.0 mph8.0 kmh 30.06 in1017.9 mb 0.00 in0.0 mm 0.00 in/hr0.0 mm/hr 0.00 in0.0 mm
01:43 AM 61.4°F16.3°C 59.7°F15.4°C 94% 3.0 mph SE4.8 kmh SE 5.0 mph8.0 kmh 30.06 in1017.9 mb 0.00 in0.0 mm 0.00 in/hr0.0 mm/hr 0.00 in0.0 mm
01:44 AM 61.4°F16.3°C 59.7°F15.4°C 94% 4.0 mph SE6.4 kmh SE 5.0 mph8.0 kmh 30.06 in1017.9 mb 0.00 in0.0 mm 0.00 in/hr0.0 mm/hr 0.00 in0.0 mm
01:45 AM 61.3°F16.3°C 59.6°F15.3°C 94% 2.0 mph SE3.2 kmh SE 5.0 mph8.0 kmh 30.06 in1017.9 mb 0.00 in0.0 mm 0.00 in/hr0.0 mm/hr 0.00 in0.0 mm
01:46 AM 61.3°F16.3°C 59.6°F15.3°C 94% 2.0 mph SE3.2 kmh SE 5.0 mph8.0 kmh 30.06 in1017.9 mb 0.00 in0.0 mm 0.00 in/hr0.0 mm/hr 0.00 in0.0 mm
01:47 AM 61.3°F16.3°C 59.6°F15.3°C 94% 2.0 mph SE3.2 kmh SE 5.0 mph8.0 kmh 30.06 in1017.9 mb 0.00 in0.0 mm 0.00 in/hr0.0 mm/hr 0.00 in0.0 mm
01:48 AM 61.3°F16.3°C 59.6°F15.3°C 94% 3.0 mph SE4.8 kmh SE 5.0 mph8.0 kmh 30.06 in1017.9 mb 0.00 in0.0 mm 0.00 in/hr0.0 mm/hr 0.00 in0.0 mm
01:49 AM 61.3°F16.3°C 59.6°F15.3°C 94% 2.0 mph SE3.2 kmh SE 5.0 mph8.0 kmh 30.06 in1017.9 mb 0.00 in0.0 mm 0.00 in/hr0.0 mm/hr 0.00 in0.0 mm
01:50 AM 61.3°F16.3°C 59.6°F15.3°C 94% 2.0 mph SE3.2 kmh SE 5.0 mph8.0 kmh 30.06 in1017.9 mb 0.00 in0.0 mm 0.00 in/hr0.0 mm/hr 0.00 in0.0 mm
01:51 AM 61.3°F16.3°C 59.6°F15.3°C 94% 2.0 mph S3.2 kmh S 5.0 mph8.0 kmh 30.06 in1017.9 mb 0.00 in0.0 mm 0.00 in/hr0.0 mm/hr 0.00 in0.0 mm
01:52 AM 61.3°F16.3°C 59.6°F15.3°C 94% 3.0 mph SSE4.8 kmh SSE 5.0 mph8.0 kmh 30.06 in1017.9 mb 0.00 in0.0 mm 0.00 in/hr0.0 mm/hr 0.00 in0.0 mm
01:53 AM 61.3°F16.3°C 59.6°F15.3°C 94% 1.0 mph SE1.6 kmh SE 5.0 mph8.0 kmh 30.06 in1017.9 mb 0.00 in0.0 mm 0.00 in/hr0.0 mm/hr 0.00 in0.0 mm
01:54 AM 61.3°F16.3°C 59.6°F15.3°C 94% 2.0 mph SE3.2 kmh SE 5.0 mph8.0 kmh 30.06 in1017.9 mb 0.00 in0.0 mm 0.00 in/hr0.0 mm/hr 0.00 in0.0 mm
01:55 AM 61.3°F16.3°C 59.6°F15.3°C 94% 1.0 mph SE1.6 kmh SE 5.0 mph8.0 kmh 30.06 in1017.9 mb 0.00 in0.0 mm 0.00 in/hr0.0 mm/hr 0.00 in0.0 mm
01:56 AM 61.3°F16.3°C 59.6°F15.3°C 94% 3.0 mph SE4.8 kmh SE 5.0 mph8.0 kmh 30.06 in1017.9 mb 0.00 in0.0 mm 0.00 in/hr0.0 mm/hr 0.00 in0.0 mm
01:57 AM 61.3°F16.3°C 59.6°F15.3°C 94% 2.0 mph SE3.2 kmh SE 5.0 mph8.0 kmh 30.06 in1017.9 mb 0.00 in0.0 mm 0.00 in/hr0.0 mm/hr 0.00 in0.0 mm
01:58 AM 61.3°F16.3°C 59.6°F15.3°C 94% 2.0 mph SE3.2 kmh SE 5.0 mph8.0 kmh 30.06 in1017.9 mb 0.00 in0.0 mm 0.00 in/hr0.0 mm/hr 0.00 in0.0 mm
01:59 AM 61.3°F16.3°C 59.6°F15.3°C 94% 3.0 mph SE4.8 kmh SE 5.0 mph8.0 kmh 30.06 in1017.9 mb 0.00 in0.0 mm 0.00 in/hr0.0 mm/hr 0.00 in0.0 mm
02:00 AM 61.3°F16.3°C 59.6°F15.3°C 94% 2.0 mph SE3.2 kmh SE 5.0 mph8.0 kmh 30.06 in1017.9 mb 0.00 in0.0 mm 0.00 in/hr0.0 mm/hr 0.00 in0.0 mm
02:01 AM 61.3°F16.3°C 59.6°F15.3°C 94% 3.0 mph SE4.8 kmh SE 3.0 mph4.8 kmh 30.05 in1017.6 mb 0.00 in0.0 mm 0.00 in/hr0.0 mm/hr 0.00 in0.0 mm
02:02 AM 61.2°F16.2°C 59.5°F15.3°C 94% 3.0 mph SE4.8 kmh SE 4.0 mph6.4 kmh 30.05 in1017.6 mb 0.00 in0.0 mm 0.00 in/hr0.0 mm/hr 0.00 in0.0 mm
02:03 AM 61.2°F16.2°C 59.5°F15.3°C 94% 2.0 mph SE3.2 kmh SE 4.0 mph6.4 kmh 30.05 in1017.6 mb 0.00 in0.0 mm 0.00 in/hr0.0 mm/hr 0.00 in0.0 mm
02:04 AM 61.2°F16.2°C 59.5°F15.3°C 94% 2.0 mph SE3.2 kmh SE 4.0 mph6.4 kmh 30.05 in1017.6 mb 0.00 in0.0 mm 0.00 in/hr0.0 mm/hr 0.00 in0.0 mm
02:05 AM 61.2°F16.2°C 59.5°F15.3°C 94% 1.0 mph SE1.6 kmh SE 4.0 mph6.4 kmh 30.05 in1017.6 mb 0.00 in0.0 mm 0.00 in/hr0.0 mm/hr 0.00 in0.0 mm
02:06 AM 61.2°F16.2°C 59.5°F15.3°C 94% 1.0 mph SE1.6 kmh SE 4.0 mph6.4 kmh 30.05 in1017.6 mb 0.00 in0.0 mm 0.00 in/hr0.0 mm/hr 0.00 in0.0 mm
02:07 AM 61.1°F16.2°C 59.4°F15.2°C 94% 4.0 mph SE6.4 kmh SE 4.0 mph6.4 kmh 30.05 in1017.6 mb 0.00 in0.0 mm 0.00 in/hr0.0 mm/hr 0.00 in0.0 mm
02:08 AM 61.1°F16.2°C 59.4°F15.2°C 94% 1.0 mph SE1.6 kmh SE 4.0 mph6.4 kmh 30.05 in1017.6 mb 0.00 in0.0 mm 0.00 in/hr0.0 mm/hr 0.00 in0.0 mm
02:09 AM 61.1°F16.2°C 59.4°F15.2°C 94% 3.0 mph SE4.8 kmh SE 4.0 mph6.4 kmh 30.05 in1017.6 mb 0.00 in0.0 mm 0.00 in/hr0.0 mm/hr 0.00 in0.0 mm
02:10 AM 61.1°F16.2°C 59.4°F15.2°C 94% 3.0 mph SE4.8 kmh SE 4.0 mph6.4 kmh 30.05 in1017.6 mb 0.00 in0.0 mm 0.00 in/hr0.0 mm/hr 0.00 in0.0 mm
02:11 AM 61.2°F16.2°C 59.5°F15.3°C 94% 3.0 mph SE4.8 kmh SE 5.0 mph8.0 kmh 30.05 in1017.6 mb 0.00 in0.0 mm 0.00 in/hr0.0 mm/hr 0.00 in0.0 mm
02:12 AM 61.2°F16.2°C 59.5°F15.3°C 94% 1.0 mph SE1.6 kmh SE 5.0 mph8.0 kmh 30.05 in1017.6 mb 0.00 in0.0 mm 0.00 in/hr0.0 mm/hr 0.00 in0.0 mm
02:13 AM 61.2°F16.2°C 59.5°F15.3°C 94% 1.0 mph SE1.6 kmh SE 5.0 mph8.0 kmh 30.05 in1017.6 mb 0.00 in0.0 mm 0.00 in/hr0.0 mm/hr 0.00 in0.0 mm
02:14 AM 61.2°F16.2°C 59.5°F15.3°C 94% 3.0 mph SE4.8 kmh SE 5.0 mph8.0 kmh 30.05 in1017.6 mb 0.00 in0.0 mm 0.00 in/hr0.0 mm/hr 0.00 in0.0 mm
02:15 AM 61.2°F16.2°C 59.5°F15.3°C 94% 4.0 mph SE6.4 kmh SE 5.0 mph8.0 kmh 30.05 in1017.6 mb 0.00 in0.0 mm 0.00 in/hr0.0 mm/hr 0.00 in0.0 mm
02:16 AM 61.2°F16.2°C 59.5°F15.3°C 94% 2.0 mph SE3.2 kmh SE 5.0 mph8.0 kmh 30.05 in1017.6 mb 0.00 in0.0 mm 0.00 in/hr0.0 mm/hr 0.00 in0.0 mm
02:17 AM 61.2°F16.2°C 59.5°F15.3°C 94% 3.0 mph SE4.8 kmh SE 5.0 mph8.0 kmh 30.05 in1017.6 mb 0.00 in0.0 mm 0.00 in/hr0.0 mm/hr 0.00 in0.0 mm
02:18 AM 61.2°F16.2°C 59.5°F15.3°C 94% 2.0 mph SE3.2 kmh SE 5.0 mph8.0 kmh 30.05 in1017.6 mb 0.00 in0.0 mm 0.00 in/hr0.0 mm/hr 0.00 in0.0 mm
02:19 AM 61.1°F16.2°C 59.4°F15.2°C 94% 3.0 mph SE4.8 kmh SE 5.0 mph8.0 kmh 30.05 in1017.6 mb 0.00 in0.0 mm 0.00 in/hr0.0 mm/hr 0.00 in0.0 mm
02:20 AM 61.2°F16.2°C 59.5°F15.3°C 94% 3.0 mph SE4.8 kmh SE 5.0 mph8.0 kmh 30.05 in1017.6 mb 0.00 in0.0 mm 0.00 in/hr0.0 mm/hr 0.00 in0.0 mm
02:21 AM 61.1°F16.2°C 59.4°F15.2°C 94% 2.0 mph SE3.2 kmh SE 5.0 mph8.0 kmh 30.05 in1017.6 mb 0.00 in0.0 mm 0.00 in/hr0.0 mm/hr 0.00 in0.0 mm
02:22 AM 61.1°F16.2°C 59.4°F15.2°C 94% 2.0 mph SE3.2 kmh SE 5.0 mph8.0 kmh 30.05 in1017.6 mb 0.00 in0.0 mm 0.00 in/hr0.0 mm/hr 0.00 in0.0 mm
02:23 AM 61.1°F16.2°C 59.4°F15.2°C 94% 3.0 mph SE4.8 kmh SE 5.0 mph8.0 kmh 30.05 in1017.6 mb 0.00 in0.0 mm 0.00 in/hr0.0 mm/hr 0.00 in0.0 mm
02:24 AM 61.1°F16.2°C 59.4°F15.2°C 94% 3.0 mph SE4.8 kmh SE 5.0 mph8.0 kmh 30.05 in1017.6 mb 0.00 in0.0 mm 0.00 in/hr0.0 mm/hr 0.00 in0.0 mm
02:25 AM 61.1°F16.2°C 59.4°F15.2°C 94% 3.0 mph SE4.8 kmh SE 5.0 mph8.0 kmh 30.05 in1017.6 mb 0.00 in0.0 mm 0.00 in/hr0.0 mm/hr 0.00 in0.0 mm
02:26 AM 61.1°F16.2°C 59.4°F15.2°C 94% 2.0 mph SE3.2 kmh SE 5.0 mph8.0 kmh 30.05 in1017.6 mb 0.00 in0.0 mm 0.00 in/hr0.0 mm/hr 0.00 in0.0 mm
02:27 AM 61.1°F16.2°C 59.4°F15.2°C 94% 2.0 mph SE3.2 kmh SE 5.0 mph8.0 kmh 30.05 in1017.6 mb 0.00 in0.0 mm 0.00 in/hr0.0 mm/hr 0.00 in0.0 mm
02:28 AM 61.1°F16.2°C 59.4°F15.2°C 94% 2.0 mph SE3.2 kmh SE 5.0 mph8.0 kmh 30.05 in1017.6 mb 0.00 in0.0 mm 0.00 in/hr0.0 mm/hr 0.00 in0.0 mm
02:29 AM 61.1°F16.2°C 59.4°F15.2°C 94% 4.0 mph SE6.4 kmh SE 5.0 mph8.0 kmh 30.05 in1017.6 mb 0.00 in0.0 mm 0.00 in/hr0.0 mm/hr 0.00 in0.0 mm
02:30 AM 61.1°F16.2°C 59.4°F15.2°C 94% 2.0 mph SE3.2 kmh SE 5.0 mph8.0 kmh 30.05 in1017.6 mb 0.00 in0.0 mm 0.00 in/hr0.0 mm/hr 0.00 in0.0 mm
02:31 AM 61.2°F16.2°C 59.5°F15.3°C 94% 3.0 mph SE4.8 kmh SE 3.0 mph4.8 kmh 30.05 in1017.6 mb 0.00 in0.0 mm 0.00 in/hr0.0 mm/hr 0.00 in0.0 mm
02:32 AM 61.1°F16.2°C 59.4°F15.2°C 94% 3.0 mph SE4.8 kmh SE 4.0 mph6.4 kmh 30.05 in1017.6 mb 0.00 in0.0 mm 0.00 in/hr0.0 mm/hr 0.00 in0.0 mm
02:33 AM 61.2°F16.2°C 59.5°F15.3°C 94% 3.0 mph SE4.8 kmh SE 4.0 mph6.4 kmh 30.05 in1017.6 mb 0.00 in0.0 mm 0.00 in/hr0.0 mm/hr 0.00 in0.0 mm
02:34 AM 61.1°F16.2°C 59.4°F15.2°C 94% Calm Calm 4.0 mph6.4 kmh 30.05 in1017.6 mb 0.00 in0.0 mm 0.00 in/hr0.0 mm/hr 0.00 in0.0 mm
02:35 AM 61.1°F16.2°C 59.4°F15.2°C 94% 1.0 mph SE1.6 kmh SE 4.0 mph6.4 kmh 30.05 in1017.6 mb 0.00 in0.0 mm 0.00 in/hr0.0 mm/hr 0.00 in0.0 mm
02:36 AM 61.1°F16.2°C 59.4°F15.2°C 94% 2.0 mph SE3.2 kmh SE 4.0 mph6.4 kmh 30.05 in1017.6 mb 0.00 in0.0 mm 0.00 in/hr0.0 mm/hr 0.00 in0.0 mm
02:37 AM 61.1°F16.2°C 59.4°F15.2°C 94% Calm Calm 4.0 mph6.4 kmh 30.05 in1017.6 mb 0.00 in0.0 mm 0.00 in/hr0.0 mm/hr 0.00 in0.0 mm
02:38 AM 61.1°F16.2°C 59.4°F15.2°C 94% 1.0 mph SE1.6 kmh SE 4.0 mph6.4 kmh 30.05 in1017.6 mb 0.00 in0.0 mm 0.00 in/hr0.0 mm/hr 0.00 in0.0 mm
02:39 AM 61.0°F16.1°C 59.3°F15.2°C 94% 2.0 mph SE3.2 kmh SE 4.0 mph6.4 kmh 30.05 in1017.6 mb 0.00 in0.0 mm 0.00 in/hr0.0 mm/hr 0.00 in0.0 mm
02:40 AM 61.0°F16.1°C 59.3°F15.2°C 94% 1.0 mph SE1.6 kmh SE 4.0 mph6.4 kmh 30.05 in1017.6 mb 0.00 in0.0 mm 0.00 in/hr0.0 mm/hr 0.00 in0.0 mm
02:41 AM 61.0°F16.1°C 59.3°F15.2°C 94% 2.0 mph SE3.2 kmh SE 4.0 mph6.4 kmh 30.05 in1017.6 mb 0.00 in0.0 mm 0.00 in/hr0.0 mm/hr 0.00 in0.0 mm
02:42 AM 61.0°F16.1°C 59.3°F15.2°C 94% 2.0 mph SE3.2 kmh SE 4.0 mph6.4 kmh 30.05 in1017.6 mb 0.00 in0.0 mm 0.00 in/hr0.0 mm/hr 0.00 in0.0 mm
02:43 AM 60.9°F16.1°C 59.2°F15.1°C 94% 2.0 mph SE3.2 kmh SE 4.0 mph6.4 kmh 30.05 in1017.6 mb 0.00 in0.0 mm 0.00 in/hr0.0 mm/hr 0.00 in0.0 mm
02:44 AM 60.9°F16.1°C 59.2°F15.1°C 94% 1.0 mph SE1.6 kmh SE 4.0 mph6.4 kmh 30.05 in1017.6 mb 0.00 in0.0 mm 0.00 in/hr0.0 mm/hr 0.00 in0.0 mm
02:45 AM 60.9°F16.1°C 59.2°F15.1°C 94% 2.0 mph SE3.2 kmh SE 4.0 mph6.4 kmh 30.05 in1017.6 mb 0.00 in0.0 mm 0.00 in/hr0.0 mm/hr 0.00 in0.0 mm
02:46 AM 60.9°F16.1°C 59.2°F15.1°C 94% 1.0 mph SE1.6 kmh SE 4.0 mph6.4 kmh 30.05 in1017.6 mb 0.00 in0.0 mm 0.00 in/hr0.0 mm/hr 0.00 in0.0 mm
02:47 AM 60.9°F16.1°C 59.2°F15.1°C 94% 2.0 mph SE3.2 kmh SE 4.0 mph6.4 kmh 30.05 in1017.6 mb 0.00 in0.0 mm 0.00 in/hr0.0 mm/hr 0.00 in0.0 mm
02:48 AM 60.9°F16.1°C 59.5°F15.3°C 95% 3.0 mph SE4.8 kmh SE 4.0 mph6.4 kmh 30.05 in1017.6 mb 0.00 in0.0 mm 0.00 in/hr0.0 mm/hr 0.00 in0.0 mm
02:49 AM 60.8°F16.0°C 59.4°F15.2°C 95% 1.0 mph SE1.6 kmh SE 4.0 mph6.4 kmh 30.05 in1017.6 mb 0.00 in0.0 mm 0.00 in/hr0.0 mm/hr 0.00 in0.0 mm
02:50 AM 60.8°F16.0°C 59.4°F15.2°C 95% 2.0 mph SE3.2 kmh SE 4.0 mph6.4 kmh 30.05 in1017.6 mb 0.00 in0.0 mm 0.00 in/hr0.0 mm/hr 0.00 in0.0 mm
02:51 AM 60.8°F16.0°C 59.4°F15.2°C 95% 1.0 mph SE1.6 kmh SE 4.0 mph6.4 kmh 30.05 in1017.6 mb 0.00 in0.0 mm 0.00 in/hr0.0 mm/hr 0.00 in0.0 mm
02:52 AM 60.8°F16.0°C 59.4°F15.2°C 95% 1.0 mph SE1.6 kmh SE 4.0 mph6.4 kmh 30.04 in1017.3 mb 0.00 in0.0 mm 0.00 in/hr0.0 mm/hr 0.00 in0.0 mm
02:53 AM 60.8°F16.0°C 59.4°F15.2°C 95% 2.0 mph SE3.2 kmh SE 4.0 mph6.4 kmh 30.04 in1017.3 mb 0.00 in0.0 mm 0.00 in/hr0.0 mm/hr 0.00 in0.0 mm
02:54 AM 60.9°F16.1°C 59.5°F15.3°C 95% 3.0 mph SE4.8 kmh SE 4.0 mph6.4 kmh 30.05 in1017.6 mb 0.00 in0.0 mm 0.00 in/hr0.0 mm/hr 0.00 in0.0 mm
02:55 AM 60.8°F16.0°C 59.4°F15.2°C 95% 2.0 mph SE3.2 kmh SE 4.0 mph6.4 kmh 30.04 in1017.3 mb 0.00 in0.0 mm 0.00 in/hr0.0 mm/hr 0.00 in0.0 mm
02:56 AM 60.9°F16.1°C 59.5°F15.3°C 95% 3.0 mph SE4.8 kmh SE 4.0 mph6.4 kmh 30.04 in1017.3 mb 0.00 in0.0 mm 0.00 in/hr0.0 mm/hr 0.00 in0.0 mm
02:57 AM 60.9°F16.1°C 59.5°F15.3°C 95% 1.0 mph SE1.6 kmh SE 4.0 mph6.4 kmh 30.04 in1017.3 mb 0.00 in0.0 mm 0.00 in/hr0.0 mm/hr 0.00 in0.0 mm
02:58 AM 60.9°F16.1°C 59.5°F15.3°C 95% 1.0 mph SE1.6 kmh SE 4.0 mph6.4 kmh 30.04 in1017.3 mb 0.00 in0.0 mm 0.00 in/hr0.0 mm/hr 0.00 in0.0 mm
02:59 AM 60.9°F16.1°C 59.5°F15.3°C 95% 1.0 mph SE1.6 kmh SE 4.0 mph6.4 kmh 30.04 in1017.3 mb 0.00 in0.0 mm 0.00 in/hr0.0 mm/hr 0.00 in0.0 mm
03:00 AM 60.9°F16.1°C 59.5°F15.3°C 95% Calm Calm 4.0 mph6.4 kmh 30.04 in1017.3 mb 0.00 in0.0 mm 0.00 in/hr0.0 mm/hr 0.00 in0.0 mm
03:01 AM 60.9°F16.1°C 59.5°F15.3°C 95% 2.0 mph SE3.2 kmh SE 2.0 mph3.2 kmh 30.04 in1017.3 mb 0.00 in0.0 mm 0.00 in/hr0.0 mm/hr 0.00 in0.0 mm
03:02 AM 60.9°F16.1°C 59.5°F15.3°C 95% Calm Calm 2.0 mph3.2 kmh 30.04 in1017.3 mb 0.00 in0.0 mm 0.00 in/hr0.0 mm/hr 0.00 in0.0 mm
03:03 AM 60.9°F16.1°C 59.5°F15.3°C 95% Calm Calm 2.0 mph3.2 kmh 30.04 in1017.3 mb 0.00 in0.0 mm 0.00 in/hr0.0 mm/hr 0.00 in0.0 mm
03:04 AM 60.8°F16.0°C 59.4°F15.2°C 95% Calm Calm 2.0 mph3.2 kmh 30.04 in1017.3 mb 0.00 in0.0 mm 0.00 in/hr0.0 mm/hr 0.00 in0.0 mm
03:05 AM 60.8°F16.0°C 59.4°F15.2°C 95% 1.0 mph SE1.6 kmh SE 3.0 mph4.8 kmh 30.04 in1017.3 mb 0.00 in0.0 mm 0.00 in/hr0.0 mm/hr 0.00 in0.0 mm
03:06 AM 60.8°F16.0°C 59.4°F15.2°C 95% 1.0 mph SE1.6 kmh SE 3.0 mph4.8 kmh 30.04 in1017.3 mb 0.00 in0.0 mm 0.00 in/hr0.0 mm/hr 0.00 in0.0 mm
03:07 AM 60.8°F16.0°C 59.4°F15.2°C 95% 2.0 mph SE3.2 kmh SE 3.0 mph4.8 kmh 30.04 in1017.3 mb 0.00 in0.0 mm 0.00 in/hr0.0 mm/hr 0.00 in0.0 mm
03:08 AM 60.8°F16.0°C 59.4°F15.2°C 95% 2.0 mph SE3.2 kmh SE 3.0 mph4.8 kmh 30.04 in1017.3 mb 0.00 in0.0 mm 0.00 in/hr0.0 mm/hr 0.00 in0.0 mm
03:09 AM 60.8°F16.0°C 59.4°F15.2°C 95% 2.0 mph SE3.2 kmh SE 3.0 mph4.8 kmh 30.04 in1017.3 mb 0.00 in0.0 mm 0.00 in/hr0.0 mm/hr 0.00 in0.0 mm
03:10 AM 60.8°F16.0°C 59.4°F15.2°C 95% 1.0 mph SE1.6 kmh SE 3.0 mph4.8 kmh 30.04 in1017.3 mb 0.00 in0.0 mm 0.00 in/hr0.0 mm/hr 0.00 in0.0 mm
03:11 AM 60.8°F16.0°C 59.4°F15.2°C 95% 2.0 mph SE3.2 kmh SE 5.0 mph8.0 kmh 30.04 in1017.3 mb 0.00 in0.0 mm 0.00 in/hr0.0 mm/hr 0.00 in0.0 mm
03:12 AM 60.8°F16.0°C 59.4°F15.2°C 95% 1.0 mph SE1.6 kmh SE 5.0 mph8.0 kmh 30.04 in1017.3 mb 0.00 in0.0 mm 0.00 in/hr0.0 mm/hr 0.00 in0.0 mm
03:13 AM 60.8°F16.0°C 59.4°F15.2°C 95% 1.0 mph SE1.6 kmh SE 5.0 mph8.0 kmh 30.04 in1017.3 mb 0.00 in0.0 mm 0.00 in/hr0.0 mm/hr 0.00 in0.0 mm
03:14 AM 60.8°F16.0°C 59.4°F15.2°C 95% 3.0 mph SE4.8 kmh SE 5.0 mph8.0 kmh 30.04 in1017.3 mb 0.00 in0.0 mm 0.00 in/hr0.0 mm/hr 0.00 in0.0 mm
03:15 AM 60.8°F16.0°C 59.4°F15.2°C 95% 2.0 mph SE3.2 kmh SE 5.0 mph8.0 kmh 30.04 in1017.3 mb 0.00 in0.0 mm 0.00 in/hr0.0 mm/hr 0.00 in0.0 mm
03:16 AM 60.8°F16.0°C 59.4°F15.2°C 95% 3.0 mph SE4.8 kmh SE 5.0 mph8.0 kmh 30.04 in1017.3 mb 0.00 in0.0 mm 0.00 in/hr0.0 mm/hr 0.00 in0.0 mm
03:17 AM 60.8°F16.0°C 59.4°F15.2°C 95% 2.0 mph SE3.2 kmh SE 5.0 mph8.0 kmh 30.04 in1017.3 mb 0.00 in0.0 mm 0.00 in/hr0.0 mm/hr 0.00 in0.0 mm
03:18 AM 60.7°F15.9°C 59.3°F15.2°C 95% 1.0 mph SE1.6 kmh SE 5.0 mph8.0 kmh 30.04 in1017.3 mb 0.00 in0.0 mm 0.00 in/hr0.0 mm/hr 0.00 in0.0 mm
03:19 AM 60.8°F16.0°C 59.4°F15.2°C 95% 2.0 mph SE3.2 kmh SE 5.0 mph8.0 kmh 30.04 in1017.3 mb 0.00 in0.0 mm 0.00 in/hr0.0 mm/hr 0.00 in0.0 mm
03:20 AM 60.8°F16.0°C 59.4°F15.2°C 95% 3.0 mph SE4.8 kmh SE 5.0 mph8.0 kmh 30.04 in1017.3 mb 0.00 in0.0 mm 0.00 in/hr0.0 mm/hr 0.00 in0.0 mm
03:21 AM 60.8°F16.0°C 59.4°F15.2°C 95% 2.0 mph SE3.2 kmh SE 5.0 mph8.0 kmh 30.04 in1017.3 mb 0.00 in0.0 mm 0.00 in/hr0.0 mm/hr 0.00 in0.0 mm
03:22 AM 60.7°F15.9°C 59.3°F15.2°C 95% 3.0 mph SE4.8 kmh SE 5.0 mph8.0 kmh 30.04 in1017.3 mb 0.00 in0.0 mm 0.00 in/hr0.0 mm/hr 0.00 in0.0 mm
03:23 AM 60.8°F16.0°C 59.4°F15.2°C 95% 2.0 mph SE3.2 kmh SE 5.0 mph8.0 kmh 30.04 in1017.3 mb 0.00 in0.0 mm 0.00 in/hr0.0 mm/hr 0.00 in0.0 mm
03:24 AM 60.8°F16.0°C 59.4°F15.2°C 95% 2.0 mph SE3.2 kmh SE 5.0 mph8.0 kmh 30.04 in1017.3 mb 0.00 in0.0 mm 0.00 in/hr0.0 mm/hr 0.00 in0.0 mm
03:25 AM 60.8°F16.0°C 59.4°F15.2°C 95% 2.0 mph SE3.2 kmh SE 5.0 mph8.0 kmh 30.04 in1017.3 mb 0.00 in0.0 mm 0.00 in/hr0.0 mm/hr 0.00 in0.0 mm
03:26 AM 60.7°F15.9°C 59.3°F15.2°C 95% 2.0 mph SE3.2 kmh SE 5.0 mph8.0 kmh 30.04 in1017.3 mb 0.00 in0.0 mm 0.00 in/hr0.0 mm/hr 0.00 in0.0 mm
03:27 AM 60.7°F15.9°C 59.3°F15.2°C 95% 4.0 mph SE6.4 kmh SE 5.0 mph8.0 kmh 30.04 in1017.3 mb 0.00 in0.0 mm 0.00 in/hr0.0 mm/hr 0.00 in0.0 mm
03:28 AM 60.7°F15.9°C 59.3°F15.2°C 95% 2.0 mph SE3.2 kmh SE 5.0 mph8.0 kmh 30.04 in1017.3 mb 0.00 in0.0 mm 0.00 in/hr0.0 mm/hr 0.00 in0.0 mm
03:29 AM 60.7°F15.9°C 59.3°F15.2°C 95% 3.0 mph SE4.8 kmh SE 5.0 mph8.0 kmh 30.04 in1017.3 mb 0.00 in0.0 mm 0.00 in/hr0.0 mm/hr 0.00 in0.0 mm
03:30 AM 60.7°F15.9°C 59.3°F15.2°C 95% 3.0 mph SE4.8 kmh SE 5.0 mph8.0 kmh 30.04 in1017.3 mb 0.00 in0.0 mm 0.00 in/hr0.0 mm/hr 0.00 in0.0 mm
03:31 AM 60.8°F16.0°C 59.4°F15.2°C 95% 2.0 mph SE3.2 kmh SE 3.0 mph4.8 kmh 30.04 in1017.3 mb 0.00 in0.0 mm 0.00 in/hr0.0 mm/hr 0.00 in0.0 mm
03:32 AM 60.8°F16.0°C 59.4°F15.2°C 95% 2.0 mph SSE3.2 kmh SSE 5.0 mph8.0 kmh 30.04 in1017.3 mb 0.00 in0.0 mm 0.00 in/hr0.0 mm/hr 0.00 in0.0 mm
03:33 AM 60.8°F16.0°C 59.4°F15.2°C 95% 3.0 mph SE4.8 kmh SE 5.0 mph8.0 kmh 30.04 in1017.3 mb 0.00 in0.0 mm 0.00 in/hr0.0 mm/hr 0.00 in0.0 mm
03:34 AM 60.8°F16.0°C 59.4°F15.2°C 95% 2.0 mph SE3.2 kmh SE 5.0 mph8.0 kmh 30.04 in1017.3 mb 0.00 in0.0 mm 0.00 in/hr0.0 mm/hr 0.00 in0.0 mm
03:35 AM 60.9°F16.1°C 59.5°F15.3°C 95% 3.0 mph SE4.8 kmh SE 5.0 mph8.0 kmh 30.04 in1017.3 mb 0.00 in0.0 mm 0.00 in/hr0.0 mm/hr 0.00 in0.0 mm
03:36 AM 60.9°F16.1°C 59.5°F15.3°C 95% 1.0 mph SE1.6 kmh SE 5.0 mph8.0 kmh 30.04 in1017.3 mb 0.00 in0.0 mm 0.00 in/hr0.0 mm/hr 0.00 in0.0 mm
03:37 AM 60.9°F16.1°C 59.5°F15.3°C 95% 4.0 mph SE6.4 kmh SE 5.0 mph8.0 kmh 30.03 in1016.9 mb 0.00 in0.0 mm 0.00 in/hr0.0 mm/hr 0.00 in0.0 mm
03:38 AM 60.9°F16.1°C 59.5°F15.3°C 95% 2.0 mph SE3.2 kmh SE 5.0 mph8.0 kmh 30.03 in1016.9 mb 0.00 in0.0 mm 0.00 in/hr0.0 mm/hr 0.00 in0.0 mm
03:39 AM 60.9°F16.1°C 59.5°F15.3°C 95% 1.0 mph SE1.6 kmh SE 5.0 mph8.0 kmh 30.03 in1016.9 mb 0.00 in0.0 mm 0.00 in/hr0.0 mm/hr 0.00 in0.0 mm
03:40 AM 60.9°F16.1°C 59.5°F15.3°C 95% 2.0 mph SE3.2 kmh SE 6.0 mph9.7 kmh 30.03 in1016.9 mb 0.00 in0.0 mm 0.00 in/hr0.0 mm/hr 0.00 in0.0 mm
03:41 AM 61.0°F16.1°C 59.6°F15.3°C 95% 3.0 mph SE4.8 kmh SE 6.0 mph9.7 kmh 30.03 in1016.9 mb 0.00 in0.0 mm 0.00 in/hr0.0 mm/hr 0.00 in0.0 mm
03:42 AM 61.0°F16.1°C 59.6°F15.3°C 95% 4.0 mph SE6.4 kmh SE 6.0 mph9.7 kmh 30.03 in1016.9 mb 0.00 in0.0 mm 0.00 in/hr0.0 mm/hr 0.00 in0.0 mm
03:43 AM 61.0°F16.1°C 59.6°F15.3°C 95% 3.0 mph SE4.8 kmh SE 6.0 mph9.7 kmh 30.03 in1016.9 mb 0.00 in0.0 mm 0.00 in/hr0.0 mm/hr 0.00 in0.0 mm
03:44 AM 61.0°F16.1°C 59.6°F15.3°C 95% 2.0 mph SE3.2 kmh SE 6.0 mph9.7 kmh 30.03 in1016.9 mb 0.00 in0.0 mm 0.00 in/hr0.0 mm/hr 0.00 in0.0 mm
03:45 AM 61.0°F16.1°C 59.6°F15.3°C 95% 4.0 mph SE6.4 kmh SE 6.0 mph9.7 kmh 30.03 in1016.9 mb 0.00 in0.0 mm 0.00 in/hr0.0 mm/hr 0.00 in0.0 mm
03:46 AM 61.0°F16.1°C 59.6°F15.3°C 95% 1.0 mph SE1.6 kmh SE 6.0 mph9.7 kmh 30.03 in1016.9 mb 0.00 in0.0 mm 0.00 in/hr0.0 mm/hr 0.00 in0.0 mm
03:47 AM 61.0°F16.1°C 59.6°F15.3°C 95% 2.0 mph SE3.2 kmh SE 6.0 mph9.7 kmh 30.03 in1016.9 mb 0.00 in0.0 mm 0.00 in/hr0.0 mm/hr 0.00 in0.0 mm
03:48 AM 60.9°F16.1°C 59.5°F15.3°C 95% 3.0 mph SE4.8 kmh SE 6.0 mph9.7 kmh 30.03 in1016.9 mb 0.00 in0.0 mm 0.00 in/hr0.0 mm/hr 0.00 in0.0 mm
03:49 AM 60.9°F16.1°C 59.5°F15.3°C 95% 2.0 mph SE3.2 kmh SE 6.0 mph9.7 kmh 30.03 in1016.9 mb 0.00 in0.0 mm 0.00 in/hr0.0 mm/hr 0.00 in0.0 mm
03:50 AM 60.9°F16.1°C 59.5°F15.3°C 95% 2.0 mph SE3.2 kmh SE 6.0 mph9.7 kmh 30.03 in1016.9 mb 0.00 in0.0 mm 0.00 in/hr0.0 mm/hr 0.00 in0.0 mm
03:51 AM 60.9°F16.1°C 59.5°F15.3°C 95% 1.0 mph SE1.6 kmh SE 6.0 mph9.7 kmh 30.03 in1016.9 mb 0.00 in0.0 mm 0.00 in/hr0.0 mm/hr 0.00 in0.0 mm
03:52 AM 60.9°F16.1°C 59.5°F15.3°C 95% 1.0 mph SE1.6 kmh SE 6.0 mph9.7 kmh 30.03 in1016.9 mb 0.00 in0.0 mm 0.00 in/hr0.0 mm/hr 0.00 in0.0 mm
03:53 AM 60.9°F16.1°C 59.5°F15.3°C 95% 2.0 mph SE3.2 kmh SE 6.0 mph9.7 kmh 30.03 in1016.9 mb 0.00 in0.0 mm 0.00 in/hr0.0 mm/hr 0.00 in0.0 mm
03:54 AM 60.8°F16.0°C 59.4°F15.2°C 95% 1.0 mph SE1.6 kmh SE 6.0 mph9.7 kmh 30.03 in1016.9 mb 0.00 in0.0 mm 0.00 in/hr0.0 mm/hr 0.00 in0.0 mm
03:55 AM 60.8°F16.0°C 59.4°F15.2°C 95% 1.0 mph SE1.6 kmh SE 6.0 mph9.7 kmh 30.03 in1016.9 mb 0.00 in0.0 mm 0.00 in/hr0.0 mm/hr 0.00 in0.0 mm
03:56 AM 60.8°F16.0°C 59.4°F15.2°C 95% 2.0 mph SE3.2 kmh SE 6.0 mph9.7 kmh 30.03 in1016.9 mb 0.00 in0.0 mm 0.00 in/hr0.0 mm/hr 0.00 in0.0 mm
03:57 AM 60.7°F15.9°C 59.3°F15.2°C 95% 2.0 mph SE3.2 kmh SE 6.0 mph9.7 kmh 30.03 in1016.9 mb 0.00 in0.0 mm 0.00 in/hr0.0 mm/hr 0.00 in0.0 mm
03:58 AM 60.7°F15.9°C 59.3°F15.2°C 95% 2.0 mph SE3.2 kmh SE 6.0 mph9.7 kmh 30.03 in1016.9 mb 0.00 in0.0 mm 0.00 in/hr0.0 mm/hr 0.00 in0.0 mm
03:59 AM 60.7°F15.9°C 59.3°F15.2°C 95% 2.0 mph SE3.2 kmh SE 6.0 mph9.7 kmh 30.03 in1016.9 mb 0.00 in0.0 mm 0.00 in/hr0.0 mm/hr 0.00 in0.0 mm
04:00 AM 60.6°F15.9°C 59.2°F15.1°C 95% 2.0 mph ESE3.2 kmh ESE 6.0 mph9.7 kmh 30.03 in1016.9 mb 0.00 in0.0 mm 0.00 in/hr0.0 mm/hr 0.00 in0.0 mm
04:01 AM 60.6°F15.9°C 59.2°F15.1°C 95% 2.0 mph ESE3.2 kmh ESE 3.0 mph4.8 kmh 30.03 in1016.9 mb 0.00 in0.0 mm 0.00 in/hr0.0 mm/hr 0.00 in0.0 mm
04:02 AM 60.6°F15.9°C 59.2°F15.1°C 95% 3.0 mph ESE4.8 kmh ESE 3.0 mph4.8 kmh 30.03 in1016.9 mb 0.00 in0.0 mm 0.00 in/hr0.0 mm/hr 0.00 in0.0 mm
04:03 AM 60.5°F15.8°C 59.1°F15.1°C 95% 2.0 mph ESE3.2 kmh ESE 4.0 mph6.4 kmh 30.03 in1016.9 mb 0.00 in0.0 mm 0.00 in/hr0.0 mm/hr 0.00 in0.0 mm
04:04 AM 60.5°F15.8°C 59.1°F15.1°C 95% 3.0 mph ESE4.8 kmh ESE 4.0 mph6.4 kmh 30.03 in1016.9 mb 0.00 in0.0 mm 0.00 in/hr0.0 mm/hr 0.00 in0.0 mm
04:05 AM 60.5°F15.8°C 59.1°F15.1°C 95% 1.0 mph ESE1.6 kmh ESE 4.0 mph6.4 kmh 30.03 in1016.9 mb 0.00 in0.0 mm 0.00 in/hr0.0 mm/hr 0.00 in0.0 mm
04:06 AM 60.5°F15.8°C 59.1°F15.1°C 95% 2.0 mph ESE3.2 kmh ESE 4.0 mph6.4 kmh 30.03 in1016.9 mb 0.00 in0.0 mm 0.00 in/hr0.0 mm/hr 0.00 in0.0 mm
04:07 AM 60.5°F15.8°C 59.1°F15.1°C 95% 3.0 mph ESE4.8 kmh ESE 4.0 mph6.4 kmh 30.03 in1016.9 mb 0.00 in0.0 mm 0.00 in/hr0.0 mm/hr 0.00 in0.0 mm
04:08 AM 60.4°F15.8°C 59.0°F15.0°C 95% 3.0 mph ESE4.8 kmh ESE 4.0 mph6.4 kmh 30.03 in1016.9 mb 0.00 in0.0 mm 0.00 in/hr0.0 mm/hr 0.00 in0.0 mm
04:09 AM 60.4°F15.8°C 59.0°F15.0°C 95% 3.0 mph ESE4.8 kmh ESE 4.0 mph6.4 kmh 30.02 in1016.6 mb 0.00 in0.0 mm 0.00 in/hr0.0 mm/hr 0.00 in0.0 mm
04:10 AM 60.4°F15.8°C 59.0°F15.0°C 95% 2.0 mph ESE3.2 kmh ESE 4.0 mph6.4 kmh 30.03 in1016.9 mb 0.00 in0.0 mm 0.00 in/hr0.0 mm/hr 0.00 in0.0 mm
04:11 AM 60.4°F15.8°C 59.0°F15.0°C 95% 3.0 mph ESE4.8 kmh ESE 4.0 mph6.4 kmh 30.02 in1016.6 mb 0.00 in0.0 mm 0.00 in/hr0.0 mm/hr 0.00 in0.0 mm
04:12 AM 60.4°F15.8°C 59.0°F15.0°C 95% 2.0 mph ESE3.2 kmh ESE 4.0 mph6.4 kmh 30.03 in1016.9 mb 0.00 in0.0 mm 0.00 in/hr0.0 mm/hr 0.00 in0.0 mm
04:13 AM 60.4°F15.8°C 59.0°F15.0°C 95% 1.0 mph ESE1.6 kmh ESE 4.0 mph6.4 kmh 30.02 in1016.6 mb 0.00 in0.0 mm 0.00 in/hr0.0 mm/hr 0.00 in0.0 mm
04:14 AM 60.3°F15.7°C 58.9°F14.9°C 95% 2.0 mph ESE3.2 kmh ESE 4.0 mph6.4 kmh 30.02 in1016.6 mb 0.00 in0.0 mm 0.00 in/hr0.0 mm/hr 0.00 in0.0 mm
04:15 AM 60.3°F15.7°C 58.9°F14.9°C 95% 1.0 mph ESE1.6 kmh ESE 4.0 mph6.4 kmh 30.02 in1016.6 mb 0.00 in0.0 mm 0.00 in/hr0.0 mm/hr 0.00 in0.0 mm
04:16 AM 60.3°F15.7°C 58.9°F14.9°C 95% 1.0 mph ESE1.6 kmh ESE 4.0 mph6.4 kmh 30.02 in1016.6 mb 0.00 in0.0 mm 0.00 in/hr0.0 mm/hr 0.00 in0.0 mm
04:17 AM 60.2°F15.7°C 58.8°F14.9°C 95% 4.0 mph E6.4 kmh E 4.0 mph6.4 kmh 30.02 in1016.6 mb 0.00 in0.0 mm 0.00 in/hr0.0 mm/hr 0.00 in0.0 mm
04:18 AM 60.2°F15.7°C 58.8°F14.9°C 95% 2.0 mph ESE3.2 kmh ESE 4.0 mph6.4 kmh 30.02 in1016.6 mb 0.00 in0.0 mm 0.00 in/hr0.0 mm/hr 0.00 in0.0 mm
04:19 AM 60.2°F15.7°C 58.8°F14.9°C 95% 2.0 mph ESE3.2 kmh ESE 4.0 mph6.4 kmh 30.02 in1016.6 mb 0.00 in0.0 mm 0.00 in/hr0.0 mm/hr 0.00 in0.0 mm
04:20 AM 60.1°F15.6°C 58.7°F14.8°C 95% Calm Calm 4.0 mph6.4 kmh 30.02 in1016.6 mb 0.00 in0.0 mm 0.00 in/hr0.0 mm/hr 0.00 in0.0 mm
04:21 AM 60.1°F15.6°C 58.7°F14.8°C 95% 2.0 mph ESE3.2 kmh ESE 4.0 mph6.4 kmh 30.02 in1016.6 mb 0.00 in0.0 mm 0.00 in/hr0.0 mm/hr 0.00 in0.0 mm
04:22 AM 60.0°F15.6°C 58.6°F14.8°C 95% 3.0 mph ESE4.8 kmh ESE 4.0 mph6.4 kmh 30.02 in1016.6 mb 0.00 in0.0 mm 0.00 in/hr0.0 mm/hr 0.00 in0.0 mm
04:23 AM 60.0°F15.6°C 58.6°F14.8°C 95% 1.0 mph ESE1.6 kmh ESE 4.0 mph6.4 kmh 30.02 in1016.6 mb 0.00 in0.0 mm 0.00 in/hr0.0 mm/hr 0.00 in0.0 mm
04:24 AM 60.0°F15.6°C 58.6°F14.8°C 95% 3.0 mph ESE4.8 kmh ESE 4.0 mph6.4 kmh 30.02 in1016.6 mb 0.00 in0.0 mm 0.00 in/hr0.0 mm/hr 0.00 in0.0 mm
04:25 AM 60.0°F15.6°C 58.9°F14.9°C 96% 1.0 mph ESE1.6 kmh ESE 4.0 mph6.4 kmh 30.02 in1016.6 mb 0.00 in0.0 mm 0.00 in/hr0.0 mm/hr 0.00 in0.0 mm
04:26 AM 60.0°F15.6°C 58.9°F14.9°C 96% 1.0 mph ESE1.6 kmh ESE 4.0 mph6.4 kmh 30.02 in1016.6 mb 0.00 in0.0 mm 0.00 in/hr0.0 mm/hr 0.00 in0.0 mm
04:27 AM 60.0°F15.6°C 58.9°F14.9°C 96% 4.0 mph E6.4 kmh E 4.0 mph6.4 kmh 30.02 in1016.6 mb 0.00 in0.0 mm 0.00 in/hr0.0 mm/hr 0.00 in0.0 mm
04:28 AM 60.0°F15.6°C 58.9°F14.9°C 96% Calm Calm 4.0 mph6.4 kmh 30.02 in1016.6 mb 0.00 in0.0 mm 0.00 in/hr0.0 mm/hr 0.00 in0.0 mm
04:29 AM 60.0°F15.6°C 58.9°F14.9°C 96% 1.0 mph ESE1.6 kmh ESE 4.0 mph6.4 kmh 30.02 in1016.6 mb 0.00 in0.0 mm 0.00 in/hr0.0 mm/hr 0.00 in0.0 mm
04:30 AM 60.0°F15.6°C 58.9°F14.9°C 96% 3.0 mph ESE4.8 kmh ESE 4.0 mph6.4 kmh 30.02 in1016.6 mb 0.00 in0.0 mm 0.00 in/hr0.0 mm/hr 0.00 in0.0 mm
04:31 AM 60.0°F15.6°C 58.9°F14.9°C 96% 3.0 mph ESE4.8 kmh ESE 3.0 mph4.8 kmh 30.02 in1016.6 mb 0.00 in0.0 mm 0.00 in/hr0.0 mm/hr 0.00 in0.0 mm
04:32 AM 60.0°F15.6°C 58.9°F14.9°C 96% 1.0 mph ESE1.6 kmh ESE 4.0 mph6.4 kmh 30.02 in1016.6 mb 0.00 in0.0 mm 0.00 in/hr0.0 mm/hr 0.00 in0.0 mm
04:33 AM 60.0°F15.6°C 58.9°F14.9°C 96% 2.0 mph ESE3.2 kmh ESE 4.0 mph6.4 kmh 30.02 in1016.6 mb 0.00 in0.0 mm 0.00 in/hr0.0 mm/hr 0.00 in0.0 mm
04:34 AM 60.0°F15.6°C 58.9°F14.9°C 96% 2.0 mph ESE3.2 kmh ESE 4.0 mph6.4 kmh 30.02 in1016.6 mb 0.00 in0.0 mm 0.00 in/hr0.0 mm/hr 0.00 in0.0 mm
04:35 AM 60.0°F15.6°C 58.9°F14.9°C 96% 3.0 mph ESE4.8 kmh ESE 4.0 mph6.4 kmh 30.02 in1016.6 mb 0.00 in0.0 mm 0.00 in/hr0.0 mm/hr 0.00 in0.0 mm
04:36 AM 60.0°F15.6°C 58.9°F14.9°C 96% 2.0 mph ESE3.2 kmh ESE 4.0 mph6.4 kmh 30.02 in1016.6 mb 0.00 in0.0 mm 0.00 in/hr0.0 mm/hr 0.00 in0.0 mm
04:37 AM 60.0°F15.6°C 58.9°F14.9°C 96% 2.0 mph ESE3.2 kmh ESE 4.0 mph6.4 kmh 30.02 in1016.6 mb 0.00 in0.0 mm 0.00 in/hr0.0 mm/hr 0.00 in0.0 mm
04:38 AM 60.0°F15.6°C 58.9°F14.9°C 96% 3.0 mph ESE4.8 kmh ESE 4.0 mph6.4 kmh 30.02 in1016.6 mb 0.00 in0.0 mm 0.00 in/hr0.0 mm/hr 0.00 in0.0 mm
04:39 AM 60.1°F15.6°C 59.0°F15.0°C 96% 1.0 mph ESE1.6 kmh ESE 4.0 mph6.4 kmh 30.02 in1016.6 mb 0.00 in0.0 mm 0.00 in/hr0.0 mm/hr 0.00 in0.0 mm
04:40 AM 60.1°F15.6°C 59.0°F15.0°C 96% 2.0 mph E3.2 kmh E 4.0 mph6.4 kmh 30.02 in1016.6 mb 0.00 in0.0 mm 0.00 in/hr0.0 mm/hr 0.00 in0.0 mm
04:41 AM 60.1°F15.6°C 59.0°F15.0°C 96% 2.0 mph E3.2 kmh E 4.0 mph6.4 kmh 30.02 in1016.6 mb 0.00 in0.0 mm 0.00 in/hr0.0 mm/hr 0.00 in0.0 mm
04:42 AM 60.1°F15.6°C 59.0°F15.0°C 96% 2.0 mph ESE3.2 kmh ESE 4.0 mph6.4 kmh 30.02 in1016.6 mb 0.00 in0.0 mm 0.00 in/hr0.0 mm/hr 0.00 in0.0 mm
04:43 AM 60.1°F15.6°C 59.0°F15.0°C 96% 3.0 mph ESE4.8 kmh ESE 4.0 mph6.4 kmh 30.02 in1016.6 mb 0.00 in0.0 mm 0.00 in/hr0.0 mm/hr 0.00 in0.0 mm
04:44 AM 60.1°F15.6°C 59.0°F15.0°C 96% 3.0 mph SE4.8 kmh SE 6.0 mph9.7 kmh 30.02 in1016.6 mb 0.00 in0.0 mm 0.00 in/hr0.0 mm/hr 0.00 in0.0 mm
04:45 AM 60.2°F15.7°C 59.1°F15.1°C 96% 2.0 mph SE3.2 kmh SE 6.0 mph9.7 kmh 30.02 in1016.6 mb 0.00 in0.0 mm 0.00 in/hr0.0 mm/hr 0.00 in0.0 mm
04:46 AM 60.2°F15.7°C 59.1°F15.1°C 96% 4.0 mph ESE6.4 kmh ESE 6.0 mph9.7 kmh 30.02 in1016.6 mb 0.00 in0.0 mm 0.00 in/hr0.0 mm/hr 0.00 in0.0 mm
04:47 AM 60.2°F15.7°C 59.1°F15.1°C 96% 2.0 mph ESE3.2 kmh ESE 6.0 mph9.7 kmh 30.01 in1016.3 mb 0.00 in0.0 mm 0.00 in/hr0.0 mm/hr 0.00 in0.0 mm
04:48 AM 60.2°F15.7°C 59.1°F15.1°C 96% 3.0 mph ESE4.8 kmh ESE 6.0 mph9.7 kmh 30.01 in1016.3 mb 0.00 in0.0 mm 0.00 in/hr0.0 mm/hr 0.00 in0.0 mm
04:49 AM 60.1°F15.6°C 59.0°F15.0°C 96% 4.0 mph SE6.4 kmh SE 6.0 mph9.7 kmh 30.01 in1016.3 mb 0.00 in0.0 mm 0.00 in/hr0.0 mm/hr 0.00 in0.0 mm
04:50 AM 60.1°F15.6°C 59.0°F15.0°C 96% 4.0 mph ESE6.4 kmh ESE 6.0 mph9.7 kmh 30.01 in1016.3 mb 0.00 in0.0 mm 0.00 in/hr0.0 mm/hr 0.00 in0.0 mm
04:51 AM 60.1°F15.6°C 59.0°F15.0°C 96% 3.0 mph SE4.8 kmh SE 6.0 mph9.7 kmh 30.01 in1016.3 mb 0.00 in0.0 mm 0.00 in/hr0.0 mm/hr 0.00 in0.0 mm
04:52 AM 60.2°F15.7°C 59.1°F15.1°C 96% 3.0 mph E4.8 kmh E 6.0 mph9.7 kmh 30.01 in1016.3 mb 0.00 in0.0 mm 0.00 in/hr0.0 mm/hr 0.00 in0.0 mm
04:53 AM 60.2°F15.7°C 59.1°F15.1°C 96% 2.0 mph ESE3.2 kmh ESE 6.0 mph9.7 kmh 30.01 in1016.3 mb 0.00 in0.0 mm 0.00 in/hr0.0 mm/hr 0.00 in0.0 mm
04:54 AM 60.2°F15.7°C 59.1°F15.1°C 96% 2.0 mph SE3.2 kmh SE 6.0 mph9.7 kmh 30.01 in1016.3 mb 0.00 in0.0 mm 0.00 in/hr0.0 mm/hr 0.00 in0.0 mm
04:55 AM 60.2°F15.7°C 59.1°F15.1°C 96% 4.0 mph SE6.4 kmh SE 6.0 mph9.7 kmh 30.01 in1016.3 mb 0.00 in0.0 mm 0.00 in/hr0.0 mm/hr 0.00 in0.0 mm
04:56 AM 60.2°F15.7°C 59.1°F15.1°C 96% 3.0 mph ESE4.8 kmh ESE 6.0 mph9.7 kmh 30.01 in1016.3 mb 0.00 in0.0 mm 0.00 in/hr0.0 mm/hr 0.00 in0.0 mm
04:57 AM 60.2°F15.7°C 59.1°F15.1°C 96% 4.0 mph SE6.4 kmh SE 6.0 mph9.7 kmh 30.01 in1016.3 mb 0.00 in0.0 mm 0.00 in/hr0.0 mm/hr 0.00 in0.0 mm
04:58 AM 60.2°F15.7°C 59.1°F15.1°C 96% 2.0 mph SE3.2 kmh SE 6.0 mph9.7 kmh 30.01 in1016.3 mb 0.00 in0.0 mm 0.00 in/hr0.0 mm/hr 0.00 in0.0 mm
04:59 AM 60.3°F15.7°C 59.2°F15.1°C 96% 4.0 mph SE6.4 kmh SE 6.0 mph9.7 kmh 30.01 in1016.3 mb 0.00 in0.0 mm 0.00 in/hr0.0 mm/hr 0.00 in0.0 mm
05:00 AM 60.3°F15.7°C 59.2°F15.1°C 96% 3.0 mph ESE4.8 kmh ESE 7.0 mph11.3 kmh 30.01 in1016.3 mb 0.00 in0.0 mm 0.00 in/hr0.0 mm/hr 0.00 in0.0 mm
05:01 AM 60.3°F15.7°C 59.2°F15.1°C 96% 4.0 mph ESE6.4 kmh ESE 7.0 mph11.3 kmh 30.01 in1016.3 mb 0.00 in0.0 mm 0.00 in/hr0.0 mm/hr 0.00 in0.0 mm
05:02 AM 60.3°F15.7°C 59.2°F15.1°C 96% 3.0 mph SE4.8 kmh SE 7.0 mph11.3 kmh 30.01 in1016.3 mb 0.00 in0.0 mm 0.00 in/hr0.0 mm/hr 0.00 in0.0 mm
05:03 AM 60.4°F15.8°C 59.3°F15.2°C 96% 5.0 mph SE8.0 kmh SE 7.0 mph11.3 kmh 30.01 in1016.3 mb 0.00 in0.0 mm 0.00 in/hr0.0 mm/hr 0.00 in0.0 mm
05:04 AM 60.4°F15.8°C 59.3°F15.2°C 96% 4.0 mph SE6.4 kmh SE 7.0 mph11.3 kmh 30.01 in1016.3 mb 0.00 in0.0 mm 0.00 in/hr0.0 mm/hr 0.00 in0.0 mm
05:05 AM 60.4°F15.8°C 59.3°F15.2°C 96% 3.0 mph SE4.8 kmh SE 7.0 mph11.3 kmh 30.01 in1016.3 mb 0.00 in0.0 mm 0.00 in/hr0.0 mm/hr 0.00 in0.0 mm
05:06 AM 60.5°F15.8°C 59.4°F15.2°C 96% 5.0 mph SE8.0 kmh SE 7.0 mph11.3 kmh 30.01 in1016.3 mb 0.00 in0.0 mm 0.00 in/hr0.0 mm/hr 0.00 in0.0 mm
05:07 AM 60.6°F15.9°C 59.5°F15.3°C 96% 4.0 mph SE6.4 kmh SE 7.0 mph11.3 kmh 30.01 in1016.3 mb 0.00 in0.0 mm 0.00 in/hr0.0 mm/hr 0.00 in0.0 mm
05:08 AM 60.7°F15.9°C 59.6°F15.3°C 96% 2.0 mph SE3.2 kmh SE 7.0 mph11.3 kmh 30.01 in1016.3 mb 0.00 in0.0 mm 0.00 in/hr0.0 mm/hr 0.00 in0.0 mm
05:09 AM 60.7°F15.9°C 59.6°F15.3°C 96% 2.0 mph SE3.2 kmh SE 8.0 mph12.9 kmh 30.01 in1016.3 mb 0.00 in0.0 mm 0.00 in/hr0.0 mm/hr 0.00 in0.0 mm
05:10 AM 60.8°F16.0°C 59.7°F15.4°C 96% 3.0 mph SE4.8 kmh SE 8.0 mph12.9 kmh 30.01 in1016.3 mb 0.00 in0.0 mm 0.00 in/hr0.0 mm/hr 0.00 in0.0 mm
05:11 AM 60.9°F16.1°C 59.8°F15.4°C 96% 3.0 mph SE4.8 kmh SE 8.0 mph12.9 kmh 30.01 in1016.3 mb 0.00 in0.0 mm 0.00 in/hr0.0 mm/hr 0.00 in0.0 mm
05:12 AM 61.0°F16.1°C 59.9°F15.5°C 96% 5.0 mph SE8.0 kmh SE 8.0 mph12.9 kmh 30.01 in1016.3 mb 0.00 in0.0 mm 0.00 in/hr0.0 mm/hr 0.00 in0.0 mm
05:13 AM 61.0°F16.1°C 59.9°F15.5°C 96% 3.0 mph SE4.8 kmh SE 8.0 mph12.9 kmh 30.01 in1016.3 mb 0.00 in0.0 mm 0.00 in/hr0.0 mm/hr 0.00 in0.0 mm
05:14 AM 61.1°F16.2°C 60.0°F15.6°C 96% 4.0 mph SE6.4 kmh SE 8.0 mph12.9 kmh 30.01 in1016.3 mb 0.00 in0.0 mm 0.00 in/hr0.0 mm/hr 0.00 in0.0 mm
05:15 AM 61.1°F16.2°C 60.0°F15.6°C 96% 3.0 mph SE4.8 kmh SE 8.0 mph12.9 kmh 30.01 in1016.3 mb 0.00 in0.0 mm 0.00 in/hr0.0 mm/hr 0.00 in0.0 mm
05:16 AM 61.2°F16.2°C 60.1°F15.6°C 96% 4.0 mph SE6.4 kmh SE 8.0 mph12.9 kmh 30.01 in1016.3 mb 0.00 in0.0 mm 0.00 in/hr0.0 mm/hr 0.00 in0.0 mm
05:17 AM 61.2°F16.2°C 59.8°F15.4°C 95% 3.0 mph SE4.8 kmh SE 8.0 mph12.9 kmh 30.01 in1016.3 mb 0.00 in0.0 mm 0.00 in/hr0.0 mm/hr 0.00 in0.0 mm
05:18 AM 61.2°F16.2°C 59.8°F15.4°C 95% 4.0 mph SE6.4 kmh SE 8.0 mph12.9 kmh 30.01 in1016.3 mb 0.00 in0.0 mm 0.00 in/hr0.0 mm/hr 0.00 in0.0 mm
05:19 AM 61.2°F16.2°C 59.8°F15.4°C 95% 3.0 mph SE4.8 kmh SE 8.0 mph12.9 kmh 30.01 in1016.3 mb 0.00 in0.0 mm 0.00 in/hr0.0 mm/hr 0.00 in0.0 mm
05:20 AM 61.2°F16.2°C 59.8°F15.4°C 95% 3.0 mph SE4.8 kmh SE 8.0 mph12.9 kmh 30.01 in1016.3 mb 0.00 in0.0 mm 0.00 in/hr0.0 mm/hr 0.00 in0.0 mm
05:21 AM 61.2°F16.2°C 59.8°F15.4°C 95% 2.0 mph SE3.2 kmh SE 8.0 mph12.9 kmh 30.01 in1016.3 mb 0.00 in0.0 mm 0.00 in/hr0.0 mm/hr 0.00 in0.0 mm
05:22 AM 61.2°F16.2°C 59.8°F15.4°C 95% 2.0 mph SE3.2 kmh SE 8.0 mph12.9 kmh 30.01 in1016.3 mb 0.00 in0.0 mm 0.00 in/hr0.0 mm/hr 0.00 in0.0 mm
05:23 AM 61.2°F16.2°C 59.8°F15.4°C 95% 5.0 mph SE8.0 kmh SE 8.0 mph12.9 kmh 30.01 in1016.3 mb 0.00 in0.0 mm 0.00 in/hr0.0 mm/hr 0.00 in0.0 mm
05:24 AM 61.2°F16.2°C 59.8°F15.4°C 95% 5.0 mph SE8.0 kmh SE 8.0 mph12.9 kmh 30.01 in1016.3 mb 0.00 in0.0 mm 0.00 in/hr0.0 mm/hr 0.00 in0.0 mm
05:25 AM 61.2°F16.2°C 59.8°F15.4°C 95% 3.0 mph SE4.8 kmh SE 8.0 mph12.9 kmh 30.01 in1016.3 mb 0.00 in0.0 mm 0.00 in/hr0.0 mm/hr 0.00 in0.0 mm
05:26 AM 61.3°F16.3°C 59.9°F15.5°C 95% 4.0 mph SE6.4 kmh SE 8.0 mph12.9 kmh 30.01 in1016.3 mb 0.00 in0.0 mm 0.00 in/hr0.0 mm/hr 0.00 in0.0 mm
05:27 AM 61.2°F16.2°C 59.8°F15.4°C 95% 4.0 mph SE6.4 kmh SE 8.0 mph12.9 kmh 30.01 in1016.3 mb 0.00 in0.0 mm 0.00 in/hr0.0 mm/hr 0.00 in0.0 mm
05:28 AM 61.3°F16.3°C 59.9°F15.5°C 95% 5.0 mph SE8.0 kmh SE 8.0 mph12.9 kmh 30.01 in1016.3 mb 0.00 in0.0 mm 0.00 in/hr0.0 mm/hr 0.00 in0.0 mm
05:29 AM 61.2°F16.2°C 59.8°F15.4°C 95% 3.0 mph SE4.8 kmh SE 8.0 mph12.9 kmh 30.01 in1016.3 mb 0.00 in0.0 mm 0.00 in/hr0.0 mm/hr 0.00 in0.0 mm
05:30 AM 61.2°F16.2°C 59.8°F15.4°C 95% 4.0 mph SE6.4 kmh SE 8.0 mph12.9 kmh 30.01 in1016.3 mb 0.00 in0.0 mm 0.00 in/hr0.0 mm/hr 0.00 in0.0 mm
05:31 AM 61.2°F16.2°C 59.8°F15.4°C 95% 2.0 mph SE3.2 kmh SE 3.0 mph4.8 kmh 30.01 in1016.3 mb 0.00 in0.0 mm 0.00 in/hr0.0 mm/hr 0.00 in0.0 mm
05:32 AM 61.2°F16.2°C 59.8°F15.4°C 95% 2.0 mph SE3.2 kmh SE 6.0 mph9.7 kmh 30.01 in1016.3 mb 0.00 in0.0 mm 0.00 in/hr0.0 mm/hr 0.00 in0.0 mm
05:33 AM 61.2°F16.2°C 59.8°F15.4°C 95% 2.0 mph SE3.2 kmh SE 6.0 mph9.7 kmh 30.01 in1016.3 mb 0.00 in0.0 mm 0.00 in/hr0.0 mm/hr 0.00 in0.0 mm
05:34 AM 61.2°F16.2°C 59.8°F15.4°C 95% 3.0 mph SE4.8 kmh SE 6.0 mph9.7 kmh 30.01 in1016.3 mb 0.00 in0.0 mm 0.00 in/hr0.0 mm/hr 0.00 in0.0 mm
05:35 AM 61.2°F16.2°C 59.8°F15.4°C 95% 1.0 mph SE1.6 kmh SE 6.0 mph9.7 kmh 30.01 in1016.3 mb 0.00 in0.0 mm 0.00 in/hr0.0 mm/hr 0.00 in0.0 mm
05:36 AM 61.1°F16.2°C 59.7°F15.4°C 95% 1.0 mph SE1.6 kmh SE 6.0 mph9.7 kmh 30.01 in1016.3 mb 0.00 in0.0 mm 0.00 in/hr0.0 mm/hr 0.00 in0.0 mm
05:37 AM 61.1°F16.2°C 59.7°F15.4°C 95% 4.0 mph SE6.4 kmh SE 6.0 mph9.7 kmh 30.01 in1016.3 mb 0.00 in0.0 mm 0.00 in/hr0.0 mm/hr 0.00 in0.0 mm
05:38 AM 61.1°F16.2°C 59.7°F15.4°C 95% 2.0 mph SE3.2 kmh SE 6.0 mph9.7 kmh 30.01 in1016.3 mb 0.00 in0.0 mm 0.00 in/hr0.0 mm/hr 0.00 in0.0 mm
05:39 AM 61.1°F16.2°C 59.7°F15.4°C 95% 2.0 mph SE3.2 kmh SE 7.0 mph11.3 kmh 30.01 in1016.3 mb 0.00 in0.0 mm 0.00 in/hr0.0 mm/hr 0.00 in0.0 mm
05:40 AM 61.1°F16.2°C 59.7°F15.4°C 95% 3.0 mph SE4.8 kmh SE 7.0 mph11.3 kmh 30.01 in1016.3 mb 0.00 in0.0 mm 0.00 in/hr0.0 mm/hr 0.00 in0.0 mm
05:41 AM 61.1°F16.2°C 59.7°F15.4°C 95% 2.0 mph SE3.2 kmh SE 7.0 mph11.3 kmh 30.01 in1016.3 mb 0.00 in0.0 mm 0.00 in/hr0.0 mm/hr 0.00 in0.0 mm
05:42 AM 61.1°F16.2°C 59.7°F15.4°C 95% 1.0 mph SE1.6 kmh SE 7.0 mph11.3 kmh 30.01 in1016.3 mb 0.00 in0.0 mm 0.00 in/hr0.0 mm/hr 0.00 in0.0 mm
05:43 AM 61.1°F16.2°C 59.7°F15.4°C 95% 2.0 mph SE3.2 kmh SE 7.0 mph11.3 kmh 30.01 in1016.3 mb 0.00 in0.0 mm 0.00 in/hr0.0 mm/hr 0.00 in0.0 mm
05:44 AM 61.1°F16.2°C 59.7°F15.4°C 95% 3.0 mph SE4.8 kmh SE 7.0 mph11.3 kmh 30.01 in1016.3 mb 0.00 in0.0 mm 0.00 in/hr0.0 mm/hr 0.00 in0.0 mm
05:45 AM 61.0°F16.1°C 59.6°F15.3°C 95% 2.0 mph SE3.2 kmh SE 7.0 mph11.3 kmh 30.01 in1016.3 mb 0.00 in0.0 mm 0.00 in/hr0.0 mm/hr 0.00 in0.0 mm
05:46 AM 61.0°F16.1°C 59.6°F15.3°C 95% 4.0 mph SE6.4 kmh SE 7.0 mph11.3 kmh 30.01 in1016.3 mb 0.00 in0.0 mm 0.00 in/hr0.0 mm/hr 0.00 in0.0 mm
05:47 AM 61.0°F16.1°C 59.6°F15.3°C 95% 2.0 mph SE3.2 kmh SE 7.0 mph11.3 kmh 30.01 in1016.3 mb 0.00 in0.0 mm 0.00 in/hr0.0 mm/hr 0.00 in0.0 mm
05:48 AM 61.0°F16.1°C 59.6°F15.3°C 95% 3.0 mph SE4.8 kmh SE 7.0 mph11.3 kmh 30.01 in1016.3 mb 0.00 in0.0 mm 0.00 in/hr0.0 mm/hr 0.00 in0.0 mm
05:49 AM 61.0°F16.1°C 59.6°F15.3°C 95% 3.0 mph SE4.8 kmh SE 7.0 mph11.3 kmh 30.01 in1016.3 mb 0.00 in0.0 mm 0.00 in/hr0.0 mm/hr 0.00 in0.0 mm
05:50 AM 61.0°F16.1°C 59.6°F15.3°C 95% 2.0 mph SE3.2 kmh SE 7.0 mph11.3 kmh 30.01 in1016.3 mb 0.00 in0.0 mm 0.00 in/hr0.0 mm/hr 0.00 in0.0 mm
05:51 AM 60.9°F16.1°C 59.5°F15.3°C 95% 2.0 mph SE3.2 kmh SE 7.0 mph11.3 kmh 30.01 in1016.3 mb 0.00 in0.0 mm 0.00 in/hr0.0 mm/hr 0.00 in0.0 mm
05:52 AM 60.9°F16.1°C 59.5°F15.3°C 95% 3.0 mph SE4.8 kmh SE 7.0 mph11.3 kmh 30.01 in1016.3 mb 0.00 in0.0 mm 0.00 in/hr0.0 mm/hr 0.00 in0.0 mm
05:53 AM 60.9°F16.1°C 59.5°F15.3°C 95% 3.0 mph SE4.8 kmh SE 7.0 mph11.3 kmh 30.01 in1016.3 mb 0.00 in0.0 mm 0.00 in/hr0.0 mm/hr 0.00 in0.0 mm
05:54 AM 60.9°F16.1°C 59.5°F15.3°C 95% 4.0 mph SE6.4 kmh SE 7.0 mph11.3 kmh 30.01 in1016.3 mb 0.00 in0.0 mm 0.00 in/hr0.0 mm/hr 0.00 in0.0 mm
05:55 AM 60.9°F16.1°C 59.5°F15.3°C 95% 4.0 mph SE6.4 kmh SE 7.0 mph11.3 kmh 30.01 in1016.3 mb 0.00 in0.0 mm 0.00 in/hr0.0 mm/hr 0.00 in0.0 mm
05:56 AM 60.9°F16.1°C 59.5°F15.3°C 95% 3.0 mph SE4.8 kmh SE 7.0 mph11.3 kmh 30.01 in1016.3 mb 0.00 in0.0 mm 0.00 in/hr0.0 mm/hr 0.00 in0.0 mm
05:57 AM 60.8°F16.0°C 59.4°F15.2°C 95% 2.0 mph SE3.2 kmh SE 7.0 mph11.3 kmh 30.01 in1016.3 mb 0.00 in0.0 mm 0.00 in/hr0.0 mm/hr 0.00 in0.0 mm
05:58 AM 60.8°F16.0°C 59.4°F15.2°C 95% 5.0 mph SE8.0 kmh SE 7.0 mph11.3 kmh 30.01 in1016.3 mb 0.00 in0.0 mm 0.00 in/hr0.0 mm/hr 0.00 in0.0 mm
05:59 AM 60.8°F16.0°C 59.4°F15.2°C 95% 4.0 mph SE6.4 kmh SE 7.0 mph11.3 kmh 30.01 in1016.3 mb 0.00 in0.0 mm 0.00 in/hr0.0 mm/hr 0.00 in0.0 mm
06:00 AM 60.8°F16.0°C 59.4°F15.2°C 95% 3.0 mph SSE4.8 kmh SSE 7.0 mph11.3 kmh 30.01 in1016.3 mb 0.00 in0.0 mm 0.00 in/hr0.0 mm/hr 0.00 in0.0 mm
06:01 AM 60.8°F16.0°C 59.4°F15.2°C 95% 3.0 mph SSE4.8 kmh SSE 3.0 mph4.8 kmh 30.01 in1016.3 mb 0.00 in0.0 mm 0.00 in/hr0.0 mm/hr 0.00 in0.0 mm
06:02 AM 60.7°F15.9°C 59.3°F15.2°C 95% 3.0 mph SE4.8 kmh SE 4.0 mph6.4 kmh 30.01 in1016.3 mb 0.00 in0.0 mm 0.00 in/hr0.0 mm/hr 0.00 in0.0 mm
06:03 AM 60.7°F15.9°C 59.3°F15.2°C 95% 4.0 mph SE6.4 kmh SE 5.0 mph8.0 kmh 30.01 in1016.3 mb 0.00 in0.0 mm 0.00 in/hr0.0 mm/hr 0.00 in0.0 mm
06:04 AM 60.7°F15.9°C 59.3°F15.2°C 95% 5.0 mph SE8.0 kmh SE 5.0 mph8.0 kmh 30.01 in1016.3 mb 0.00 in0.0 mm 0.00 in/hr0.0 mm/hr 0.00 in0.0 mm
06:05 AM 60.7°F15.9°C 59.3°F15.2°C 95% 5.0 mph SE8.0 kmh SE 5.0 mph8.0 kmh 30.01 in1016.3 mb 0.00 in0.0 mm 0.00 in/hr0.0 mm/hr 0.00 in0.0 mm
06:06 AM 60.7°F15.9°C 59.3°F15.2°C 95% 3.0 mph SE4.8 kmh SE 5.0 mph8.0 kmh 30.01 in1016.3 mb 0.00 in0.0 mm 0.00 in/hr0.0 mm/hr 0.00 in0.0 mm
06:07 AM 60.6°F15.9°C 59.2°F15.1°C 95% 3.0 mph SE4.8 kmh SE 5.0 mph8.0 kmh 30.01 in1016.3 mb 0.00 in0.0 mm 0.00 in/hr0.0 mm/hr 0.00 in0.0 mm
06:09 AM 60.6°F15.9°C 59.2°F15.1°C 95% 3.0 mph SE4.8 kmh SE 6.0 mph9.7 kmh 30.01 in1016.3 mb 0.00 in0.0 mm 0.00 in/hr0.0 mm/hr 0.00 in0.0 mm
06:10 AM 60.6°F15.9°C 59.2°F15.1°C 95% 2.0 mph SE3.2 kmh SE 6.0 mph9.7 kmh 30.01 in1016.3 mb 0.00 in0.0 mm 0.00 in/hr0.0 mm/hr 0.00 in0.0 mm
06:11 AM 60.6°F15.9°C 59.2°F15.1°C 95% 4.0 mph SE6.4 kmh SE 6.0 mph9.7 kmh 30.01 in1016.3 mb 0.00 in0.0 mm 0.00 in/hr0.0 mm/hr 0.00 in0.0 mm
06:12 AM 60.6°F15.9°C 59.2°F15.1°C 95% 1.0 mph SE1.6 kmh SE 6.0 mph9.7 kmh 30.01 in1016.3 mb 0.00 in0.0 mm 0.00 in/hr0.0 mm/hr 0.00 in0.0 mm
06:13 AM 60.6°F15.9°C 59.2°F15.1°C 95% 1.0 mph SE1.6 kmh SE 6.0 mph9.7 kmh 30.01 in1016.3 mb 0.00 in0.0 mm 0.00 in/hr0.0 mm/hr 0.00 in0.0 mm
06:14 AM 60.5°F15.8°C 59.1°F15.1°C 95% 2.0 mph SE3.2 kmh SE 6.0 mph9.7 kmh 30.01 in1016.3 mb 0.00 in0.0 mm 0.00 in/hr0.0 mm/hr 0.00 in0.0 mm
06:15 AM 60.5°F15.8°C 59.1°F15.1°C 95% 3.0 mph SE4.8 kmh SE 6.0 mph9.7 kmh 30.01 in1016.3 mb 0.00 in0.0 mm 0.00 in/hr0.0 mm/hr 0.00 in0.0 mm
06:16 AM 60.5°F15.8°C 59.1°F15.1°C 95% 2.0 mph SE3.2 kmh SE 6.0 mph9.7 kmh 30.01 in1016.3 mb 0.00 in0.0 mm 0.00 in/hr0.0 mm/hr 0.00 in0.0 mm
06:17 AM 60.5°F15.8°C 59.1°F15.1°C 95% 2.0 mph SE3.2 kmh SE 6.0 mph9.7 kmh 30.01 in1016.3 mb 0.00 in0.0 mm 0.00 in/hr0.0 mm/hr 0.00 in0.0 mm
06:18 AM 60.5°F15.8°C 59.1°F15.1°C 95% 2.0 mph SE3.2 kmh SE 6.0 mph9.7 kmh 30.01 in1016.3 mb 0.00 in0.0 mm 0.00 in/hr0.0 mm/hr 0.00 in0.0 mm
06:19 AM 60.5°F15.8°C 59.1°F15.1°C 95% 2.0 mph ESE3.2 kmh ESE 6.0 mph9.7 kmh 30.01 in1016.3 mb 0.00 in0.0 mm 0.00 in/hr0.0 mm/hr 0.00 in0.0 mm
06:20 AM 60.5°F15.8°C 59.1°F15.1°C 95% 3.0 mph ESE4.8 kmh ESE 6.0 mph9.7 kmh 30.01 in1016.3 mb 0.00 in0.0 mm 0.00 in/hr0.0 mm/hr 0.00 in0.0 mm
06:21 AM 60.5°F15.8°C 59.1°F15.1°C 95% 1.0 mph ESE1.6 kmh ESE 6.0 mph9.7 kmh 30.01 in1016.3 mb 0.00 in0.0 mm 0.00 in/hr0.0 mm/hr 0.00 in0.0 mm
06:22 AM 60.5°F15.8°C 59.1°F15.1°C 95% 5.0 mph SE8.0 kmh SE 6.0 mph9.7 kmh 30.01 in1016.3 mb 0.00 in0.0 mm 0.00 in/hr0.0 mm/hr 0.00 in0.0 mm
06:23 AM 60.5°F15.8°C 59.1°F15.1°C 95% Calm Calm 7.0 mph11.3 kmh 30.01 in1016.3 mb 0.00 in0.0 mm 0.00 in/hr0.0 mm/hr 0.00 in0.0 mm
06:24 AM 60.5°F15.8°C 59.1°F15.1°C 95% 3.0 mph ESE4.8 kmh ESE 7.0 mph11.3 kmh 30.01 in1016.3 mb 0.00 in0.0 mm 0.00 in/hr0.0 mm/hr 0.00 in0.0 mm
06:25 AM 60.5°F15.8°C 59.1°F15.1°C 95% 3.0 mph SE4.8 kmh SE 7.0 mph11.3 kmh 30.01 in1016.3 mb 0.00 in0.0 mm 0.00 in/hr0.0 mm/hr 0.00 in0.0 mm
06:26 AM 60.6°F15.9°C 59.2°F15.1°C 95% 3.0 mph ESE4.8 kmh ESE 7.0 mph11.3 kmh 30.01 in1016.3 mb 0.00 in0.0 mm 0.00 in/hr0.0 mm/hr 0.00 in0.0 mm
06:27 AM 60.5°F15.8°C 59.1°F15.1°C 95% 3.0 mph ESE4.8 kmh ESE 7.0 mph11.3 kmh 30.01 in1016.3 mb 0.00 in0.0 mm 0.00 in/hr0.0 mm/hr 0.00 in0.0 mm
06:28 AM 60.6°F15.9°C 59.2°F15.1°C 95% 3.0 mph ESE4.8 kmh ESE 7.0 mph11.3 kmh 30.01 in1016.3 mb 0.00 in0.0 mm 0.00 in/hr0.0 mm/hr 0.00 in0.0 mm
06:29 AM 60.5°F15.8°C 59.1°F15.1°C 95% Calm Calm 7.0 mph11.3 kmh 30.01 in1016.3 mb 0.00 in0.0 mm 0.00 in/hr0.0 mm/hr 0.00 in0.0 mm
06:30 AM 60.6°F15.9°C 59.2°F15.1°C 95% 3.0 mph ESE4.8 kmh ESE 7.0 mph11.3 kmh 30.01 in1016.3 mb 0.00 in0.0 mm 0.00 in/hr0.0 mm/hr 0.00 in0.0 mm
06:31 AM 60.6°F15.9°C 59.2°F15.1°C 95% 2.0 mph ESE3.2 kmh ESE 2.0 mph3.2 kmh 30.01 in1016.3 mb 0.00 in0.0 mm 0.00 in/hr0.0 mm/hr 0.00 in0.0 mm
06:32 AM 60.6°F15.9°C 59.2°F15.1°C 95% 2.0 mph ESE3.2 kmh ESE 5.0 mph8.0 kmh 30.01 in1016.3 mb 0.00 in0.0 mm 0.00 in/hr0.0 mm/hr 0.00 in0.0 mm
06:33 AM 60.6°F15.9°C 59.2°F15.1°C 95% 2.0 mph E3.2 kmh E 5.0 mph8.0 kmh 30.01 in1016.3 mb 0.00 in0.0 mm 0.00 in/hr0.0 mm/hr 0.00 in0.0 mm
06:34 AM 60.6°F15.9°C 59.2°F15.1°C 95% 1.0 mph ESE1.6 kmh ESE 5.0 mph8.0 kmh 30.01 in1016.3 mb 0.00 in0.0 mm 0.00 in/hr0.0 mm/hr 0.00 in0.0 mm
06:35 AM 60.6°F15.9°C 59.2°F15.1°C 95% 2.0 mph ESE3.2 kmh ESE 5.0 mph8.0 kmh 30.01 in1016.3 mb 0.00 in0.0 mm 0.00 in/hr0.0 mm/hr 0.00 in0.0 mm
06:36 AM 60.6°F15.9°C 59.2°F15.1°C 95% 2.0 mph SE3.2 kmh SE 5.0 mph8.0 kmh 30.01 in1016.3 mb 0.00 in0.0 mm 0.00 in/hr0.0 mm/hr 0.00 in0.0 mm
06:37 AM 60.6°F15.9°C 59.2°F15.1°C 95% 2.0 mph SE3.2 kmh SE 5.0 mph8.0 kmh 30.01 in1016.3 mb 0.00 in0.0 mm 0.00 in/hr0.0 mm/hr 0.00 in0.0 mm
06:38 AM 60.7°F15.9°C 59.3°F15.2°C 95% 3.0 mph E4.8 kmh E 5.0 mph8.0 kmh 30.01 in1016.3 mb 0.00 in0.0 mm 0.00 in/hr0.0 mm/hr 0.00 in0.0 mm
06:39 AM 60.7°F15.9°C 59.3°F15.2°C 95% 1.0 mph ESE1.6 kmh ESE 5.0 mph8.0 kmh 30.01 in1016.3 mb 0.00 in0.0 mm 0.00 in/hr0.0 mm/hr 0.00 in0.0 mm
06:40 AM 60.7°F15.9°C 59.3°F15.2°C 95% 1.0 mph ESE1.6 kmh ESE 5.0 mph8.0 kmh 30.01 in1016.3 mb 0.00 in0.0 mm 0.00 in/hr0.0 mm/hr 0.00 in0.0 mm
06:41 AM 60.7°F15.9°C 59.3°F15.2°C 95% 1.0 mph ESE1.6 kmh ESE 5.0 mph8.0 kmh 30.01 in1016.3 mb 0.00 in0.0 mm 0.00 in/hr0.0 mm/hr 0.00 in0.0 mm
06:42 AM 60.7°F15.9°C 59.3°F15.2°C 95% 2.0 mph ESE3.2 kmh ESE 5.0 mph8.0 kmh 30.01 in1016.3 mb 0.00 in0.0 mm 0.00 in/hr0.0 mm/hr 0.00 in0.0 mm
06:43 AM 60.8°F16.0°C 59.4°F15.2°C 95% 1.0 mph ESE1.6 kmh ESE 5.0 mph8.0 kmh 30.01 in1016.3 mb 0.00 in0.0 mm 0.00 in/hr0.0 mm/hr 0.00 in0.0 mm
06:44 AM 60.8°F16.0°C 59.4°F15.2°C 95% 3.0 mph ESE4.8 kmh ESE 5.0 mph8.0 kmh 30.01 in1016.3 mb 0.00 in0.0 mm 0.00 in/hr0.0 mm/hr 0.00 in0.0 mm
06:45 AM 60.8°F16.0°C 59.4°F15.2°C 95% 2.0 mph ESE3.2 kmh ESE 5.0 mph8.0 kmh 30.01 in1016.3 mb 0.00 in0.0 mm 0.00 in/hr0.0 mm/hr 0.00 in0.0 mm
06:46 AM 60.8°F16.0°C 59.4°F15.2°C 95% 1.0 mph ESE1.6 kmh ESE 5.0 mph8.0 kmh 30.01 in1016.3 mb 0.00 in0.0 mm 0.00 in/hr0.0 mm/hr 0.00 in0.0 mm
06:47 AM 60.8°F16.0°C 59.4°F15.2°C 95% 2.0 mph SE3.2 kmh SE 5.0 mph8.0 kmh 30.01 in1016.3 mb 0.00 in0.0 mm 0.00 in/hr0.0 mm/hr 0.00 in0.0 mm
06:48 AM 60.8°F16.0°C 59.4°F15.2°C 95% 3.0 mph ESE4.8 kmh ESE 5.0 mph8.0 kmh 30.01 in1016.3 mb 0.00 in0.0 mm 0.00 in/hr0.0 mm/hr 0.00 in0.0 mm
06:49 AM 60.9°F16.1°C 59.5°F15.3°C 95% 2.0 mph ESE3.2 kmh ESE 5.0 mph8.0 kmh 30.01 in1016.3 mb 0.00 in0.0 mm 0.00 in/hr0.0 mm/hr 0.00 in0.0 mm
06:50 AM 60.9°F16.1°C 59.5°F15.3°C 95% 3.0 mph SE4.8 kmh SE 5.0 mph8.0 kmh 30.01 in1016.3 mb 0.00 in0.0 mm 0.00 in/hr0.0 mm/hr 0.00 in0.0 mm
06:51 AM 60.9°F16.1°C 59.5°F15.3°C 95% 4.0 mph E6.4 kmh E 5.0 mph8.0 kmh 30.01 in1016.3 mb 0.00 in0.0 mm 0.00 in/hr0.0 mm/hr 0.00 in0.0 mm
06:52 AM 60.9°F16.1°C 59.5°F15.3°C 95% 2.0 mph ESE3.2 kmh ESE 5.0 mph8.0 kmh 30.01 in1016.3 mb 0.00 in0.0 mm 0.00 in/hr0.0 mm/hr 0.00 in0.0 mm
06:53 AM 60.9°F16.1°C 59.5°F15.3°C 95% 4.0 mph ESE6.4 kmh ESE 5.0 mph8.0 kmh 30.01 in1016.3 mb 0.00 in0.0 mm 0.00 in/hr0.0 mm/hr 0.00 in0.0 mm
06:54 AM 60.9°F16.1°C 59.5°F15.3°C 95% 3.0 mph ESE4.8 kmh ESE 5.0 mph8.0 kmh 30.01 in1016.3 mb 0.00 in0.0 mm 0.00 in/hr0.0 mm/hr 0.00 in0.0 mm
06:55 AM 60.9°F16.1°C 59.8°F15.4°C 96% 7.0 mph ESE11.3 kmh ESE 7.0 mph11.3 kmh 30.01 in1016.3 mb 0.00 in0.0 mm 0.00 in/hr0.0 mm/hr 0.00 in0.0 mm
06:56 AM 60.9°F16.1°C 59.8°F15.4°C 96% 2.0 mph ESE3.2 kmh ESE 7.0 mph11.3 kmh 30.01 in1016.3 mb 0.00 in0.0 mm 0.00 in/hr0.0 mm/hr 0.00 in0.0 mm
06:57 AM 61.0°F16.1°C 59.9°F15.5°C 96% 5.0 mph SE8.0 kmh SE 7.0 mph11.3 kmh 30.01 in1016.3 mb 0.00 in0.0 mm 0.00 in/hr0.0 mm/hr 0.00 in0.0 mm
06:58 AM 61.0°F16.1°C 59.9°F15.5°C 96% 3.0 mph ESE4.8 kmh ESE 7.0 mph11.3 kmh 30.01 in1016.3 mb 0.00 in0.0 mm 0.00 in/hr0.0 mm/hr 0.00 in0.0 mm
06:59 AM 61.0°F16.1°C 59.6°F15.3°C 95% 3.0 mph ESE4.8 kmh ESE 7.0 mph11.3 kmh 30.01 in1016.3 mb 0.00 in0.0 mm 0.00 in/hr0.0 mm/hr 0.00 in0.0 mm
07:00 AM 61.1°F16.2°C 59.7°F15.4°C 95% 3.0 mph ESE4.8 kmh ESE 7.0 mph11.3 kmh 30.01 in1016.3 mb 0.00 in0.0 mm 0.00 in/hr0.0 mm/hr 0.00 in0.0 mm
07:01 AM 61.1°F16.2°C 59.7°F15.4°C 95% 3.0 mph SE4.8 kmh SE 4.0 mph6.4 kmh 30.01 in1016.3 mb 0.00 in0.0 mm 0.00 in/hr0.0 mm/hr 0.00 in0.0 mm
07:02 AM 61.1°F16.2°C 59.7°F15.4°C 95% 3.0 mph SE4.8 kmh SE 4.0 mph6.4 kmh 30.01 in1016.3 mb 0.00 in0.0 mm 0.00 in/hr0.0 mm/hr 0.00 in0.0 mm
07:03 AM 61.1°F16.2°C 59.7°F15.4°C 95% 4.0 mph SE6.4 kmh SE 4.0 mph6.4 kmh 30.01 in1016.3 mb 0.00 in0.0 mm 0.00 in/hr0.0 mm/hr 0.00 in0.0 mm
07:04 AM 61.1°F16.2°C 59.7°F15.4°C 95% 5.0 mph SE8.0 kmh SE 5.0 mph8.0 kmh 30.01 in1016.3 mb 0.00 in0.0 mm 0.00 in/hr0.0 mm/hr 0.00 in0.0 mm
07:05 AM 61.1°F16.2°C 59.7°F15.4°C 95% 1.0 mph SE1.6 kmh SE 6.0 mph9.7 kmh 30.01 in1016.3 mb 0.00 in0.0 mm 0.00 in/hr0.0 mm/hr 0.00 in0.0 mm
07:06 AM 61.2°F16.2°C 59.8°F15.4°C 95% 3.0 mph SE4.8 kmh SE 6.0 mph9.7 kmh 30.01 in1016.3 mb 0.00 in0.0 mm 0.00 in/hr0.0 mm/hr 0.00 in0.0 mm
07:07 AM 61.2°F16.2°C 59.8°F15.4°C 95% 2.0 mph SE3.2 kmh SE 6.0 mph9.7 kmh 30.01 in1016.3 mb 0.00 in0.0 mm 0.00 in/hr0.0 mm/hr 0.00 in0.0 mm
07:08 AM 61.2°F16.2°C 59.8°F15.4°C 95% 3.0 mph SE4.8 kmh SE 6.0 mph9.7 kmh 30.01 in1016.3 mb 0.00 in0.0 mm 0.00 in/hr0.0 mm/hr 0.00 in0.0 mm
07:09 AM 61.2°F16.2°C 59.8°F15.4°C 95% 3.0 mph SE4.8 kmh SE 6.0 mph9.7 kmh 30.01 in1016.3 mb 0.00 in0.0 mm 0.00 in/hr0.0 mm/hr 0.00 in0.0 mm
07:10 AM 61.3°F16.3°C 59.9°F15.5°C 95% 3.0 mph SE4.8 kmh SE 6.0 mph9.7 kmh 30.01 in1016.3 mb 0.00 in0.0 mm 0.00 in/hr0.0 mm/hr 0.00 in0.0 mm
07:11 AM 61.3°F16.3°C 59.9°F15.5°C 95% 1.0 mph SE1.6 kmh SE 6.0 mph9.7 kmh 30.01 in1016.3 mb 0.00 in0.0 mm 0.00 in/hr0.0 mm/hr 0.00 in0.0 mm
07:12 AM 61.3°F16.3°C 59.9°F15.5°C 95% 3.0 mph SE4.8 kmh SE 6.0 mph9.7 kmh 30.01 in1016.3 mb 0.00 in0.0 mm 0.00 in/hr0.0 mm/hr 0.00 in0.0 mm
07:13 AM 61.3°F16.3°C 59.9°F15.5°C 95% 3.0 mph SE4.8 kmh SE 6.0 mph9.7 kmh 30.01 in1016.3 mb 0.00 in0.0 mm 0.00 in/hr0.0 mm/hr 0.00 in0.0 mm
07:14 AM 61.3°F16.3°C 59.9°F15.5°C 95% 2.0 mph E3.2 kmh E 6.0 mph9.7 kmh 30.01 in1016.3 mb 0.00 in0.0 mm 0.00 in/hr0.0 mm/hr 0.00 in0.0 mm
07:15 AM 61.3°F16.3°C 59.9°F15.5°C 95% 2.0 mph E3.2 kmh E 6.0 mph9.7 kmh 30.01 in1016.3 mb 0.00 in0.0 mm 0.00 in/hr0.0 mm/hr 0.00 in0.0 mm
07:16 AM 61.4°F16.3°C 60.0°F15.6°C 95% 2.0 mph ESE3.2 kmh ESE 6.0 mph9.7 kmh 30.01 in1016.3 mb 0.00 in0.0 mm 0.00 in/hr0.0 mm/hr 0.00 in0.0 mm
07:17 AM 61.4°F16.3°C 60.0°F15.6°C 95% 2.0 mph ESE3.2 kmh ESE 6.0 mph9.7 kmh 30.01 in1016.3 mb 0.00 in0.0 mm 0.00 in/hr0.0 mm/hr 0.00 in0.0 mm
07:18 AM 61.4°F16.3°C 60.0°F15.6°C 95% 2.0 mph SE3.2 kmh SE 6.0 mph9.7 kmh 30.01 in1016.3 mb 0.00 in0.0 mm 0.00 in/hr0.0 mm/hr 0.00 in0.0 mm
07:19 AM 61.5°F16.4°C 60.1°F15.6°C 95% 4.0 mph SE6.4 kmh SE 6.0 mph9.7 kmh 30.01 in1016.3 mb 0.00 in0.0 mm 0.00 in/hr0.0 mm/hr 0.00 in0.0 mm
07:20 AM 61.6°F16.4°C 60.2°F15.7°C 95% 4.0 mph SE6.4 kmh SE 8.0 mph12.9 kmh 30.01 in1016.3 mb 0.00 in0.0 mm 0.00 in/hr0.0 mm/hr 0.00 in0.0 mm
07:21 AM 61.7°F16.5°C 60.6°F15.9°C 96% 4.0 mph SE6.4 kmh SE 8.0 mph12.9 kmh 30.01 in1016.3 mb 0.00 in0.0 mm 0.00 in/hr0.0 mm/hr 0.00 in0.0 mm
07:22 AM 61.7°F16.5°C 60.6°F15.9°C 96% 3.0 mph SE4.8 kmh SE 8.0 mph12.9 kmh 30.01 in1016.3 mb 0.00 in0.0 mm 0.00 in/hr0.0 mm/hr 0.00 in0.0 mm
07:23 AM 61.8°F16.6°C 60.4°F15.8°C 95% 4.0 mph SSE6.4 kmh SSE 8.0 mph12.9 kmh 30.01 in1016.3 mb 0.00 in0.0 mm 0.00 in/hr0.0 mm/hr 0.00 in0.0 mm
07:24 AM 61.8°F16.6°C 60.4°F15.8°C 95% 3.0 mph SE4.8 kmh SE 8.0 mph12.9 kmh 30.01 in1016.3 mb 0.00 in0.0 mm 0.00 in/hr0.0 mm/hr 0.00 in0.0 mm
07:25 AM 61.9°F16.6°C 60.5°F15.8°C 95% 7.0 mph SE11.3 kmh SE 8.0 mph12.9 kmh 30.01 in1016.3 mb 0.00 in0.0 mm 0.00 in/hr0.0 mm/hr 0.00 in0.0 mm
07:26 AM 61.9°F16.6°C 60.5°F15.8°C 95% 6.0 mph SE9.7 kmh SE 8.0 mph12.9 kmh 30.01 in1016.3 mb 0.00 in0.0 mm 0.00 in/hr0.0 mm/hr 0.00 in0.0 mm
07:27 AM 62.0°F16.7°C 60.6°F15.9°C 95% 4.0 mph SE6.4 kmh SE 9.0 mph14.5 kmh 30.01 in1016.3 mb 0.00 in0.0 mm 0.00 in/hr0.0 mm/hr 0.00 in0.0 mm
07:28 AM 62.1°F16.7°C 60.7°F15.9°C 95% 6.0 mph SE9.7 kmh SE 9.0 mph14.5 kmh 30.01 in1016.3 mb 0.00 in0.0 mm 0.00 in/hr0.0 mm/hr 0.00 in0.0 mm
07:29 AM 62.1°F16.7°C 60.7°F15.9°C 95% 10.0 mph SE16.1 kmh SE 10.0 mph16.1 kmh 30.01 in1016.3 mb 0.00 in0.0 mm 0.00 in/hr0.0 mm/hr 0.00 in0.0 mm
07:30 AM 62.2°F16.8°C 60.8°F16.0°C 95% 7.0 mph SE11.3 kmh SE 10.0 mph16.1 kmh 30.01 in1016.3 mb 0.00 in0.0 mm 0.00 in/hr0.0 mm/hr 0.00 in0.0 mm
07:31 AM 62.2°F16.8°C 60.8°F16.0°C 95% 3.0 mph SE4.8 kmh SE 5.0 mph8.0 kmh 30.01 in1016.3 mb 0.00 in0.0 mm 0.00 in/hr0.0 mm/hr 0.00 in0.0 mm
07:32 AM 62.2°F16.8°C 60.8°F16.0°C 95% 4.0 mph SE6.4 kmh SE 5.0 mph8.0 kmh 30.01 in1016.3 mb 0.00 in0.0 mm 0.00 in/hr0.0 mm/hr 0.00 in0.0 mm
07:33 AM 62.2°F16.8°C 60.5°F15.8°C 94% 3.0 mph SE4.8 kmh SE 5.0 mph8.0 kmh 30.01 in1016.3 mb 0.00 in0.0 mm 0.00 in/hr0.0 mm/hr 0.00 in0.0 mm
07:34 AM 62.3°F16.8°C 60.6°F15.9°C 94% 4.0 mph SE6.4 kmh SE 5.0 mph8.0 kmh 30.01 in1016.3 mb 0.00 in0.0 mm 0.00 in/hr0.0 mm/hr 0.00 in0.0 mm
07:35 AM 62.3°F16.8°C 60.6°F15.9°C 94% 4.0 mph SE6.4 kmh SE 5.0 mph8.0 kmh 30.01 in1016.3 mb 0.00 in0.0 mm 0.00 in/hr0.0 mm/hr 0.00 in0.0 mm
07:36 AM 62.3°F16.8°C 60.6°F15.9°C 94% 3.0 mph ESE4.8 kmh ESE 10.0 mph16.1 kmh 30.01 in1016.3 mb 0.00 in0.0 mm 0.00 in/hr0.0 mm/hr 0.00 in0.0 mm
07:37 AM 62.4°F16.9°C 60.7°F15.9°C 94% 5.0 mph SE8.0 kmh SE 10.0 mph16.1 kmh 30.01 in1016.3 mb 0.00 in0.0 mm 0.00 in/hr0.0 mm/hr 0.00 in0.0 mm
07:38 AM 62.4°F16.9°C 60.7°F15.9°C 94% 5.0 mph SE8.0 kmh SE 10.0 mph16.1 kmh 30.01 in1016.3 mb 0.00 in0.0 mm 0.00 in/hr0.0 mm/hr 0.00 in0.0 mm
07:39 AM 62.4°F16.9°C 60.7°F15.9°C 94% 7.0 mph E11.3 kmh E 11.0 mph17.7 kmh 30.01 in1016.3 mb 0.00 in0.0 mm 0.00 in/hr0.0 mm/hr 0.00 in0.0 mm
07:40 AM 62.4°F16.9°C 60.7°F15.9°C 94% 6.0 mph SE9.7 kmh SE 11.0 mph17.7 kmh 30.01 in1016.3 mb 0.00 in0.0 mm 0.00 in/hr0.0 mm/hr 0.00 in0.0 mm
07:41 AM 62.5°F16.9°C 60.8°F16.0°C 94% 7.0 mph SE11.3 kmh SE 11.0 mph17.7 kmh 30.01 in1016.3 mb 0.00 in0.0 mm 0.00 in/hr0.0 mm/hr 0.00 in0.0 mm
07:42 AM 62.5°F16.9°C 60.8°F16.0°C 94% 8.0 mph SE12.9 kmh SE 11.0 mph17.7 kmh 30.01 in1016.3 mb 0.00 in0.0 mm 0.00 in/hr0.0 mm/hr 0.00 in0.0 mm
07:43 AM 62.5°F16.9°C 60.8°F16.0°C 94% 4.0 mph SE6.4 kmh SE 11.0 mph17.7 kmh 30.01 in1016.3 mb 0.00 in0.0 mm 0.00 in/hr0.0 mm/hr 0.00 in0.0 mm
07:44 AM 62.5°F16.9°C 60.8°F16.0°C 94% 2.0 mph SE3.2 kmh SE 11.0 mph17.7 kmh 30.01 in1016.3 mb 0.00 in0.0 mm 0.00 in/hr0.0 mm/hr 0.00 in0.0 mm
07:45 AM 62.5°F16.9°C 60.8°F16.0°C 94% 10.0 mph ESE16.1 kmh ESE 11.0 mph17.7 kmh 30.01 in1016.3 mb 0.00 in0.0 mm 0.00 in/hr0.0 mm/hr 0.00 in0.0 mm
07:46 AM 62.6°F17.0°C 60.9°F16.1°C 94% 6.0 mph SE9.7 kmh SE 11.0 mph17.7 kmh 30.01 in1016.3 mb 0.00 in0.0 mm 0.00 in/hr0.0 mm/hr 0.00 in0.0 mm
07:47 AM 62.6°F17.0°C 60.9°F16.1°C 94% 7.0 mph SE11.3 kmh SE 11.0 mph17.7 kmh 30.01 in1016.3 mb 0.00 in0.0 mm 0.00 in/hr0.0 mm/hr 0.00 in0.0 mm
07:48 AM 62.6°F17.0°C 60.9°F16.1°C 94% 10.0 mph SSE16.1 kmh SSE 11.0 mph17.7 kmh 30.01 in1016.3 mb 0.00 in0.0 mm 0.00 in/hr0.0 mm/hr 0.00 in0.0 mm
07:49 AM 62.6°F17.0°C 60.9°F16.1°C 94% 5.0 mph SE8.0 kmh SE 11.0 mph17.7 kmh 30.01 in1016.3 mb 0.00 in0.0 mm 0.00 in/hr0.0 mm/hr 0.00 in0.0 mm
07:50 AM 62.6°F17.0°C 60.6°F15.9°C 93% 3.0 mph SE4.8 kmh SE 11.0 mph17.7 kmh 30.01 in1016.3 mb 0.00 in0.0 mm 0.00 in/hr0.0 mm/hr 0.00 in0.0 mm
07:51 AM 62.7°F17.1°C 60.7°F15.9°C 93% 7.0 mph ESE11.3 kmh ESE 11.0 mph17.7 kmh 30.01 in1016.3 mb 0.00 in0.0 mm 0.00 in/hr0.0 mm/hr 0.00 in0.0 mm
07:52 AM 62.7°F17.1°C 60.7°F15.9°C 93% 5.0 mph SSE8.0 kmh SSE 11.0 mph17.7 kmh 30.01 in1016.3 mb 0.00 in0.0 mm 0.00 in/hr0.0 mm/hr 0.00 in0.0 mm
07:53 AM 62.7°F17.1°C 60.7°F15.9°C 93% 6.0 mph SSE9.7 kmh SSE 11.0 mph17.7 kmh 30.01 in1016.3 mb 0.00 in0.0 mm 0.00 in/hr0.0 mm/hr 0.00 in0.0 mm
07:54 AM 62.7°F17.1°C 60.7°F15.9°C 93% 4.0 mph SE6.4 kmh SE 11.0 mph17.7 kmh 30.01 in1016.3 mb 0.00 in0.0 mm 0.00 in/hr0.0 mm/hr 0.00 in0.0 mm
07:55 AM 62.7°F17.1°C 60.7°F15.9°C 93% 5.0 mph SE8.0 kmh SE 11.0 mph17.7 kmh 30.01 in1016.3 mb 0.00 in0.0 mm 0.00 in/hr0.0 mm/hr 0.00 in0.0 mm
07:56 AM 62.7°F17.1°C 60.7°F15.9°C 93% 5.0 mph SE8.0 kmh SE 11.0 mph17.7 kmh 30.01 in1016.3 mb 0.00 in0.0 mm 0.00 in/hr0.0 mm/hr 0.00 in0.0 mm
07:57 AM 62.7°F17.1°C 60.7°F15.9°C 93% 4.0 mph SSE6.4 kmh SSE 11.0 mph17.7 kmh 30.01 in1016.3 mb 0.00 in0.0 mm 0.00 in/hr0.0 mm/hr 0.00 in0.0 mm
07:58 AM 62.7°F17.1°C 60.7°F15.9°C 93% 8.0 mph S12.9 kmh S 11.0 mph17.7 kmh 30.01 in1016.3 mb 0.00 in0.0 mm 0.00 in/hr0.0 mm/hr 0.00 in0.0 mm
07:59 AM 62.7°F17.1°C 60.7°F15.9°C 93% 8.0 mph SE12.9 kmh SE 11.0 mph17.7 kmh 30.01 in1016.3 mb 0.00 in0.0 mm 0.00 in/hr0.0 mm/hr 0.00 in0.0 mm
08:00 AM 62.7°F17.1°C 60.7°F15.9°C 93% 8.0 mph SE12.9 kmh SE 11.0 mph17.7 kmh 30.01 in1016.3 mb 0.00 in0.0 mm 0.00 in/hr0.0 mm/hr 0.00 in0.0 mm
08:01 AM 62.7°F17.1°C 60.7°F15.9°C 93% 4.0 mph SE6.4 kmh SE 4.0 mph6.4 kmh 30.01 in1016.3 mb 0.00 in0.0 mm 0.00 in/hr0.0 mm/hr 0.00 in0.0 mm
08:02 AM 62.8°F17.1°C 60.8°F16.0°C 93% 4.0 mph SE6.4 kmh SE 9.0 mph14.5 kmh 30.01 in1016.3 mb 0.00 in0.0 mm 0.00 in/hr0.0 mm/hr 0.00 in0.0 mm
08:03 AM 62.8°F17.1°C 60.8°F16.0°C 93% 8.0 mph ESE12.9 kmh ESE 9.0 mph14.5 kmh 30.01 in1016.3 mb 0.00 in0.0 mm 0.00 in/hr0.0 mm/hr 0.00 in0.0 mm
08:04 AM 62.8°F17.1°C 60.8°F16.0°C 93% 7.0 mph SE11.3 kmh SE 9.0 mph14.5 kmh 30.01 in1016.3 mb 0.00 in0.0 mm 0.00 in/hr0.0 mm/hr 0.00 in0.0 mm
08:05 AM 62.8°F17.1°C 60.8°F16.0°C 93% 5.0 mph SE8.0 kmh SE 9.0 mph14.5 kmh 30.01 in1016.3 mb 0.00 in0.0 mm 0.00 in/hr0.0 mm/hr 0.00 in0.0 mm
08:06 AM 62.8°F17.1°C 60.8°F16.0°C 93% 3.0 mph SE4.8 kmh SE 9.0 mph14.5 kmh 30.01 in1016.3 mb 0.00 in0.0 mm 0.00 in/hr0.0 mm/hr 0.00 in0.0 mm
08:07 AM 62.9°F17.2°C 60.9°F16.1°C 93% 7.0 mph SE11.3 kmh SE 9.0 mph14.5 kmh 30.01 in1016.3 mb 0.00 in0.0 mm 0.00 in/hr0.0 mm/hr 0.00 in0.0 mm
08:08 AM 62.9°F17.2°C 60.9°F16.1°C 93% 4.0 mph SE6.4 kmh SE 9.0 mph14.5 kmh 30.01 in1016.3 mb 0.00 in0.0 mm 0.00 in/hr0.0 mm/hr 0.00 in0.0 mm
08:09 AM 62.9°F17.2°C 60.9°F16.1°C 93% 2.0 mph SE3.2 kmh SE 9.0 mph14.5 kmh 30.01 in1016.3 mb 0.00 in0.0 mm 0.00 in/hr0.0 mm/hr 0.00 in0.0 mm
08:10 AM 62.9°F17.2°C 60.9°F16.1°C 93% 8.0 mph SE12.9 kmh SE 10.0 mph16.1 kmh 30.01 in1016.3 mb 0.00 in0.0 mm 0.00 in/hr0.0 mm/hr 0.00 in0.0 mm
08:11 AM 62.9°F17.2°C 60.9°F16.1°C 93% 6.0 mph SE9.7 kmh SE 10.0 mph16.1 kmh 30.01 in1016.3 mb 0.00 in0.0 mm 0.00 in/hr0.0 mm/hr 0.00 in0.0 mm
08:12 AM 63.0°F17.2°C 61.0°F16.1°C 93% 4.0 mph SSE6.4 kmh SSE 10.0 mph16.1 kmh 30.01 in1016.3 mb 0.00 in0.0 mm 0.00 in/hr0.0 mm/hr 0.00 in0.0 mm
08:13 AM 63.0°F17.2°C 61.0°F16.1°C 93% 3.0 mph SE4.8 kmh SE 10.0 mph16.1 kmh 30.01 in1016.3 mb 0.00 in0.0 mm 0.00 in/hr0.0 mm/hr 0.00 in0.0 mm
08:14 AM 63.0°F17.2°C 61.0°F16.1°C 93% 5.0 mph SE8.0 kmh SE 10.0 mph16.1 kmh 30.01 in1016.3 mb 0.00 in0.0 mm 0.00 in/hr0.0 mm/hr 0.00 in0.0 mm
08:15 AM 63.1°F17.3°C 61.1°F16.2°C 93% 4.0 mph SSE6.4 kmh SSE 10.0 mph16.1 kmh 30.01 in1016.3 mb 0.00 in0.0 mm 0.00 in/hr0.0 mm/hr 0.00 in0.0 mm
08:16 AM 63.1°F17.3°C 61.1°F16.2°C 93% 3.0 mph SSE4.8 kmh SSE 10.0 mph16.1 kmh 30.01 in1016.3 mb 0.00 in0.0 mm 0.00 in/hr0.0 mm/hr 0.00 in0.0 mm
08:17 AM 63.1°F17.3°C 61.1°F16.2°C 93% 5.0 mph SSE8.0 kmh SSE 10.0 mph16.1 kmh 30.01 in1016.3 mb 0.00 in0.0 mm 0.00 in/hr0.0 mm/hr 0.00 in0.0 mm
08:18 AM 63.1°F17.3°C 61.1°F16.2°C 93% 4.0 mph SSE6.4 kmh SSE 10.0 mph16.1 kmh 30.01 in1016.3 mb 0.00 in0.0 mm 0.00 in/hr0.0 mm/hr 0.00 in0.0 mm
08:19 AM 63.1°F17.3°C 61.1°F16.2°C 93% 4.0 mph SE6.4 kmh SE 10.0 mph16.1 kmh 30.01 in1016.3 mb 0.00 in0.0 mm 0.00 in/hr0.0 mm/hr 0.00 in0.0 mm
08:20 AM 63.1°F17.3°C 61.1°F16.2°C 93% 7.0 mph SE11.3 kmh SE 10.0 mph16.1 kmh 30.01 in1016.3 mb 0.00 in0.0 mm 0.00 in/hr0.0 mm/hr 0.00 in0.0 mm
08:21 AM 63.1°F17.3°C 61.1°F16.2°C 93% 7.0 mph SE11.3 kmh SE 10.0 mph16.1 kmh 30.01 in1016.3 mb 0.00 in0.0 mm 0.00 in/hr0.0 mm/hr 0.00 in0.0 mm
08:22 AM 63.1°F17.3°C 61.1°F16.2°C 93% 5.0 mph SE8.0 kmh SE 10.0 mph16.1 kmh 30.01 in1016.3 mb 0.00 in0.0 mm 0.00 in/hr0.0 mm/hr 0.00 in0.0 mm
08:23 AM 63.2°F17.3°C 61.2°F16.2°C 93% 4.0 mph SSE6.4 kmh SSE 10.0 mph16.1 kmh 30.01 in1016.3 mb 0.00 in0.0 mm 0.00 in/hr0.0 mm/hr 0.00 in0.0 mm
08:24 AM 63.2°F17.3°C 61.2°F16.2°C 93% 3.0 mph SE4.8 kmh SE 10.0 mph16.1 kmh 30.01 in1016.3 mb 0.00 in0.0 mm 0.00 in/hr0.0 mm/hr 0.00 in0.0 mm
08:25 AM 63.2°F17.3°C 61.2°F16.2°C 93% 3.0 mph SE4.8 kmh SE 10.0 mph16.1 kmh 30.01 in1016.3 mb 0.00 in0.0 mm 0.00 in/hr0.0 mm/hr 0.00 in0.0 mm
08:26 AM 63.2°F17.3°C 61.2°F16.2°C 93% 5.0 mph SE8.0 kmh SE 10.0 mph16.1 kmh 30.01 in1016.3 mb 0.00 in0.0 mm 0.00 in/hr0.0 mm/hr 0.00 in0.0 mm
08:27 AM 63.2°F17.3°C 61.2°F16.2°C 93% 8.0 mph SE12.9 kmh SE 10.0 mph16.1 kmh 30.01 in1016.3 mb 0.00 in0.0 mm 0.00 in/hr0.0 mm/hr 0.00 in0.0 mm
08:28 AM 63.2°F17.3°C 61.2°F16.2°C 93% 6.0 mph SE9.7 kmh SE 10.0 mph16.1 kmh 30.01 in1016.3 mb 0.00 in0.0 mm 0.00 in/hr0.0 mm/hr 0.00 in0.0 mm
08:29 AM 63.2°F17.3°C 61.2°F16.2°C 93% 4.0 mph SE6.4 kmh SE 10.0 mph16.1 kmh 30.01 in1016.3 mb 0.00 in0.0 mm 0.00 in/hr0.0 mm/hr 0.00 in0.0 mm
08:30 AM 63.3°F17.4°C 61.3°F16.3°C 93% 4.0 mph SE6.4 kmh SE 10.0 mph16.1 kmh 30.01 in1016.3 mb 0.00 in0.0 mm 0.00 in/hr0.0 mm/hr 0.00 in0.0 mm
08:31 AM 63.3°F17.4°C 61.3°F16.3°C 93% 4.0 mph SE6.4 kmh SE 5.0 mph8.0 kmh 30.01 in1016.3 mb 0.00 in0.0 mm 0.00 in/hr0.0 mm/hr 0.00 in0.0 mm
08:32 AM 63.3°F17.4°C 61.3°F16.3°C 93% 5.0 mph SE8.0 kmh SE 9.0 mph14.5 kmh 30.01 in1016.3 mb 0.00 in0.0 mm 0.00 in/hr0.0 mm/hr 0.00 in0.0 mm
08:33 AM 63.3°F17.4°C 61.3°F16.3°C 93% 3.0 mph SE4.8 kmh SE 9.0 mph14.5 kmh 30.01 in1016.3 mb 0.00 in0.0 mm 0.00 in/hr0.0 mm/hr 0.00 in0.0 mm
08:34 AM 63.3°F17.4°C 61.3°F16.3°C 93% 5.0 mph SE8.0 kmh SE 9.0 mph14.5 kmh 30.01 in1016.3 mb 0.00 in0.0 mm 0.00 in/hr0.0 mm/hr 0.00 in0.0 mm
08:35 AM 63.4°F17.4°C 61.3°F16.3°C 93% 4.0 mph SE6.4 kmh SE 9.0 mph14.5 kmh 30.01 in1016.3 mb 0.00 in0.0 mm 0.00 in/hr0.0 mm/hr 0.00 in0.0 mm
08:36 AM 63.3°F17.4°C 61.3°F16.3°C 93% 4.0 mph SE6.4 kmh SE 9.0 mph14.5 kmh 30.01 in1016.3 mb 0.00 in0.0 mm 0.00 in/hr0.0 mm/hr 0.00 in0.0 mm
08:37 AM 63.3°F17.4°C 61.3°F16.3°C 93% 3.0 mph SE4.8 kmh SE 9.0 mph14.5 kmh 30.01 in1016.3 mb 0.00 in0.0 mm 0.00 in/hr0.0 mm/hr 0.00 in0.0 mm
08:38 AM 63.3°F17.4°C 61.3°F16.3°C 93% 6.0 mph SE9.7 kmh SE 10.0 mph16.1 kmh 30.01 in1016.3 mb 0.00 in0.0 mm 0.00 in/hr0.0 mm/hr 0.00 in0.0 mm
08:39 AM 63.4°F17.4°C 61.3°F16.3°C 93% 3.0 mph SE4.8 kmh SE 10.0 mph16.1 kmh 30.01 in1016.3 mb 0.00 in0.0 mm 0.00 in/hr0.0 mm/hr 0.00 in0.0 mm
08:40 AM 63.4°F17.4°C 61.3°F16.3°C 93% 8.0 mph ESE12.9 kmh ESE 10.0 mph16.1 kmh 30.01 in1016.3 mb 0.00 in0.0 mm 0.00 in/hr0.0 mm/hr 0.00 in0.0 mm
08:41 AM 63.4°F17.4°C 61.3°F16.3°C 93% 6.0 mph SE9.7 kmh SE 10.0 mph16.1 kmh 30.01 in1016.3 mb 0.00 in0.0 mm 0.00 in/hr0.0 mm/hr 0.00 in0.0 mm
08:42 AM 63.4°F17.4°C 61.3°F16.3°C 93% 8.0 mph SSE12.9 kmh SSE 10.0 mph16.1 kmh 30.01 in1016.3 mb 0.00 in0.0 mm 0.00 in/hr0.0 mm/hr 0.00 in0.0 mm
08:43 AM 63.4°F17.4°C 61.3°F16.3°C 93% 5.0 mph SE8.0 kmh SE 10.0 mph16.1 kmh 30.01 in1016.3 mb 0.00 in0.0 mm 0.00 in/hr0.0 mm/hr 0.00 in0.0 mm
08:44 AM 63.4°F17.4°C 61.3°F16.3°C 93% 6.0 mph SE9.7 kmh SE 10.0 mph16.1 kmh 30.01 in1016.3 mb 0.00 in0.0 mm 0.00 in/hr0.0 mm/hr 0.00 in0.0 mm
08:45 AM 63.4°F17.4°C 61.3°F16.3°C 93% 5.0 mph SE8.0 kmh SE 10.0 mph16.1 kmh 30.01 in1016.3 mb 0.00 in0.0 mm 0.00 in/hr0.0 mm/hr 0.00 in0.0 mm
08:46 AM 63.4°F17.4°C 61.3°F16.3°C 93% 3.0 mph SSE4.8 kmh SSE 10.0 mph16.1 kmh 30.01 in1016.3 mb 0.00 in0.0 mm 0.00 in/hr0.0 mm/hr 0.00 in0.0 mm
08:47 AM 63.4°F17.4°C 61.3°F16.3°C 93% 3.0 mph SE4.8 kmh SE 10.0 mph16.1 kmh 30.01 in1016.3 mb 0.00 in0.0 mm 0.00 in/hr0.0 mm/hr 0.00 in0.0 mm
08:48 AM 63.4°F17.4°C 61.3°F16.3°C 93% 4.0 mph S6.4 kmh S 10.0 mph16.1 kmh 30.01 in1016.3 mb 0.00 in0.0 mm 0.00 in/hr0.0 mm/hr 0.00 in0.0 mm
08:49 AM 63.4°F17.4°C 61.3°F16.3°C 93% 6.0 mph SE9.7 kmh SE 10.0 mph16.1 kmh 30.01 in1016.3 mb 0.00 in0.0 mm 0.00 in/hr0.0 mm/hr 0.00 in0.0 mm
08:50 AM 63.4°F17.4°C 61.3°F16.3°C 93% 7.0 mph SE11.3 kmh SE 10.0 mph16.1 kmh 30.01 in1016.3 mb 0.00 in0.0 mm 0.00 in/hr0.0 mm/hr 0.00 in0.0 mm
08:51 AM 63.4°F17.4°C 61.3°F16.3°C 93% 6.0 mph SSE9.7 kmh SSE 10.0 mph16.1 kmh 30.01 in1016.3 mb 0.00 in0.0 mm 0.00 in/hr0.0 mm/hr 0.00 in0.0 mm
08:52 AM 63.4°F17.4°C 61.3°F16.3°C 93% 9.0 mph SE14.5 kmh SE 10.0 mph16.1 kmh 30.01 in1016.3 mb 0.00 in0.0 mm 0.00 in/hr0.0 mm/hr 0.00 in0.0 mm
08:53 AM 63.4°F17.4°C 61.3°F16.3°C 93% 5.0 mph SE8.0 kmh SE 10.0 mph16.1 kmh 30.01 in1016.3 mb 0.00 in0.0 mm 0.00 in/hr0.0 mm/hr 0.00 in0.0 mm
08:54 AM 63.4°F17.4°C 61.3°F16.3°C 93% 4.0 mph SE6.4 kmh SE 10.0 mph16.1 kmh 30.01 in1016.3 mb 0.00 in0.0 mm 0.00 in/hr0.0 mm/hr 0.00 in0.0 mm
08:55 AM 63.4°F17.4°C 61.3°F16.3°C 93% 3.0 mph SE4.8 kmh SE 10.0 mph16.1 kmh 30.01 in1016.3 mb 0.00 in0.0 mm 0.00 in/hr0.0 mm/hr 0.00 in0.0 mm
08:56 AM 63.4°F17.4°C 61.3°F16.3°C 93% 5.0 mph SE8.0 kmh SE 10.0 mph16.1 kmh 30.01 in1016.3 mb 0.00 in0.0 mm 0.00 in/hr0.0 mm/hr 0.00 in0.0 mm
08:57 AM 63.4°F17.4°C 61.3°F16.3°C 93% 6.0 mph SSE9.7 kmh SSE 10.0 mph16.1 kmh 30.01 in1016.3 mb 0.00 in0.0 mm 0.00 in/hr0.0 mm/hr 0.00 in0.0 mm
08:58 AM 63.4°F17.4°C 61.3°F16.3°C 93% 5.0 mph SE8.0 kmh SE 10.0 mph16.1 kmh 30.01 in1016.3 mb 0.00 in0.0 mm 0.00 in/hr0.0 mm/hr 0.00 in0.0 mm
08:59 AM 63.4°F17.4°C 61.3°F16.3°C 93% 4.0 mph SE6.4 kmh SE 10.0 mph16.1 kmh 30.01 in1016.3 mb 0.00 in0.0 mm 0.00 in/hr0.0 mm/hr 0.00 in0.0 mm
09:00 AM 63.4°F17.4°C 61.3°F16.3°C 93% 5.0 mph SE8.0 kmh SE 10.0 mph16.1 kmh 30.01 in1016.3 mb 0.00 in0.0 mm 0.00 in/hr0.0 mm/hr 0.00 in0.0 mm
09:01 AM 63.3°F17.4°C 61.3°F16.3°C 93% 3.0 mph SE4.8 kmh SE 5.0 mph8.0 kmh 30.01 in1016.3 mb 0.00 in0.0 mm 0.00 in/hr0.0 mm/hr 0.00 in0.0 mm
09:02 AM 63.3°F17.4°C 61.3°F16.3°C 93% 8.0 mph SE12.9 kmh SE 8.0 mph12.9 kmh 30.00 in1015.9 mb 0.00 in0.0 mm 0.00 in/hr0.0 mm/hr 0.00 in0.0 mm
09:03 AM 63.3°F17.4°C 61.3°F16.3°C 93% 4.0 mph SE6.4 kmh SE 8.0 mph12.9 kmh 30.00 in1015.9 mb 0.00 in0.0 mm 0.00 in/hr0.0 mm/hr 0.00 in0.0 mm
09:04 AM 63.3°F17.4°C 61.3°F16.3°C 93% 7.0 mph SE11.3 kmh SE 8.0 mph12.9 kmh 30.00 in1015.9 mb 0.00 in0.0 mm 0.00 in/hr0.0 mm/hr 0.00 in0.0 mm
09:05 AM 63.2°F17.3°C 61.2°F16.2°C 93% 7.0 mph SE11.3 kmh SE 10.0 mph16.1 kmh 30.00 in1015.9 mb 0.00 in0.0 mm 0.00 in/hr0.0 mm/hr 0.00 in0.0 mm
09:06 AM 63.2°F17.3°C 61.2°F16.2°C 93% 9.0 mph ESE14.5 kmh ESE 10.0 mph16.1 kmh 30.00 in1015.9 mb 0.00 in0.0 mm 0.00 in/hr0.0 mm/hr 0.00 in0.0 mm
09:07 AM 63.2°F17.3°C 61.2°F16.2°C 93% 5.0 mph SE8.0 kmh SE 10.0 mph16.1 kmh 30.00 in1015.9 mb 0.00 in0.0 mm 0.00 in/hr0.0 mm/hr 0.00 in0.0 mm
09:08 AM 63.2°F17.3°C 61.2°F16.2°C 93% 6.0 mph SSE9.7 kmh SSE 10.0 mph16.1 kmh 30.00 in1015.9 mb 0.00 in0.0 mm 0.00 in/hr0.0 mm/hr 0.00 in0.0 mm
09:09 AM 63.2°F17.3°C 61.5°F16.4°C 94% 3.0 mph SE4.8 kmh SE 10.0 mph16.1 kmh 30.00 in1015.9 mb 0.00 in0.0 mm 0.00 in/hr0.0 mm/hr 0.00 in0.0 mm
09:10 AM 63.1°F17.3°C 61.4°F16.3°C 94% 4.0 mph SSE6.4 kmh SSE 10.0 mph16.1 kmh 30.00 in1015.9 mb 0.00 in0.0 mm 0.00 in/hr0.0 mm/hr 0.00 in0.0 mm
09:11 AM 63.1°F17.3°C 61.4°F16.3°C 94% 6.0 mph SE9.7 kmh SE 10.0 mph16.1 kmh 30.00 in1015.9 mb 0.00 in0.0 mm 0.00 in/hr0.0 mm/hr 0.00 in0.0 mm
09:12 AM 63.1°F17.3°C 61.4°F16.3°C 94% 4.0 mph SE6.4 kmh SE 10.0 mph16.1 kmh 30.00 in1015.9 mb 0.00 in0.0 mm 0.00 in/hr0.0 mm/hr 0.00 in0.0 mm
09:13 AM 63.1°F17.3°C 61.4°F16.3°C 94% 5.0 mph SE8.0 kmh SE 10.0 mph16.1 kmh 30.00 in1015.9 mb 0.00 in0.0 mm 0.00 in/hr0.0 mm/hr 0.00 in0.0 mm
09:14 AM 63.1°F17.3°C 61.4°F16.3°C 94% 5.0 mph SSE8.0 kmh SSE 10.0 mph16.1 kmh 30.00 in1015.9 mb 0.00 in0.0 mm 0.00 in/hr0.0 mm/hr 0.00 in0.0 mm
09:15 AM 63.0°F17.2°C 61.3°F16.3°C 94% 4.0 mph SSE6.4 kmh SSE 10.0 mph16.1 kmh 30.00 in1015.9 mb 0.00 in0.0 mm 0.00 in/hr0.0 mm/hr 0.00 in0.0 mm
09:16 AM 63.0°F17.2°C 61.3°F16.3°C 94% 4.0 mph SE6.4 kmh SE 10.0 mph16.1 kmh 30.00 in1015.9 mb 0.00 in0.0 mm 0.00 in/hr0.0 mm/hr 0.00 in0.0 mm
09:17 AM 63.0°F17.2°C 61.6°F16.4°C 95% 6.0 mph S9.7 kmh S 10.0 mph16.1 kmh 30.00 in1015.9 mb 0.00 in0.0 mm 0.00 in/hr0.0 mm/hr 0.00 in0.0 mm
09:18 AM 63.0°F17.2°C 61.6°F16.4°C 95% 9.0 mph SSE14.5 kmh SSE 11.0 mph17.7 kmh 30.00 in1015.9 mb 0.00 in0.0 mm 0.00 in/hr0.0 mm/hr 0.00 in0.0 mm
09:19 AM 63.0°F17.2°C 61.6°F16.4°C 95% 6.0 mph SE9.7 kmh SE 11.0 mph17.7 kmh 30.00 in1015.9 mb 0.00 in0.0 mm 0.00 in/hr0.0 mm/hr 0.00 in0.0 mm
09:20 AM 63.0°F17.2°C 61.6°F16.4°C 95% 8.0 mph SSE12.9 kmh SSE 11.0 mph17.7 kmh 30.00 in1015.9 mb 0.00 in0.0 mm 0.00 in/hr0.0 mm/hr 0.00 in0.0 mm
09:21 AM 63.0°F17.2°C 61.6°F16.4°C 95% 4.0 mph SE6.4 kmh SE 11.0 mph17.7 kmh 30.00 in1015.9 mb 0.00 in0.0 mm 0.00 in/hr0.0 mm/hr 0.00 in0.0 mm
09:22 AM 63.0°F17.2°C 61.6°F16.4°C 95% 7.0 mph S11.3 kmh S 12.0 mph19.3 kmh 30.00 in1015.9 mb 0.00 in0.0 mm 0.00 in/hr0.0 mm/hr 0.00 in0.0 mm
09:23 AM 63.0°F17.2°C 61.6°F16.4°C 95% 5.0 mph SE8.0 kmh SE 12.0 mph19.3 kmh 30.00 in1015.9 mb 0.00 in0.0 mm 0.00 in/hr0.0 mm/hr 0.00 in0.0 mm
09:24 AM 62.9°F17.2°C 61.5°F16.4°C 95% 3.0 mph SE4.8 kmh SE 12.0 mph19.3 kmh 30.00 in1015.9 mb 0.00 in0.0 mm 0.00 in/hr0.0 mm/hr 0.00 in0.0 mm
09:25 AM 62.9°F17.2°C 61.5°F16.4°C 95% 7.0 mph SSE11.3 kmh SSE 12.0 mph19.3 kmh 30.00 in1015.9 mb 0.00 in0.0 mm 0.00 in/hr0.0 mm/hr 0.00 in0.0 mm
09:26 AM 62.9°F17.2°C 61.5°F16.4°C 95% 8.0 mph SE12.9 kmh SE 12.0 mph19.3 kmh 30.00 in1015.9 mb 0.00 in0.0 mm 0.00 in/hr0.0 mm/hr 0.00 in0.0 mm
09:27 AM 62.9°F17.2°C 61.5°F16.4°C 95% 7.0 mph SE11.3 kmh SE 12.0 mph19.3 kmh 30.00 in1015.9 mb 0.00 in0.0 mm 0.00 in/hr0.0 mm/hr 0.00 in0.0 mm
09:28 AM 62.9°F17.2°C 61.8°F16.6°C 96% 6.0 mph SE9.7 kmh SE 12.0 mph19.3 kmh 30.00 in1015.9 mb 0.00 in0.0 mm 0.00 in/hr0.0 mm/hr 0.00 in0.0 mm
09:29 AM 62.9°F17.2°C 61.8°F16.6°C 96% 6.0 mph SSE9.7 kmh SSE 12.0 mph19.3 kmh 30.00 in1015.9 mb 0.01 in0.3 mm 0.60 in/hr15.2 mm/hr 0.01 in0.3 mm
09:30 AM 62.9°F17.2°C 61.8°F16.6°C 96% 7.0 mph SSE11.3 kmh SSE 12.0 mph19.3 kmh 30.00 in1015.9 mb 0.01 in0.3 mm 0.00 in/hr0.0 mm/hr 0.01 in0.3 mm
09:31 AM 62.9°F17.2°C 61.8°F16.6°C 96% 9.0 mph SE14.5 kmh SE 11.0 mph17.7 kmh 30.00 in1015.9 mb 0.01 in0.3 mm 0.00 in/hr0.0 mm/hr 0.01 in0.3 mm
09:32 AM 62.9°F17.2°C 61.8°F16.6°C 96% 3.0 mph SSE4.8 kmh SSE 11.0 mph17.7 kmh 30.00 in1015.9 mb 0.01 in0.3 mm 0.00 in/hr0.0 mm/hr 0.01 in0.3 mm
09:33 AM 62.9°F17.2°C 61.8°F16.6°C 96% 4.0 mph SE6.4 kmh SE 11.0 mph17.7 kmh 30.00 in1015.9 mb 0.01 in0.3 mm 0.00 in/hr0.0 mm/hr 0.01 in0.3 mm
09:34 AM 63.0°F17.2°C 61.9°F16.6°C 96% 8.0 mph SE12.9 kmh SE 11.0 mph17.7 kmh 29.99 in1015.6 mb 0.01 in0.3 mm 0.00 in/hr0.0 mm/hr 0.01 in0.3 mm
09:35 AM 63.0°F17.2°C 61.9°F16.6°C 96% 5.0 mph SE8.0 kmh SE 11.0 mph17.7 kmh 29.99 in1015.6 mb 0.01 in0.3 mm 0.00 in/hr0.0 mm/hr 0.01 in0.3 mm
09:37 AM 63.0°F17.2°C 61.9°F16.6°C 96% 7.0 mph SE11.3 kmh SE 11.0 mph17.7 kmh 29.99 in1015.6 mb 0.02 in0.5 mm 0.30 in/hr7.6 mm/hr 0.02 in0.5 mm
09:38 AM 63.0°F17.2°C 61.9°F16.6°C 96% 6.0 mph SSE9.7 kmh SSE 11.0 mph17.7 kmh 29.99 in1015.6 mb 0.02 in0.5 mm 0.00 in/hr0.0 mm/hr 0.02 in0.5 mm
09:40 AM 63.0°F17.2°C 61.9°F16.6°C 96% 4.0 mph SSE6.4 kmh SSE 11.0 mph17.7 kmh 29.99 in1015.6 mb 0.02 in0.5 mm 0.00 in/hr0.0 mm/hr 0.02 in0.5 mm
09:41 AM 63.1°F17.3°C 62.2°F16.8°C 97% 5.0 mph SE8.0 kmh SE 11.0 mph17.7 kmh 29.99 in1015.6 mb 0.02 in0.5 mm 0.00 in/hr0.0 mm/hr 0.02 in0.5 mm
09:42 AM 63.1°F17.3°C 61.9°F16.6°C 96% 6.0 mph SE9.7 kmh SE 11.0 mph17.7 kmh 29.99 in1015.6 mb 0.02 in0.5 mm 0.00 in/hr0.0 mm/hr 0.02 in0.5 mm
09:43 AM 63.1°F17.3°C 62.2°F16.8°C 97% 3.0 mph SSE4.8 kmh SSE 11.0 mph17.7 kmh 29.99 in1015.6 mb 0.02 in0.5 mm 0.00 in/hr0.0 mm/hr 0.02 in0.5 mm
09:44 AM 63.1°F17.3°C 62.2°F16.8°C 97% 9.0 mph SSE14.5 kmh SSE 11.0 mph17.7 kmh 29.99 in1015.6 mb 0.02 in0.5 mm 0.00 in/hr0.0 mm/hr 0.02 in0.5 mm
09:45 AM 63.1°F17.3°C 62.2°F16.8°C 97% 5.0 mph SE8.0 kmh SE 11.0 mph17.7 kmh 29.99 in1015.6 mb 0.02 in0.5 mm 0.00 in/hr0.0 mm/hr 0.02 in0.5 mm
09:46 AM 63.2°F17.3°C 62.3°F16.8°C 97% 8.0 mph SE12.9 kmh SE 11.0 mph17.7 kmh 29.99 in1015.6 mb 0.02 in0.5 mm 0.00 in/hr0.0 mm/hr 0.02 in0.5 mm
09:47 AM 63.2°F17.3°C 62.3°F16.8°C 97% 5.0 mph SE8.0 kmh SE 11.0 mph17.7 kmh 29.99 in1015.6 mb 0.02 in0.5 mm 0.00 in/hr0.0 mm/hr 0.02 in0.5 mm
09:48 AM 63.2°F17.3°C 62.3°F16.8°C 97% 6.0 mph SE9.7 kmh SE 11.0 mph17.7 kmh 29.99 in1015.6 mb 0.02 in0.5 mm 0.00 in/hr0.0 mm/hr 0.02 in0.5 mm
09:49 AM 63.3°F17.4°C 62.4°F16.9°C 97% 6.0 mph SSE9.7 kmh SSE 11.0 mph17.7 kmh 29.99 in1015.6 mb 0.02 in0.5 mm 0.00 in/hr0.0 mm/hr 0.02 in0.5 mm
09:50 AM 63.3°F17.4°C 62.4°F16.9°C 97% 5.0 mph SSE8.0 kmh SSE 11.0 mph17.7 kmh 29.99 in1015.6 mb 0.02 in0.5 mm 0.00 in/hr0.0 mm/hr 0.02 in0.5 mm
09:51 AM 63.4°F17.4°C 62.5°F16.9°C 97% 7.0 mph SE11.3 kmh SE 11.0 mph17.7 kmh 29.99 in1015.6 mb 0.02 in0.5 mm 0.00 in/hr0.0 mm/hr 0.02 in0.5 mm
09:52 AM 63.4°F17.4°C 62.5°F16.9°C 97% 8.0 mph SE12.9 kmh SE 11.0 mph17.7 kmh 29.99 in1015.6 mb 0.02 in0.5 mm 0.00 in/hr0.0 mm/hr 0.02 in0.5 mm
09:53 AM 63.4°F17.4°C 62.5°F16.9°C 97% 7.0 mph ESE11.3 kmh ESE 11.0 mph17.7 kmh 29.99 in1015.6 mb 0.02 in0.5 mm 0.00 in/hr0.0 mm/hr 0.02 in0.5 mm
09:54 AM 63.5°F17.5°C 62.6°F17.0°C 97% 7.0 mph SE11.3 kmh SE 11.0 mph17.7 kmh 29.99 in1015.6 mb 0.02 in0.5 mm 0.00 in/hr0.0 mm/hr 0.02 in0.5 mm
09:55 AM 63.5°F17.5°C 62.6°F17.0°C 97% 7.0 mph SE11.3 kmh SE 11.0 mph17.7 kmh 29.99 in1015.6 mb 0.02 in0.5 mm 0.00 in/hr0.0 mm/hr 0.02 in0.5 mm
09:56 AM 63.5°F17.5°C 62.6°F17.0°C 97% 6.0 mph SE9.7 kmh SE 11.0 mph17.7 kmh 29.99 in1015.6 mb 0.02 in0.5 mm 0.00 in/hr0.0 mm/hr 0.02 in0.5 mm
09:57 AM 63.6°F17.6°C 62.7°F17.1°C 97% 5.0 mph SSE8.0 kmh SSE 11.0 mph17.7 kmh 29.99 in1015.6 mb 0.02 in0.5 mm 0.00 in/hr0.0 mm/hr 0.02 in0.5 mm
09:58 AM 63.6°F17.6°C 62.7°F17.1°C 97% 3.0 mph SSE4.8 kmh SSE 11.0 mph17.7 kmh 29.99 in1015.6 mb 0.03 in0.8 mm 0.60 in/hr15.2 mm/hr 0.03 in0.8 mm
09:59 AM 63.7°F17.6°C 62.8°F17.1°C 97% 8.0 mph SE12.9 kmh SE 11.0 mph17.7 kmh 29.99 in1015.6 mb 0.03 in0.8 mm 0.00 in/hr0.0 mm/hr 0.03 in0.8 mm
10:00 AM 63.7°F17.6°C 62.8°F17.1°C 97% 6.0 mph SE9.7 kmh SE 11.0 mph17.7 kmh 29.99 in1015.6 mb 0.03 in0.8 mm 0.00 in/hr0.0 mm/hr 0.03 in0.8 mm
10:01 AM 63.7°F17.6°C 62.8°F17.1°C 97% 9.0 mph SSE14.5 kmh SSE 9.0 mph14.5 kmh 29.99 in1015.6 mb 0.03 in0.8 mm 0.00 in/hr0.0 mm/hr 0.03 in0.8 mm
10:02 AM 63.8°F17.7°C 62.9°F17.2°C 97% 7.0 mph SSE11.3 kmh SSE 11.0 mph17.7 kmh 29.99 in1015.6 mb 0.03 in0.8 mm 0.00 in/hr0.0 mm/hr 0.03 in0.8 mm
10:03 AM 63.8°F17.7°C 62.9°F17.2°C 97% 4.0 mph SE6.4 kmh SE 11.0 mph17.7 kmh 29.99 in1015.6 mb 0.03 in0.8 mm 0.00 in/hr0.0 mm/hr 0.03 in0.8 mm
10:04 AM 63.8°F17.7°C 62.9°F17.2°C 97% 5.0 mph SSE8.0 kmh SSE 11.0 mph17.7 kmh 29.99 in1015.6 mb 0.03 in0.8 mm 0.00 in/hr0.0 mm/hr 0.03 in0.8 mm
10:05 AM 63.9°F17.7°C 63.0°F17.2°C 97% 11.0 mph SE17.7 kmh SE 11.0 mph17.7 kmh 29.99 in1015.6 mb 0.03 in0.8 mm 0.00 in/hr0.0 mm/hr 0.03 in0.8 mm
10:06 AM 63.9°F17.7°C 63.0°F17.2°C 97% 5.0 mph S8.0 kmh S 11.0 mph17.7 kmh 29.99 in1015.6 mb 0.03 in0.8 mm 0.00 in/hr0.0 mm/hr 0.03 in0.8 mm
10:07 AM 63.9°F17.7°C 63.0°F17.2°C 97% 4.0 mph SE6.4 kmh SE 11.0 mph17.7 kmh 29.99 in1015.6 mb 0.03 in0.8 mm 0.00 in/hr0.0 mm/hr 0.03 in0.8 mm
10:08 AM 64.0°F17.8°C 63.1°F17.3°C 97% 3.0 mph SE4.8 kmh SE 11.0 mph17.7 kmh 29.99 in1015.6 mb 0.03 in0.8 mm 0.00 in/hr0.0 mm/hr 0.03 in0.8 mm
10:09 AM 64.0°F17.8°C 63.1°F17.3°C 97% 6.0 mph SE9.7 kmh SE 11.0 mph17.7 kmh 29.99 in1015.6 mb 0.03 in0.8 mm 0.00 in/hr0.0 mm/hr 0.03 in0.8 mm
10:10 AM 64.0°F17.8°C 63.1°F17.3°C 97% 9.0 mph SE14.5 kmh SE 11.0 mph17.7 kmh 29.99 in1015.6 mb 0.03 in0.8 mm 0.00 in/hr0.0 mm/hr 0.03 in0.8 mm
10:11 AM 64.1°F17.8°C 63.2°F17.3°C 97% 5.0 mph SE8.0 kmh SE 11.0 mph17.7 kmh 29.99 in1015.6 mb 0.03 in0.8 mm 0.00 in/hr0.0 mm/hr 0.03 in0.8 mm
10:12 AM 64.1°F17.8°C 63.2°F17.3°C 97% 9.0 mph SE14.5 kmh SE 11.0 mph17.7 kmh 29.99 in1015.6 mb 0.03 in0.8 mm 0.00 in/hr0.0 mm/hr 0.03 in0.8 mm
10:13 AM 64.1°F17.8°C 63.2°F17.3°C 97% 4.0 mph S6.4 kmh S 11.0 mph17.7 kmh 29.99 in1015.6 mb 0.04 in1.0 mm 0.60 in/hr15.2 mm/hr 0.04 in1.0 mm
10:14 AM 64.2°F17.9°C 63.3°F17.4°C 97% 8.0 mph SSE12.9 kmh SSE 11.0 mph17.7 kmh 29.99 in1015.6 mb 0.04 in1.0 mm 0.00 in/hr0.0 mm/hr 0.04 in1.0 mm
10:15 AM 64.2°F17.9°C 63.3°F17.4°C 97% 4.0 mph SSE6.4 kmh SSE 11.0 mph17.7 kmh 29.99 in1015.6 mb 0.04 in1.0 mm 0.00 in/hr0.0 mm/hr 0.04 in1.0 mm
10:16 AM 64.3°F17.9°C 63.4°F17.4°C 97% 5.0 mph SSE8.0 kmh SSE 11.0 mph17.7 kmh 29.99 in1015.6 mb 0.04 in1.0 mm 0.00 in/hr0.0 mm/hr 0.04 in1.0 mm
10:17 AM 64.3°F17.9°C 63.4°F17.4°C 97% 9.0 mph SE14.5 kmh SE 11.0 mph17.7 kmh 29.99 in1015.6 mb 0.04 in1.0 mm 0.00 in/hr0.0 mm/hr 0.04 in1.0 mm
10:18 AM 64.3°F17.9°C 63.4°F17.4°C 97% 7.0 mph SE11.3 kmh SE 11.0 mph17.7 kmh 29.99 in1015.6 mb 0.04 in1.0 mm 0.00 in/hr0.0 mm/hr 0.04 in1.0 mm
10:19 AM 64.3°F17.9°C 63.4°F17.4°C 97% 6.0 mph SSE9.7 kmh SSE 11.0 mph17.7 kmh 29.99 in1015.6 mb 0.04 in1.0 mm 0.00 in/hr0.0 mm/hr 0.04 in1.0 mm
10:20 AM 64.3°F17.9°C 63.4°F17.4°C 97% 8.0 mph SE12.9 kmh SE 11.0 mph17.7 kmh 29.99 in1015.6 mb 0.04 in1.0 mm 0.00 in/hr0.0 mm/hr 0.04 in1.0 mm
10:21 AM 64.3°F17.9°C 63.4°F17.4°C 97% 7.0 mph S11.3 kmh S 11.0 mph17.7 kmh 29.99 in1015.6 mb 0.04 in1.0 mm 0.00 in/hr0.0 mm/hr 0.04 in1.0 mm
10:22 AM 64.3°F17.9°C 63.4°F17.4°C 97% 9.0 mph SE14.5 kmh SE 12.0 mph19.3 kmh 29.99 in1015.6 mb 0.04 in1.0 mm 0.00 in/hr0.0 mm/hr 0.04 in1.0 mm
10:23 AM 64.4°F18.0°C 63.5°F17.5°C 97% 7.0 mph SE11.3 kmh SE 12.0 mph19.3 kmh 29.99 in1015.6 mb 0.04 in1.0 mm 0.00 in/hr0.0 mm/hr 0.04 in1.0 mm
10:24 AM 64.4°F18.0°C 63.5°F17.5°C 97% 7.0 mph SE11.3 kmh SE 12.0 mph19.3 kmh 29.99 in1015.6 mb 0.04 in1.0 mm 0.00 in/hr0.0 mm/hr 0.04 in1.0 mm
10:25 AM 64.4°F18.0°C 63.5°F17.5°C 97% 6.0 mph SE9.7 kmh SE 12.0 mph19.3 kmh 29.99 in1015.6 mb 0.04 in1.0 mm 0.00 in/hr0.0 mm/hr 0.04 in1.0 mm
10:26 AM 64.4°F18.0°C 63.5°F17.5°C 97% 11.0 mph S17.7 kmh S 12.0 mph19.3 kmh 29.99 in1015.6 mb 0.05 in1.3 mm 0.60 in/hr15.2 mm/hr 0.05 in1.3 mm
10:27 AM 64.4°F18.0°C 63.5°F17.5°C 97% 5.0 mph SSE8.0 kmh SSE 12.0 mph19.3 kmh 29.99 in1015.6 mb 0.05 in1.3 mm 0.00 in/hr0.0 mm/hr 0.05 in1.3 mm
10:28 AM 64.4°F18.0°C 63.5°F17.5°C 97% 9.0 mph SE14.5 kmh SE 12.0 mph19.3 kmh 29.99 in1015.6 mb 0.05 in1.3 mm 0.00 in/hr0.0 mm/hr 0.05 in1.3 mm
10:29 AM 64.4°F18.0°C 63.5°F17.5°C 97% 4.0 mph ESE6.4 kmh ESE 12.0 mph19.3 kmh 29.99 in1015.6 mb 0.05 in1.3 mm 0.00 in/hr0.0 mm/hr 0.05 in1.3 mm
10:30 AM 64.5°F18.1°C 63.6°F17.6°C 97% 4.0 mph SE6.4 kmh SE 12.0 mph19.3 kmh 29.99 in1015.6 mb 0.05 in1.3 mm 0.00 in/hr0.0 mm/hr 0.05 in1.3 mm
10:31 AM 64.5°F18.1°C 63.6°F17.6°C 97% 7.0 mph SSE11.3 kmh SSE 8.0 mph12.9 kmh 29.99 in1015.6 mb 0.04 in1.0 mm 0.00 in/hr0.0 mm/hr 0.05 in1.3 mm
10:32 AM 64.5°F18.1°C 63.6°F17.6°C 97% 5.0 mph S8.0 kmh S 12.0 mph19.3 kmh 29.99 in1015.6 mb 0.04 in1.0 mm 0.00 in/hr0.0 mm/hr 0.05 in1.3 mm
10:33 AM 64.5°F18.1°C 63.6°F17.6°C 97% 10.0 mph SSE16.1 kmh SSE 12.0 mph19.3 kmh 29.99 in1015.6 mb 0.04 in1.0 mm 0.00 in/hr0.0 mm/hr 0.05 in1.3 mm
10:34 AM 64.5°F18.1°C 63.6°F17.6°C 97% 10.0 mph SE16.1 kmh SE 12.0 mph19.3 kmh 29.99 in1015.6 mb 0.04 in1.0 mm 0.00 in/hr0.0 mm/hr 0.05 in1.3 mm
10:35 AM 64.5°F18.1°C 63.6°F17.6°C 97% 6.0 mph SE9.7 kmh SE 12.0 mph19.3 kmh 29.99 in1015.6 mb 0.04 in1.0 mm 0.00 in/hr0.0 mm/hr 0.05 in1.3 mm
10:36 AM 64.5°F18.1°C 63.6°F17.6°C 97% 4.0 mph SE6.4 kmh SE 12.0 mph19.3 kmh 29.99 in1015.6 mb 0.05 in1.3 mm 0.60 in/hr15.2 mm/hr 0.06 in1.5 mm
10:37 AM 64.6°F18.1°C 63.7°F17.6°C 97% 8.0 mph SSE12.9 kmh SSE 12.0 mph19.3 kmh 29.99 in1015.6 mb 0.05 in1.3 mm 0.00 in/hr0.0 mm/hr 0.06 in1.5 mm
10:38 AM 64.6°F18.1°C 63.7°F17.6°C 97% 8.0 mph SE12.9 kmh SE 12.0 mph19.3 kmh 29.98 in1015.2 mb 0.05 in1.3 mm 0.00 in/hr0.0 mm/hr 0.06 in1.5 mm
10:39 AM 64.6°F18.1°C 63.7°F17.6°C 97% 6.0 mph SSE9.7 kmh SSE 12.0 mph19.3 kmh 29.98 in1015.2 mb 0.05 in1.3 mm 0.00 in/hr0.0 mm/hr 0.06 in1.5 mm
10:40 AM 64.6°F18.1°C 63.7°F17.6°C 97% 11.0 mph SSE17.7 kmh SSE 12.0 mph19.3 kmh 29.98 in1015.2 mb 0.05 in1.3 mm 0.00 in/hr0.0 mm/hr 0.06 in1.5 mm
10:41 AM 64.7°F18.2°C 63.8°F17.7°C 97% 8.0 mph SSE12.9 kmh SSE 12.0 mph19.3 kmh 29.98 in1015.2 mb 0.05 in1.3 mm 0.00 in/hr0.0 mm/hr 0.06 in1.5 mm
10:42 AM 64.7°F18.2°C 63.8°F17.7°C 97% 9.0 mph SE14.5 kmh SE 12.0 mph19.3 kmh 29.98 in1015.2 mb 0.05 in1.3 mm 0.00 in/hr0.0 mm/hr 0.06 in1.5 mm
10:43 AM 64.7°F18.2°C 63.8°F17.7°C 97% 8.0 mph SE12.9 kmh SE 12.0 mph19.3 kmh 29.98 in1015.2 mb 0.05 in1.3 mm 0.00 in/hr0.0 mm/hr 0.06 in1.5 mm
10:44 AM 64.7°F18.2°C 63.8°F17.7°C 97% 9.0 mph SE14.5 kmh SE 12.0 mph19.3 kmh 29.98 in1015.2 mb 0.05 in1.3 mm 0.00 in/hr0.0 mm/hr 0.06 in1.5 mm
10:45 AM 64.7°F18.2°C 63.8°F17.7°C 97% 10.0 mph SE16.1 kmh SE 12.0 mph19.3 kmh 29.98 in1015.2 mb 0.05 in1.3 mm 0.00 in/hr0.0 mm/hr 0.06 in1.5 mm
10:46 AM 64.7°F18.2°C 63.8°F17.7°C 97% 9.0 mph SE14.5 kmh SE 12.0 mph19.3 kmh 29.98 in1015.2 mb 0.05 in1.3 mm 0.00 in/hr0.0 mm/hr 0.06 in1.5 mm
10:47 AM 64.7°F18.2°C 63.8°F17.7°C 97% 5.0 mph SE8.0 kmh SE 14.0 mph22.5 kmh 29.98 in1015.2 mb 0.05 in1.3 mm 0.00 in/hr0.0 mm/hr 0.06 in1.5 mm
10:48 AM 64.7°F18.2°C 63.8°F17.7°C 97% 5.0 mph SE8.0 kmh SE 14.0 mph22.5 kmh 29.98 in1015.2 mb 0.05 in1.3 mm 0.00 in/hr0.0 mm/hr 0.06 in1.5 mm
10:49 AM 64.7°F18.2°C 63.8°F17.7°C 97% 5.0 mph S8.0 kmh S 14.0 mph22.5 kmh 29.98 in1015.2 mb 0.05 in1.3 mm 0.00 in/hr0.0 mm/hr 0.06 in1.5 mm
10:50 AM 64.8°F18.2°C 63.9°F17.7°C 97% 6.0 mph SSE9.7 kmh SSE 14.0 mph22.5 kmh 29.98 in1015.2 mb 0.05 in1.3 mm 0.00 in/hr0.0 mm/hr 0.06 in1.5 mm
10:51 AM 64.8°F18.2°C 63.9°F17.7°C 97% 8.0 mph SE12.9 kmh SE 14.0 mph22.5 kmh 29.98 in1015.2 mb 0.05 in1.3 mm 0.00 in/hr0.0 mm/hr 0.06 in1.5 mm
10:52 AM 64.8°F18.2°C 63.9°F17.7°C 97% 4.0 mph SE6.4 kmh SE 14.0 mph22.5 kmh 29.98 in1015.2 mb 0.05 in1.3 mm 0.00 in/hr0.0 mm/hr 0.06 in1.5 mm
10:53 AM 64.7°F18.2°C 63.8°F17.7°C 97% 7.0 mph SE11.3 kmh SE 14.0 mph22.5 kmh 29.98 in1015.2 mb 0.05 in1.3 mm 0.00 in/hr0.0 mm/hr 0.06 in1.5 mm
10:54 AM 64.8°F18.2°C 63.9°F17.7°C 97% 9.0 mph ESE14.5 kmh ESE 14.0 mph22.5 kmh 29.98 in1015.2 mb 0.06 in1.5 mm 0.60 in/hr15.2 mm/hr 0.07 in1.8 mm
10:55 AM 64.7°F18.2°C 63.8°F17.7°C 97% 10.0 mph SSE16.1 kmh SSE 14.0 mph22.5 kmh 29.98 in1015.2 mb 0.06 in1.5 mm 0.00 in/hr0.0 mm/hr 0.07 in1.8 mm
10:56 AM 64.7°F18.2°C 63.8°F17.7°C 97% 11.0 mph SE17.7 kmh SE 14.0 mph22.5 kmh 29.98 in1015.2 mb 0.06 in1.5 mm 0.00 in/hr0.0 mm/hr 0.07 in1.8 mm
10:57 AM 64.7°F18.2°C 63.8°F17.7°C 97% 8.0 mph SE12.9 kmh SE 14.0 mph22.5 kmh 29.98 in1015.2 mb 0.06 in1.5 mm 0.00 in/hr0.0 mm/hr 0.07 in1.8 mm
10:58 AM 64.7°F18.2°C 63.8°F17.7°C 97% 5.0 mph SSE8.0 kmh SSE 14.0 mph22.5 kmh 29.98 in1015.2 mb 0.06 in1.5 mm 0.00 in/hr0.0 mm/hr 0.07 in1.8 mm
10:59 AM 64.7°F18.2°C 63.8°F17.7°C 97% 6.0 mph SE9.7 kmh SE 14.0 mph22.5 kmh 29.98 in1015.2 mb 0.06 in1.5 mm 0.00 in/hr0.0 mm/hr 0.07 in1.8 mm
11:00 AM 64.8°F18.2°C 63.9°F17.7°C 97% 6.0 mph SE9.7 kmh SE 14.0 mph22.5 kmh 29.98 in1015.2 mb 0.06 in1.5 mm 0.00 in/hr0.0 mm/hr 0.07 in1.8 mm
11:01 AM 64.8°F18.2°C 63.9°F17.7°C 97% 9.0 mph SE14.5 kmh SE 9.0 mph14.5 kmh 29.98 in1015.2 mb 0.04 in1.0 mm 0.00 in/hr0.0 mm/hr 0.07 in1.8 mm
11:02 AM 64.8°F18.2°C 63.9°F17.7°C 97% 4.0 mph SE6.4 kmh SE 9.0 mph14.5 kmh 29.98 in1015.2 mb 0.04 in1.0 mm 0.00 in/hr0.0 mm/hr 0.07 in1.8 mm
11:03 AM 64.8°F18.2°C 63.9°F17.7°C 97% 4.0 mph SSE6.4 kmh SSE 9.0 mph14.5 kmh 29.98 in1015.2 mb 0.04 in1.0 mm 0.00 in/hr0.0 mm/hr 0.07 in1.8 mm
11:04 AM 64.8°F18.2°C 63.9°F17.7°C 97% 4.0 mph SE6.4 kmh SE 10.0 mph16.1 kmh 29.98 in1015.2 mb 0.05 in1.3 mm 0.60 in/hr15.2 mm/hr 0.08 in2.0 mm
11:05 AM 64.8°F18.2°C 63.9°F17.7°C 97% 7.0 mph SE11.3 kmh SE 10.0 mph16.1 kmh 29.98 in1015.2 mb 0.05 in1.3 mm 0.00 in/hr0.0 mm/hr 0.08 in2.0 mm
11:06 AM 64.8°F18.2°C 63.9°F17.7°C 97% 5.0 mph SSE8.0 kmh SSE 10.0 mph16.1 kmh 29.98 in1015.2 mb 0.05 in1.3 mm 0.00 in/hr0.0 mm/hr 0.08 in2.0 mm
11:07 AM 64.8°F18.2°C 63.9°F17.7°C 97% 9.0 mph SE14.5 kmh SE 10.0 mph16.1 kmh 29.98 in1015.2 mb 0.06 in1.5 mm 0.60 in/hr15.2 mm/hr 0.09 in2.3 mm
11:08 AM 64.8°F18.2°C 63.9°F17.7°C 97% 5.0 mph SSE8.0 kmh SSE 11.0 mph17.7 kmh 29.98 in1015.2 mb 0.06 in1.5 mm 0.00 in/hr0.0 mm/hr 0.09 in2.3 mm
11:09 AM 64.7°F18.2°C 63.8°F17.7°C 97% 7.0 mph S11.3 kmh S 11.0 mph17.7 kmh 29.98 in1015.2 mb 0.06 in1.5 mm 0.00 in/hr0.0 mm/hr 0.09 in2.3 mm
11:10 AM 64.7°F18.2°C 63.8°F17.7°C 97% 6.0 mph SSE9.7 kmh SSE 11.0 mph17.7 kmh 29.98 in1015.2 mb 0.07 in1.8 mm 0.60 in/hr15.2 mm/hr 0.10 in2.5 mm
11:11 AM 64.7°F18.2°C 63.8°F17.7°C 97% 7.0 mph SE11.3 kmh SE 11.0 mph17.7 kmh 29.98 in1015.2 mb 0.07 in1.8 mm 0.00 in/hr0.0 mm/hr 0.10 in2.5 mm
11:12 AM 64.6°F18.1°C 63.7°F17.6°C 97% 5.0 mph SE8.0 kmh SE 11.0 mph17.7 kmh 29.98 in1015.2 mb 0.08 in2.0 mm 0.60 in/hr15.2 mm/hr 0.11 in2.8 mm
11:13 AM 64.6°F18.1°C 63.7°F17.6°C 97% 7.0 mph SE11.3 kmh SE 11.0 mph17.7 kmh 29.98 in1015.2 mb 0.08 in2.0 mm 0.00 in/hr0.0 mm/hr 0.11 in2.8 mm
11:14 AM 64.6°F18.1°C 63.7°F17.6°C 97% 4.0 mph SE6.4 kmh SE 11.0 mph17.7 kmh 29.98 in1015.2 mb 0.08 in2.0 mm 0.00 in/hr0.0 mm/hr 0.11 in2.8 mm
11:15 AM 64.5°F18.1°C 63.6°F17.6°C 97% 7.0 mph SE11.3 kmh SE 11.0 mph17.7 kmh 29.98 in1015.2 mb 0.08 in2.0 mm 0.00 in/hr0.0 mm/hr 0.11 in2.8 mm
11:16 AM 64.5°F18.1°C 63.6°F17.6°C 97% 11.0 mph SE17.7 kmh SE 11.0 mph17.7 kmh 29.98 in1015.2 mb 0.09 in2.3 mm 0.60 in/hr15.2 mm/hr 0.12 in3.0 mm
11:17 AM 64.5°F18.1°C 63.6°F17.6°C 97% 5.0 mph SSE8.0 kmh SSE 11.0 mph17.7 kmh 29.98 in1015.2 mb 0.09 in2.3 mm 0.00 in/hr0.0 mm/hr 0.12 in3.0 mm
11:18 AM 64.5°F18.1°C 63.6°F17.6°C 97% 6.0 mph SE9.7 kmh SE 11.0 mph17.7 kmh 29.98 in1015.2 mb 0.09 in2.3 mm 0.00 in/hr0.0 mm/hr 0.12 in3.0 mm
11:19 AM 64.5°F18.1°C 63.6°F17.6°C 97% 7.0 mph SE11.3 kmh SE 11.0 mph17.7 kmh 29.98 in1015.2 mb 0.09 in2.3 mm 0.00 in/hr0.0 mm/hr 0.12 in3.0 mm
11:20 AM 64.5°F18.1°C 63.6°F17.6°C 97% 6.0 mph SE9.7 kmh SE 11.0 mph17.7 kmh 29.97 in1014.9 mb 0.09 in2.3 mm 0.00 in/hr0.0 mm/hr 0.12 in3.0 mm
11:21 AM 64.5°F18.1°C 63.6°F17.6°C 97% 9.0 mph SE14.5 kmh SE 11.0 mph17.7 kmh 29.97 in1014.9 mb 0.10 in2.5 mm 0.60 in/hr15.2 mm/hr 0.13 in3.3 mm
11:22 AM 64.4°F18.0°C 63.5°F17.5°C 97% 5.0 mph SE8.0 kmh SE 11.0 mph17.7 kmh 29.97 in1014.9 mb 0.10 in2.5 mm 0.00 in/hr0.0 mm/hr 0.13 in3.3 mm
11:23 AM 64.4°F18.0°C 63.5°F17.5°C 97% 5.0 mph ESE8.0 kmh ESE 11.0 mph17.7 kmh 29.98 in1015.2 mb 0.11 in2.8 mm 0.60 in/hr15.2 mm/hr 0.14 in3.6 mm
11:24 AM 64.4°F18.0°C 63.5°F17.5°C 97% 3.0 mph SE4.8 kmh SE 11.0 mph17.7 kmh 29.98 in1015.2 mb 0.11 in2.8 mm 0.00 in/hr0.0 mm/hr 0.14 in3.6 mm
11:25 AM 64.3°F17.9°C 63.4°F17.4°C 97% 5.0 mph SE8.0 kmh SE 11.0 mph17.7 kmh 29.97 in1014.9 mb 0.12 in3.0 mm 0.60 in/hr15.2 mm/hr 0.15 in3.8 mm
11:26 AM 64.3°F17.9°C 63.4°F17.4°C 97% 8.0 mph SE12.9 kmh SE 11.0 mph17.7 kmh 29.97 in1014.9 mb 0.13 in3.3 mm 0.60 in/hr15.2 mm/hr 0.16 in4.1 mm
11:27 AM 64.3°F17.9°C 63.4°F17.4°C 97% 4.0 mph S6.4 kmh S 11.0 mph17.7 kmh 29.98 in1015.2 mb 0.13 in3.3 mm 0.00 in/hr0.0 mm/hr 0.16 in4.1 mm
11:28 AM 64.2°F17.9°C 63.3°F17.4°C 97% 6.0 mph SE9.7 kmh SE 11.0 mph17.7 kmh 29.98 in1015.2 mb 0.14 in3.6 mm 0.60 in/hr15.2 mm/hr 0.17 in4.3 mm
11:29 AM 64.2°F17.9°C 63.3°F17.4°C 97% 5.0 mph SSE8.0 kmh SSE 11.0 mph17.7 kmh 29.98 in1015.2 mb 0.14 in3.6 mm 0.00 in/hr0.0 mm/hr 0.17 in4.3 mm
11:30 AM 64.2°F17.9°C 63.3°F17.4°C 97% 4.0 mph SSE6.4 kmh SSE 11.0 mph17.7 kmh 29.98 in1015.2 mb 0.15 in3.8 mm 0.60 in/hr15.2 mm/hr 0.18 in4.6 mm
11:31 AM 64.1°F17.8°C 63.2°F17.3°C 97% 3.0 mph SSE4.8 kmh SSE 5.0 mph8.0 kmh 29.98 in1015.2 mb 0.13 in3.3 mm 0.00 in/hr0.0 mm/hr 0.18 in4.6 mm
11:32 AM 64.1°F17.8°C 63.2°F17.3°C 97% 8.0 mph SE12.9 kmh SE 8.0 mph12.9 kmh 29.98 in1015.2 mb 0.13 in3.3 mm 0.00 in/hr0.0 mm/hr 0.18 in4.6 mm
11:33 AM 64.1°F17.8°C 63.2°F17.3°C 97% 5.0 mph SSE8.0 kmh SSE 9.0 mph14.5 kmh 29.98 in1015.2 mb 0.14 in3.6 mm 0.60 in/hr15.2 mm/hr 0.19 in4.8 mm
11:34 AM 64.1°F17.8°C 63.2°F17.3°C 97% 4.0 mph SE6.4 kmh SE 9.0 mph14.5 kmh 29.98 in1015.2 mb 0.15 in3.8 mm 0.60 in/hr15.2 mm/hr 0.20 in5.1 mm
11:35 AM 64.1°F17.8°C 63.2°F17.3°C 97% 6.0 mph SE9.7 kmh SE 9.0 mph14.5 kmh 29.97 in1014.9 mb 0.15 in3.8 mm 0.00 in/hr0.0 mm/hr 0.20 in5.1 mm
11:36 AM 64.1°F17.8°C 63.2°F17.3°C 97% 8.0 mph E12.9 kmh E 9.0 mph14.5 kmh 29.97 in1014.9 mb 0.15 in3.8 mm 0.00 in/hr0.0 mm/hr 0.20 in5.1 mm
11:37 AM 64.1°F17.8°C 63.2°F17.3°C 97% 6.0 mph SE9.7 kmh SE 9.0 mph14.5 kmh 29.97 in1014.9 mb 0.15 in3.8 mm 0.00 in/hr0.0 mm/hr 0.20 in5.1 mm
11:38 AM 64.1°F17.8°C 63.2°F17.3°C 97% 5.0 mph SE8.0 kmh SE 10.0 mph16.1 kmh 29.97 in1014.9 mb 0.16 in4.1 mm 0.60 in/hr15.2 mm/hr 0.21 in5.3 mm
11:39 AM 64.2°F17.9°C 63.3°F17.4°C 97% 7.0 mph SE11.3 kmh SE 10.0 mph16.1 kmh 29.97 in1014.9 mb 0.16 in4.1 mm 0.00 in/hr0.0 mm/hr 0.21 in5.3 mm
11:40 AM 64.2°F17.9°C 63.3°F17.4°C 97% 5.0 mph SE8.0 kmh SE 10.0 mph16.1 kmh 29.97 in1014.9 mb 0.16 in4.1 mm 0.00 in/hr0.0 mm/hr 0.21 in5.3 mm
11:41 AM 64.2°F17.9°C 63.3°F17.4°C 97% 4.0 mph SE6.4 kmh SE 10.0 mph16.1 kmh 29.97 in1014.9 mb 0.16 in4.1 mm 0.00 in/hr0.0 mm/hr 0.21 in5.3 mm
11:42 AM 64.3°F17.9°C 63.4°F17.4°C 97% 5.0 mph ESE8.0 kmh ESE 10.0 mph16.1 kmh 29.97 in1014.9 mb 0.16 in4.1 mm 0.00 in/hr0.0 mm/hr 0.21 in5.3 mm
11:43 AM 64.3°F17.9°C 63.4°F17.4°C 97% 4.0 mph ESE6.4 kmh ESE 10.0 mph16.1 kmh 29.97 in1014.9 mb 0.16 in4.1 mm 0.00 in/hr0.0 mm/hr 0.21 in5.3 mm
11:44 AM 64.3°F17.9°C 63.4°F17.4°C 97% 6.0 mph SE9.7 kmh SE 10.0 mph16.1 kmh 29.97 in1014.9 mb 0.16 in4.1 mm 0.00 in/hr0.0 mm/hr 0.21 in5.3 mm
11:45 AM 64.4°F18.0°C 63.5°F17.5°C 97% 10.0 mph ESE16.1 kmh ESE 10.0 mph16.1 kmh 29.97 in1014.9 mb 0.16 in4.1 mm 0.00 in/hr0.0 mm/hr 0.21 in5.3 mm
11:46 AM 64.3°F17.9°C 63.4°F17.4°C 97% 7.0 mph SE11.3 kmh SE 11.0 mph17.7 kmh 29.97 in1014.9 mb 0.16 in4.1 mm 0.00 in/hr0.0 mm/hr 0.21 in5.3 mm
11:47 AM 64.3°F17.9°C 63.4°F17.4°C 97% 5.0 mph SE8.0 kmh SE 11.0 mph17.7 kmh 29.97 in1014.9 mb 0.16 in4.1 mm 0.00 in/hr0.0 mm/hr 0.21 in5.3 mm
11:48 AM 64.4°F18.0°C 63.5°F17.5°C 97% 5.0 mph ESE8.0 kmh ESE 11.0 mph17.7 kmh 29.97 in1014.9 mb 0.17 in4.3 mm 0.60 in/hr15.2 mm/hr 0.22 in5.6 mm
11:49 AM 64.4°F18.0°C 63.5°F17.5°C 97% 8.0 mph SE12.9 kmh SE 11.0 mph17.7 kmh 29.97 in1014.9 mb 0.17 in4.3 mm 0.00 in/hr0.0 mm/hr 0.22 in5.6 mm
11:50 AM 64.4°F18.0°C 63.5°F17.5°C 97% 5.0 mph ESE8.0 kmh ESE 11.0 mph17.7 kmh 29.97 in1014.9 mb 0.17 in4.3 mm 0.00 in/hr0.0 mm/hr 0.22 in5.6 mm
11:51 AM 64.4°F18.0°C 63.5°F17.5°C 97% 7.0 mph ESE11.3 kmh ESE 11.0 mph17.7 kmh 29.97 in1014.9 mb 0.17 in4.3 mm 0.00 in/hr0.0 mm/hr 0.22 in5.6 mm
11:52 AM 64.4°F18.0°C 63.5°F17.5°C 97% 7.0 mph ESE11.3 kmh ESE 11.0 mph17.7 kmh 29.97 in1014.9 mb 0.17 in4.3 mm 0.00 in/hr0.0 mm/hr 0.22 in5.6 mm
11:53 AM 64.5°F18.1°C 63.6°F17.6°C 97% 8.0 mph ESE12.9 kmh ESE 11.0 mph17.7 kmh 29.97 in1014.9 mb 0.17 in4.3 mm 0.00 in/hr0.0 mm/hr 0.22 in5.6 mm
11:54 AM 64.5°F18.1°C 63.6°F17.6°C 97% 5.0 mph SE8.0 kmh SE 11.0 mph17.7 kmh 29.97 in1014.9 mb 0.17 in4.3 mm 0.00 in/hr0.0 mm/hr 0.22 in5.6 mm
11:55 AM 64.5°F18.1°C 63.6°F17.6°C 97% 9.0 mph SE14.5 kmh SE 11.0 mph17.7 kmh 29.97 in1014.9 mb 0.17 in4.3 mm 0.00 in/hr0.0 mm/hr 0.22 in5.6 mm
11:56 AM 64.5°F18.1°C 63.6°F17.6°C 97% 6.0 mph SE9.7 kmh SE 11.0 mph17.7 kmh 29.97 in1014.9 mb 0.17 in4.3 mm 0.00 in/hr0.0 mm/hr 0.22 in5.6 mm
11:57 AM 64.5°F18.1°C 63.6°F17.6°C 97% 3.0 mph ESE4.8 kmh ESE 11.0 mph17.7 kmh 29.97 in1014.9 mb 0.17 in4.3 mm 0.00 in/hr0.0 mm/hr 0.22 in5.6 mm
11:58 AM 64.6°F18.1°C 63.7°F17.6°C 97% 8.0 mph SE12.9 kmh SE 11.0 mph17.7 kmh 29.96 in1014.6 mb 0.17 in4.3 mm 0.00 in/hr0.0 mm/hr 0.22 in5.6 mm
11:59 AM 64.6°F18.1°C 63.7°F17.6°C 97% 3.0 mph ESE4.8 kmh ESE 11.0 mph17.7 kmh 29.97 in1014.9 mb 0.17 in4.3 mm 0.00 in/hr0.0 mm/hr 0.22 in5.6 mm
12:00 PM 64.7°F18.2°C 63.8°F17.7°C 97% 5.0 mph SE8.0 kmh SE 11.0 mph17.7 kmh 29.96 in1014.6 mb 0.17 in4.3 mm 0.00 in/hr0.0 mm/hr 0.22 in5.6 mm
12:01 PM 64.7°F18.2°C 63.8°F17.7°C 97% 7.0 mph SE11.3 kmh SE 7.0 mph11.3 kmh 29.97 in1014.9 mb 0.15 in3.8 mm 0.00 in/hr0.0 mm/hr 0.22 in5.6 mm
12:02 PM 64.8°F18.2°C 63.9°F17.7°C 97% 5.0 mph SE8.0 kmh SE 8.0 mph12.9 kmh 29.96 in1014.6 mb 0.15 in3.8 mm 0.00 in/hr0.0 mm/hr 0.22 in5.6 mm
12:03 PM 64.8°F18.2°C 63.9°F17.7°C 97% 8.0 mph SE12.9 kmh SE 11.0 mph17.7 kmh 29.96 in1014.6 mb 0.15 in3.8 mm 0.00 in/hr0.0 mm/hr 0.22 in5.6 mm
12:04 PM 64.8°F18.2°C 63.9°F17.7°C 97% 5.0 mph ESE8.0 kmh ESE 11.0 mph17.7 kmh 29.96 in1014.6 mb 0.15 in3.8 mm 0.00 in/hr0.0 mm/hr 0.22 in5.6 mm
12:05 PM 64.9°F18.3°C 64.0°F17.8°C 97% 4.0 mph SE6.4 kmh SE 11.0 mph17.7 kmh 29.96 in1014.6 mb 0.15 in3.8 mm 0.00 in/hr0.0 mm/hr 0.22 in5.6 mm
12:06 PM 65.0°F18.3°C 64.1°F17.8°C 97% 9.0 mph SE14.5 kmh SE 11.0 mph17.7 kmh 29.96 in1014.6 mb 0.15 in3.8 mm 0.00 in/hr0.0 mm/hr 0.22 in5.6 mm
12:07 PM 65.1°F18.4°C 64.2°F17.9°C 97% 5.0 mph ESE8.0 kmh ESE 13.0 mph20.9 kmh 29.96 in1014.6 mb 0.15 in3.8 mm 0.00 in/hr0.0 mm/hr 0.22 in5.6 mm
12:08 PM 65.2°F18.4°C 64.6°F18.1°C 98% 5.0 mph SE8.0 kmh SE 13.0 mph20.9 kmh 29.96 in1014.6 mb 0.15 in3.8 mm 0.00 in/hr0.0 mm/hr 0.22 in5.6 mm
12:09 PM 65.3°F18.5°C 64.7°F18.2°C 98% 5.0 mph SE8.0 kmh SE 13.0 mph20.9 kmh 29.96 in1014.6 mb 0.15 in3.8 mm 0.00 in/hr0.0 mm/hr 0.22 in5.6 mm
12:10 PM 65.4°F18.6°C 64.8°F18.2°C 98% 7.0 mph SE11.3 kmh SE 13.0 mph20.9 kmh 29.96 in1014.6 mb 0.15 in3.8 mm 0.00 in/hr0.0 mm/hr 0.22 in5.6 mm
12:11 PM 65.5°F18.6°C 64.9°F18.3°C 98% 7.0 mph ESE11.3 kmh ESE 13.0 mph20.9 kmh 29.96 in1014.6 mb 0.15 in3.8 mm 0.00 in/hr0.0 mm/hr 0.22 in5.6 mm
12:12 PM 65.6°F18.7°C 65.0°F18.3°C 98% 4.0 mph SE6.4 kmh SE 13.0 mph20.9 kmh 29.96 in1014.6 mb 0.15 in3.8 mm 0.00 in/hr0.0 mm/hr 0.22 in5.6 mm
12:13 PM 65.7°F18.7°C 64.8°F18.2°C 97% 8.0 mph SE12.9 kmh SE 13.0 mph20.9 kmh 29.96 in1014.6 mb 0.16 in4.1 mm 0.60 in/hr15.2 mm/hr 0.23 in5.8 mm
12:14 PM 65.8°F18.8°C 64.9°F18.3°C 97% 8.0 mph SE12.9 kmh SE 13.0 mph20.9 kmh 29.96 in1014.6 mb 0.16 in4.1 mm 0.00 in/hr0.0 mm/hr 0.23 in5.8 mm
12:15 PM 65.9°F18.8°C 65.3°F18.5°C 98% 4.0 mph SE6.4 kmh SE 13.0 mph20.9 kmh 29.96 in1014.6 mb 0.16 in4.1 mm 0.00 in/hr0.0 mm/hr 0.23 in5.8 mm
12:16 PM 66.0°F18.9°C 65.4°F18.6°C 98% 4.0 mph SE6.4 kmh SE 13.0 mph20.9 kmh 29.96 in1014.6 mb 0.16 in4.1 mm 0.00 in/hr0.0 mm/hr 0.23 in5.8 mm
12:17 PM 66.1°F18.9°C 65.5°F18.6°C 98% 7.0 mph ESE11.3 kmh ESE 13.0 mph20.9 kmh 29.96 in1014.6 mb 0.16 in4.1 mm 0.00 in/hr0.0 mm/hr 0.23 in5.8 mm
12:18 PM 66.2°F19.0°C 65.6°F18.7°C 98% 10.0 mph ENE16.1 kmh ENE 13.0 mph20.9 kmh 29.96 in1014.6 mb 0.16 in4.1 mm 0.00 in/hr0.0 mm/hr 0.23 in5.8 mm
12:19 PM 66.3°F19.1°C 65.4°F18.6°C 97% 5.0 mph E8.0 kmh E 13.0 mph20.9 kmh 29.96 in1014.6 mb 0.16 in4.1 mm 0.00 in/hr0.0 mm/hr 0.23 in5.8 mm
12:20 PM 66.3°F19.1°C 65.4°F18.6°C 97% 6.0 mph SE9.7 kmh SE 13.0 mph20.9 kmh 29.96 in1014.6 mb 0.16 in4.1 mm 0.00 in/hr0.0 mm/hr 0.23 in5.8 mm
12:21 PM 66.3°F19.1°C 65.4°F18.6°C 97% 7.0 mph E11.3 kmh E 13.0 mph20.9 kmh 29.96 in1014.6 mb 0.16 in4.1 mm 0.00 in/hr0.0 mm/hr 0.23 in5.8 mm
12:22 PM 66.3°F19.1°C 65.4°F18.6°C 97% 9.0 mph SE14.5 kmh SE 13.0 mph20.9 kmh 29.96 in1014.6 mb 0.16 in4.1 mm 0.00 in/hr0.0 mm/hr 0.23 in5.8 mm
12:23 PM 66.3°F19.1°C 65.4°F18.6°C 97% 5.0 mph ESE8.0 kmh ESE 13.0 mph20.9 kmh 29.96 in1014.6 mb 0.16 in4.1 mm 0.00 in/hr0.0 mm/hr 0.23 in5.8 mm
12:24 PM 66.3°F19.1°C 65.4°F18.6°C 97% 3.0 mph SE4.8 kmh SE 13.0 mph20.9 kmh 29.96 in1014.6 mb 0.16 in4.1 mm 0.00 in/hr0.0 mm/hr 0.23 in5.8 mm
12:25 PM 66.4°F19.1°C 65.5°F18.6°C 97% 7.0 mph SE11.3 kmh SE 13.0 mph20.9 kmh 29.96 in1014.6 mb 0.16 in4.1 mm 0.00 in/hr0.0 mm/hr 0.23 in5.8 mm
12:26 PM 66.4°F19.1°C 65.5°F18.6°C 97% 5.0 mph ESE8.0 kmh ESE 13.0 mph20.9 kmh 29.95 in1014.2 mb 0.16 in4.1 mm 0.00 in/hr0.0 mm/hr 0.23 in5.8 mm
12:27 PM 66.5°F19.2°C 65.6°F18.7°C 97% 6.0 mph E9.7 kmh E 13.0 mph20.9 kmh 29.95 in1014.2 mb 0.16 in4.1 mm 0.00 in/hr0.0 mm/hr 0.23 in5.8 mm
12:28 PM 66.6°F19.2°C 65.7°F18.7°C 97% 7.0 mph SE11.3 kmh SE 13.0 mph20.9 kmh 29.95 in1014.2 mb 0.16 in4.1 mm 0.00 in/hr0.0 mm/hr 0.23 in5.8 mm
12:29 PM 66.7°F19.3°C 65.8°F18.8°C 97% 7.0 mph SE11.3 kmh SE 13.0 mph20.9 kmh 29.95 in1014.2 mb 0.16 in4.1 mm 0.00 in/hr0.0 mm/hr 0.23 in5.8 mm
12:30 PM 66.8°F19.3°C 65.9°F18.8°C 97% 8.0 mph SE12.9 kmh SE 13.0 mph20.9 kmh 29.95 in1014.2 mb 0.16 in4.1 mm 0.00 in/hr0.0 mm/hr 0.23 in5.8 mm
12:31 PM 66.9°F19.4°C 66.0°F18.9°C 97% 7.0 mph SE11.3 kmh SE 9.0 mph14.5 kmh 29.95 in1014.2 mb 0.05 in1.3 mm 0.00 in/hr0.0 mm/hr 0.23 in5.8 mm
12:32 PM 66.9°F19.4°C 66.0°F18.9°C 97% 5.0 mph SE8.0 kmh SE 9.0 mph14.5 kmh 29.95 in1014.2 mb 0.05 in1.3 mm 0.00 in/hr0.0 mm/hr 0.23 in5.8 mm
12:33 PM 67.0°F19.4°C 66.1°F18.9°C 97% 3.0 mph SE4.8 kmh SE 9.0 mph14.5 kmh 29.95 in1014.2 mb 0.05 in1.3 mm 0.00 in/hr0.0 mm/hr 0.23 in5.8 mm
12:34 PM 67.1°F19.5°C 66.2°F19.0°C 97% 10.0 mph SE16.1 kmh SE 10.0 mph16.1 kmh 29.95 in1014.2 mb 0.05 in1.3 mm 0.00 in/hr0.0 mm/hr 0.23 in5.8 mm
12:35 PM 67.0°F19.4°C 66.1°F18.9°C 97% 10.0 mph SE16.1 kmh SE 12.0 mph19.3 kmh 29.95 in1014.2 mb 0.05 in1.3 mm 0.00 in/hr0.0 mm/hr 0.23 in5.8 mm
12:36 PM 67.0°F19.4°C 65.8°F18.8°C 96% 8.0 mph SE12.9 kmh SE 12.0 mph19.3 kmh 29.95 in1014.2 mb 0.05 in1.3 mm 0.00 in/hr0.0 mm/hr 0.23 in5.8 mm
12:37 PM 67.0°F19.4°C 65.8°F18.8°C 96% 9.0 mph SE14.5 kmh SE 13.0 mph20.9 kmh 29.95 in1014.2 mb 0.05 in1.3 mm 0.00 in/hr0.0 mm/hr 0.23 in5.8 mm
12:38 PM 67.1°F19.5°C 65.9°F18.8°C 96% 4.0 mph ESE6.4 kmh ESE 13.0 mph20.9 kmh 29.95 in1014.2 mb 0.05 in1.3 mm 0.00 in/hr0.0 mm/hr 0.23 in5.8 mm
12:39 PM 67.2°F19.6°C 66.3°F19.1°C 97% 5.0 mph SE8.0 kmh SE 13.0 mph20.9 kmh 29.95 in1014.2 mb 0.05 in1.3 mm 0.00 in/hr0.0 mm/hr 0.23 in5.8 mm
12:40 PM 67.3°F19.6°C 66.4°F19.1°C 97% 7.0 mph ESE11.3 kmh ESE 13.0 mph20.9 kmh 29.95 in1014.2 mb 0.05 in1.3 mm 0.00 in/hr0.0 mm/hr 0.23 in5.8 mm
12:41 PM 67.5°F19.7°C 66.3°F19.1°C 96% 8.0 mph SE12.9 kmh SE 13.0 mph20.9 kmh 29.95 in1014.2 mb 0.05 in1.3 mm 0.00 in/hr0.0 mm/hr 0.23 in5.8 mm
12:42 PM 67.7°F19.8°C 66.8°F19.3°C 97% 9.0 mph SE14.5 kmh SE 13.0 mph20.9 kmh 29.95 in1014.2 mb 0.05 in1.3 mm 0.00 in/hr0.0 mm/hr 0.23 in5.8 mm
12:43 PM 67.7°F19.8°C 66.8°F19.3°C 97% 8.0 mph SSE12.9 kmh SSE 13.0 mph20.9 kmh 29.95 in1014.2 mb 0.05 in1.3 mm 0.00 in/hr0.0 mm/hr 0.23 in5.8 mm
12:44 PM 67.8°F19.9°C 66.6°F19.2°C 96% 6.0 mph SSE9.7 kmh SSE 13.0 mph20.9 kmh 29.95 in1014.2 mb 0.05 in1.3 mm 0.00 in/hr0.0 mm/hr 0.23 in5.8 mm
12:45 PM 67.9°F19.9°C 66.7°F19.3°C 96% 8.0 mph SE12.9 kmh SE 13.0 mph20.9 kmh 29.95 in1014.2 mb 0.05 in1.3 mm 0.00 in/hr0.0 mm/hr 0.23 in5.8 mm
12:46 PM 67.9°F19.9°C 66.7°F19.3°C 96% 9.0 mph SE14.5 kmh SE 13.0 mph20.9 kmh 29.95 in1014.2 mb 0.05 in1.3 mm 0.00 in/hr0.0 mm/hr 0.23 in5.8 mm
12:47 PM 68.0°F20.0°C 66.8°F19.3°C 96% 9.0 mph SE14.5 kmh SE 13.0 mph20.9 kmh 29.94 in1013.9 mb 0.05 in1.3 mm 0.00 in/hr0.0 mm/hr 0.23 in5.8 mm
12:48 PM 68.1°F20.1°C 66.9°F19.4°C 96% 4.0 mph SE6.4 kmh SE 13.0 mph20.9 kmh 29.94 in1013.9 mb 0.05 in1.3 mm 0.00 in/hr0.0 mm/hr 0.23 in5.8 mm
12:49 PM 68.1°F20.1°C 66.9°F19.4°C 96% 7.0 mph SE11.3 kmh SE 13.0 mph20.9 kmh 29.94 in1013.9 mb 0.05 in1.3 mm 0.00 in/hr0.0 mm/hr 0.23 in5.8 mm
12:50 PM 68.1°F20.1°C 66.6°F19.2°C 95% 11.0 mph SE17.7 kmh SE 13.0 mph20.9 kmh 29.94 in1013.9 mb 0.05 in1.3 mm 0.00 in/hr0.0 mm/hr 0.23 in5.8 mm
12:51 PM 68.1°F20.1°C 66.6°F19.2°C 95% 12.0 mph SE19.3 kmh SE 13.0 mph20.9 kmh 29.94 in1013.9 mb 0.05 in1.3 mm 0.00 in/hr0.0 mm/hr 0.23 in5.8 mm
12:52 PM 68.1°F20.1°C 66.6°F19.2°C 95% 7.0 mph SE11.3 kmh SE 14.0 mph22.5 kmh 29.94 in1013.9 mb 0.05 in1.3 mm 0.00 in/hr0.0 mm/hr 0.23 in5.8 mm
12:53 PM 68.1°F20.1°C 66.6°F19.2°C 95% 5.0 mph SE8.0 kmh SE 14.0 mph22.5 kmh 29.94 in1013.9 mb 0.05 in1.3 mm 0.00 in/hr0.0 mm/hr 0.23 in5.8 mm
12:54 PM 68.2°F20.1°C 67.0°F19.4°C 96% 5.0 mph SSE8.0 kmh SSE 14.0 mph22.5 kmh 29.94 in1013.9 mb 0.05 in1.3 mm 0.00 in/hr0.0 mm/hr 0.23 in5.8 mm
12:55 PM 68.4°F20.2°C 67.2°F19.6°C 96% 11.0 mph SE17.7 kmh SE 14.0 mph22.5 kmh 29.94 in1013.9 mb 0.05 in1.3 mm 0.00 in/hr0.0 mm/hr 0.23 in5.8 mm
12:56 PM 68.5°F20.3°C 67.0°F19.4°C 95% 9.0 mph SE14.5 kmh SE 14.0 mph22.5 kmh 29.94 in1013.9 mb 0.05 in1.3 mm 0.00 in/hr0.0 mm/hr 0.23 in5.8 mm
12:57 PM 68.5°F20.3°C 67.0°F19.4°C 95% 8.0 mph SE12.9 kmh SE 15.0 mph24.1 kmh 29.94 in1013.9 mb 0.05 in1.3 mm 0.00 in/hr0.0 mm/hr 0.23 in5.8 mm
12:58 PM 68.5°F20.3°C 67.0°F19.4°C 95% 7.0 mph SE11.3 kmh SE 15.0 mph24.1 kmh 29.94 in1013.9 mb 0.05 in1.3 mm 0.00 in/hr0.0 mm/hr 0.23 in5.8 mm
12:59 PM 68.6°F20.3°C 67.1°F19.5°C 95% 9.0 mph SSE14.5 kmh SSE 15.0 mph24.1 kmh 29.94 in1013.9 mb 0.05 in1.3 mm 0.00 in/hr0.0 mm/hr 0.23 in5.8 mm
01:00 PM 68.6°F20.3°C 66.8°F19.3°C 94% 12.0 mph SE19.3 kmh SE 15.0 mph24.1 kmh 29.94 in1013.9 mb 0.05 in1.3 mm 0.00 in/hr0.0 mm/hr 0.23 in5.8 mm
01:01 PM 68.7°F20.4°C 66.9°F19.4°C 94% 10.0 mph E16.1 kmh E 10.0 mph16.1 kmh 29.94 in1013.9 mb 0.01 in0.3 mm 0.00 in/hr0.0 mm/hr 0.23 in5.8 mm
01:02 PM 68.7°F20.4°C 66.9°F19.4°C 94% 8.0 mph SSE12.9 kmh SSE 11.0 mph17.7 kmh 29.94 in1013.9 mb 0.01 in0.3 mm 0.00 in/hr0.0 mm/hr 0.23 in5.8 mm
01:03 PM 68.6°F20.3°C 66.8°F19.3°C 94% 10.0 mph SE16.1 kmh SE 11.0 mph17.7 kmh 29.94 in1013.9 mb 0.01 in0.3 mm 0.00 in/hr0.0 mm/hr 0.23 in5.8 mm
01:04 PM 68.6°F20.3°C 66.8°F19.3°C 94% 6.0 mph S9.7 kmh S 11.0 mph17.7 kmh 29.94 in1013.9 mb 0.01 in0.3 mm 0.00 in/hr0.0 mm/hr 0.23 in5.8 mm
01:05 PM 68.5°F20.3°C 66.7°F19.3°C 94% 10.0 mph SE16.1 kmh SE 12.0 mph19.3 kmh 29.94 in1013.9 mb 0.01 in0.3 mm 0.00 in/hr0.0 mm/hr 0.23 in5.8 mm
01:06 PM 68.4°F20.2°C 66.6°F19.2°C 94% 5.0 mph SE8.0 kmh SE 12.0 mph19.3 kmh 29.94 in1013.9 mb 0.01 in0.3 mm 0.00 in/hr0.0 mm/hr 0.23 in5.8 mm
01:07 PM 68.4°F20.2°C 66.6°F19.2°C 94% 6.0 mph S9.7 kmh S 12.0 mph19.3 kmh 29.94 in1013.9 mb 0.01 in0.3 mm 0.00 in/hr0.0 mm/hr 0.23 in5.8 mm
01:08 PM 68.4°F20.2°C 66.6°F19.2°C 94% 4.0 mph SE6.4 kmh SE 12.0 mph19.3 kmh 29.94 in1013.9 mb 0.01 in0.3 mm 0.00 in/hr0.0 mm/hr 0.23 in5.8 mm
01:09 PM 68.4°F20.2°C 66.6°F19.2°C 94% 4.0 mph SE6.4 kmh SE 12.0 mph19.3 kmh 29.94 in1013.9 mb 0.01 in0.3 mm 0.00 in/hr0.0 mm/hr 0.23 in5.8 mm
01:10 PM 68.4°F20.2°C 66.6°F19.2°C 94% 6.0 mph SE9.7 kmh SE 12.0 mph19.3 kmh 29.94 in1013.9 mb 0.01 in0.3 mm 0.00 in/hr0.0 mm/hr 0.23 in5.8 mm
01:11 PM 68.5°F20.3°C 66.7°F19.3°C 94% 7.0 mph ESE11.3 kmh ESE 12.0 mph19.3 kmh 29.94 in1013.9 mb 0.01 in0.3 mm 0.00 in/hr0.0 mm/hr 0.23 in5.8 mm
01:12 PM 68.5°F20.3°C 66.7°F19.3°C 94% 10.0 mph SE16.1 kmh SE 12.0 mph19.3 kmh 29.93 in1013.5 mb 0.01 in0.3 mm 0.00 in/hr0.0 mm/hr 0.23 in5.8 mm
01:13 PM 68.6°F20.3°C 66.8°F19.3°C 94% 10.0 mph SE16.1 kmh SE 12.0 mph19.3 kmh 29.93 in1013.5 mb 0.01 in0.3 mm 0.00 in/hr0.0 mm/hr 0.23 in5.8 mm
01:14 PM 68.6°F20.3°C 66.8°F19.3°C 94% 7.0 mph SSE11.3 kmh SSE 12.0 mph19.3 kmh 29.93 in1013.5 mb 0.01 in0.3 mm 0.00 in/hr0.0 mm/hr 0.23 in5.8 mm
01:15 PM 68.6°F20.3°C 66.8°F19.3°C 94% 4.0 mph SE6.4 kmh SE 12.0 mph19.3 kmh 29.93 in1013.5 mb 0.01 in0.3 mm 0.00 in/hr0.0 mm/hr 0.23 in5.8 mm
01:16 PM 68.7°F20.4°C 66.9°F19.4°C 94% 9.0 mph SE14.5 kmh SE 12.0 mph19.3 kmh 29.93 in1013.5 mb 0.01 in0.3 mm 0.00 in/hr0.0 mm/hr 0.23 in5.8 mm
01:17 PM 68.7°F20.4°C 66.9°F19.4°C 94% 5.0 mph SE8.0 kmh SE 12.0 mph19.3 kmh 29.93 in1013.5 mb 0.01 in0.3 mm 0.00 in/hr0.0 mm/hr 0.23 in5.8 mm
01:18 PM 68.8°F20.4°C 67.0°F19.4°C 94% 11.0 mph SSE17.7 kmh SSE 12.0 mph19.3 kmh 29.93 in1013.5 mb 0.01 in0.3 mm 0.00 in/hr0.0 mm/hr 0.23 in5.8 mm
01:19 PM 68.7°F20.4°C 66.9°F19.4°C 94% 8.0 mph SE12.9 kmh SE 12.0 mph19.3 kmh 29.93 in1013.5 mb 0.01 in0.3 mm 0.00 in/hr0.0 mm/hr 0.23 in5.8 mm
01:20 PM 68.7°F20.4°C 66.9°F19.4°C 94% 8.0 mph SSE12.9 kmh SSE 12.0 mph19.3 kmh 29.93 in1013.5 mb 0.01 in0.3 mm 0.00 in/hr0.0 mm/hr 0.23 in5.8 mm
01:21 PM 68.7°F20.4°C 66.9°F19.4°C 94% 10.0 mph SE16.1 kmh SE 13.0 mph20.9 kmh 29.94 in1013.9 mb 0.01 in0.3 mm 0.00 in/hr0.0 mm/hr 0.23 in5.8 mm
01:22 PM 68.7°F20.4°C 66.9°F19.4°C 94% 10.0 mph SE16.1 kmh SE 14.0 mph22.5 kmh 29.94 in1013.9 mb 0.01 in0.3 mm 0.00 in/hr0.0 mm/hr 0.23 in5.8 mm
01:23 PM 68.7°F20.4°C 66.9°F19.4°C 94% 9.0 mph SE14.5 kmh SE 14.0 mph22.5 kmh 29.93 in1013.5 mb 0.01 in0.3 mm 0.00 in/hr0.0 mm/hr 0.23 in5.8 mm
01:24 PM 68.7°F20.4°C 66.9°F19.4°C 94% 6.0 mph SSE9.7 kmh SSE 14.0 mph22.5 kmh 29.93 in1013.5 mb 0.01 in0.3 mm 0.00 in/hr0.0 mm/hr 0.23 in5.8 mm
01:25 PM 68.7°F20.4°C 66.9°F19.4°C 94% 6.0 mph SE9.7 kmh SE 14.0 mph22.5 kmh 29.93 in1013.5 mb 0.01 in0.3 mm 0.00 in/hr0.0 mm/hr 0.23 in5.8 mm
01:26 PM 68.7°F20.4°C 66.9°F19.4°C 94% 6.0 mph SE9.7 kmh SE 14.0 mph22.5 kmh 29.93 in1013.5 mb 0.01 in0.3 mm 0.00 in/hr0.0 mm/hr 0.23 in5.8 mm
01:27 PM 68.7°F20.4°C 66.9°F19.4°C 94% 5.0 mph SE8.0 kmh SE 14.0 mph22.5 kmh 29.93 in1013.5 mb 0.01 in0.3 mm 0.00 in/hr0.0 mm/hr 0.23 in5.8 mm
01:28 PM 68.7°F20.4°C 66.9°F19.4°C 94% 11.0 mph SE17.7 kmh SE 14.0 mph22.5 kmh 29.93 in1013.5 mb 0.01 in0.3 mm 0.00 in/hr0.0 mm/hr 0.23 in5.8 mm
01:29 PM 68.7°F20.4°C 66.9°F19.4°C 94% 7.0 mph SE11.3 kmh SE 14.0 mph22.5 kmh 29.93 in1013.5 mb 0.01 in0.3 mm 0.00 in/hr0.0 mm/hr 0.23 in5.8 mm
01:30 PM 68.7°F20.4°C 66.9°F19.4°C 94% 11.0 mph SSE17.7 kmh SSE 14.0 mph22.5 kmh 29.93 in1013.5 mb 0.01 in0.3 mm 0.00 in/hr0.0 mm/hr 0.23 in5.8 mm
01:31 PM 68.7°F20.4°C 66.9°F19.4°C 94% 11.0 mph SE17.7 kmh SE 11.0 mph17.7 kmh 29.93 in1013.5 mb 0.00 in0.0 mm 0.00 in/hr0.0 mm/hr 0.23 in5.8 mm
01:32 PM 68.7°F20.4°C 66.9°F19.4°C 94% 13.0 mph SE20.9 kmh SE 13.0 mph20.9 kmh 29.93 in1013.5 mb 0.00 in0.0 mm 0.00 in/hr0.0 mm/hr 0.23 in5.8 mm
01:33 PM 68.8°F20.4°C 67.0°F19.4°C 94% 6.0 mph SE9.7 kmh SE 13.0 mph20.9 kmh 29.93 in1013.5 mb 0.00 in0.0 mm 0.00 in/hr0.0 mm/hr 0.23 in5.8 mm
01:34 PM 68.8°F20.4°C 67.0°F19.4°C 94% 5.0 mph SE8.0 kmh SE 13.0 mph20.9 kmh 29.93 in1013.5 mb 0.00 in0.0 mm 0.00 in/hr0.0 mm/hr 0.23 in5.8 mm
01:35 PM 68.8°F20.4°C 67.0°F19.4°C 94% 9.0 mph SE14.5 kmh SE 13.0 mph20.9 kmh 29.93 in1013.5 mb 0.00 in0.0 mm 0.00 in/hr0.0 mm/hr 0.23 in5.8 mm
01:36 PM 68.9°F20.5°C 67.1°F19.5°C 94% 10.0 mph E16.1 kmh E 13.0 mph20.9 kmh 29.93 in1013.5 mb 0.00 in0.0 mm 0.00 in/hr0.0 mm/hr 0.23 in5.8 mm
01:37 PM 68.9°F20.5°C 67.1°F19.5°C 94% 11.0 mph SE17.7 kmh SE 13.0 mph20.9 kmh 29.93 in1013.5 mb 0.00 in0.0 mm 0.00 in/hr0.0 mm/hr 0.23 in5.8 mm
01:38 PM 68.9°F20.5°C 67.1°F19.5°C 94% 5.0 mph SE8.0 kmh SE 13.0 mph20.9 kmh 29.93 in1013.5 mb 0.00 in0.0 mm 0.00 in/hr0.0 mm/hr 0.23 in5.8 mm
01:39 PM 69.0°F20.6°C 67.2°F19.6°C 94% 7.0 mph SE11.3 kmh SE 13.0 mph20.9 kmh 29.93 in1013.5 mb 0.00 in0.0 mm 0.00 in/hr0.0 mm/hr 0.23 in5.8 mm
01:40 PM 69.1°F20.6°C 67.3°F19.6°C 94% 6.0 mph SSE9.7 kmh SSE 13.0 mph20.9 kmh 29.93 in1013.5 mb 0.00 in0.0 mm 0.00 in/hr0.0 mm/hr 0.23 in5.8 mm
01:41 PM 69.2°F20.7°C 67.4°F19.7°C 94% 6.0 mph SE9.7 kmh SE 13.0 mph20.9 kmh 29.93 in1013.5 mb 0.00 in0.0 mm 0.00 in/hr0.0 mm/hr 0.23 in5.8 mm
01:42 PM 69.3°F20.7°C 67.5°F19.7°C 94% 6.0 mph SE9.7 kmh SE 13.0 mph20.9 kmh 29.93 in1013.5 mb 0.00 in0.0 mm 0.00 in/hr0.0 mm/hr 0.23 in5.8 mm
01:43 PM 69.3°F20.7°C 67.2°F19.6°C 93% 11.0 mph SE17.7 kmh SE 13.0 mph20.9 kmh 29.92 in1013.2 mb 0.00 in0.0 mm 0.00 in/hr0.0 mm/hr 0.23 in5.8 mm
01:44 PM 69.4°F20.8°C 67.3°F19.6°C 93% 4.0 mph SE6.4 kmh SE 13.0 mph20.9 kmh 29.92 in1013.2 mb 0.00 in0.0 mm 0.00 in/hr0.0 mm/hr 0.23 in5.8 mm
01:45 PM 69.5°F20.8°C 67.7°F19.8°C 94% 6.0 mph SE9.7 kmh SE 13.0 mph20.9 kmh 29.92 in1013.2 mb 0.00 in0.0 mm 0.00 in/hr0.0 mm/hr 0.23 in5.8 mm
01:46 PM 69.6°F20.9°C 67.5°F19.7°C 93% 3.0 mph SE4.8 kmh SE 13.0 mph20.9 kmh 29.92 in1013.2 mb 0.00 in0.0 mm 0.00 in/hr0.0 mm/hr 0.23 in5.8 mm
01:47 PM 69.7°F20.9°C 67.6°F19.8°C 93% 10.0 mph SE16.1 kmh SE 13.0 mph20.9 kmh 29.92 in1013.2 mb 0.00 in0.0 mm 0.00 in/hr0.0 mm/hr 0.23 in5.8 mm
01:48 PM 69.8°F21.0°C 67.7°F19.8°C 93% 5.0 mph SE8.0 kmh SE 13.0 mph20.9 kmh 29.92 in1013.2 mb 0.00 in0.0 mm 0.00 in/hr0.0 mm/hr 0.23 in5.8 mm
01:49 PM 69.8°F21.0°C 67.7°F19.8°C 93% 4.0 mph SE6.4 kmh SE 13.0 mph20.9 kmh 29.92 in1013.2 mb 0.00 in0.0 mm 0.00 in/hr0.0 mm/hr 0.23 in5.8 mm
01:50 PM 69.9°F21.1°C 67.8°F19.9°C 93% 4.0 mph SSE6.4 kmh SSE 13.0 mph20.9 kmh 29.92 in1013.2 mb 0.00 in0.0 mm 0.00 in/hr0.0 mm/hr 0.23 in5.8 mm
01:51 PM 70.0°F21.1°C 67.9°F19.9°C 93% 5.0 mph SE8.0 kmh SE 13.0 mph20.9 kmh 29.92 in1013.2 mb 0.00 in0.0 mm 0.00 in/hr0.0 mm/hr 0.23 in5.8 mm
01:52 PM 70.0°F21.1°C 67.6°F19.8°C 92% 9.0 mph S14.5 kmh S 13.0 mph20.9 kmh 29.92 in1013.2 mb 0.00 in0.0 mm 0.00 in/hr0.0 mm/hr 0.23 in5.8 mm
01:53 PM 70.0°F21.1°C 67.6°F19.8°C 92% 8.0 mph SE12.9 kmh SE 13.0 mph20.9 kmh 29.92 in1013.2 mb 0.00 in0.0 mm 0.00 in/hr0.0 mm/hr 0.23 in5.8 mm
01:54 PM 69.9°F21.1°C 67.5°F19.7°C 92% 7.0 mph SE11.3 kmh SE 13.0 mph20.9 kmh 29.92 in1013.2 mb 0.00 in0.0 mm 0.00 in/hr0.0 mm/hr 0.23 in5.8 mm
01:55 PM 69.9°F21.1°C 67.5°F19.7°C 92% 6.0 mph SE9.7 kmh SE 13.0 mph20.9 kmh 29.92 in1013.2 mb 0.00 in0.0 mm 0.00 in/hr0.0 mm/hr 0.23 in5.8 mm
01:56 PM 69.9°F21.1°C 67.5°F19.7°C 92% 4.0 mph SE6.4 kmh SE 13.0 mph20.9 kmh 29.92 in1013.2 mb 0.00 in0.0 mm 0.00 in/hr0.0 mm/hr 0.23 in5.8 mm
01:57 PM 69.9°F21.1°C 67.5°F19.7°C 92% 8.0 mph SE12.9 kmh SE 13.0 mph20.9 kmh 29.92 in1013.2 mb 0.00 in0.0 mm 0.00 in/hr0.0 mm/hr 0.23 in5.8 mm
01:58 PM 69.9°F21.1°C 67.5°F19.7°C 92% 6.0 mph SE9.7 kmh SE 13.0 mph20.9 kmh 29.92 in1013.2 mb 0.00 in0.0 mm 0.00 in/hr0.0 mm/hr 0.23 in5.8 mm
01:59 PM 69.9°F21.1°C 67.5°F19.7°C 92% 6.0 mph SE9.7 kmh SE 13.0 mph20.9 kmh 29.92 in1013.2 mb 0.00 in0.0 mm 0.00 in/hr0.0 mm/hr 0.23 in5.8 mm
02:00 PM 69.9°F21.1°C 67.8°F19.9°C 93% 7.0 mph SE11.3 kmh SE 13.0 mph20.9 kmh 29.92 in1013.2 mb 0.00 in0.0 mm 0.00 in/hr0.0 mm/hr 0.23 in5.8 mm
02:01 PM 70.0°F21.1°C 67.9°F19.9°C 93% 8.0 mph SE12.9 kmh SE 9.0 mph14.5 kmh 29.92 in1013.2 mb 0.00 in0.0 mm 0.00 in/hr0.0 mm/hr 0.23 in5.8 mm
02:02 PM 70.1°F21.2°C 68.0°F20.0°C 93% 5.0 mph SE8.0 kmh SE 9.0 mph14.5 kmh 29.92 in1013.2 mb 0.00 in0.0 mm 0.00 in/hr0.0 mm/hr 0.23 in5.8 mm
02:03 PM 70.2°F21.2°C 68.1°F20.1°C 93% 6.0 mph SSE9.7 kmh SSE 9.0 mph14.5 kmh 29.92 in1013.2 mb 0.00 in0.0 mm 0.00 in/hr0.0 mm/hr 0.23 in5.8 mm
02:04 PM 70.3°F21.3°C 67.9°F19.9°C 92% 4.0 mph ESE6.4 kmh ESE 9.0 mph14.5 kmh 29.92 in1013.2 mb 0.00 in0.0 mm 0.00 in/hr0.0 mm/hr 0.23 in5.8 mm
02:05 PM 70.4°F21.3°C 68.0°F20.0°C 92% 7.0 mph E11.3 kmh E 9.0 mph14.5 kmh 29.92 in1013.2 mb 0.00 in0.0 mm 0.00 in/hr0.0 mm/hr 0.23 in5.8 mm
02:06 PM 70.4°F21.3°C 68.0°F20.0°C 92% 8.0 mph ESE12.9 kmh ESE 11.0 mph17.7 kmh 29.92 in1013.2 mb 0.00 in0.0 mm 0.00 in/hr0.0 mm/hr 0.23 in5.8 mm
02:07 PM 70.4°F21.3°C 67.7°F19.8°C 91% 7.0 mph SE11.3 kmh SE 11.0 mph17.7 kmh 29.92 in1013.2 mb 0.00 in0.0 mm 0.00 in/hr0.0 mm/hr 0.23 in5.8 mm
02:08 PM 70.3°F21.3°C 67.6°F19.8°C 91% 4.0 mph SE6.4 kmh SE 11.0 mph17.7 kmh 29.92 in1013.2 mb 0.00 in0.0 mm 0.00 in/hr0.0 mm/hr 0.23 in5.8 mm
02:09 PM 70.4°F21.3°C 68.0°F20.0°C 92% 4.0 mph SE6.4 kmh SE 11.0 mph17.7 kmh 29.92 in1013.2 mb 0.00 in0.0 mm 0.00 in/hr0.0 mm/hr 0.23 in5.8 mm
02:10 PM 70.4°F21.3°C 68.0°F20.0°C 92% 8.0 mph SE12.9 kmh SE 11.0 mph17.7 kmh 29.92 in1013.2 mb 0.00 in0.0 mm 0.00 in/hr0.0 mm/hr 0.23 in5.8 mm
02:11 PM 70.5°F21.4°C 68.1°F20.1°C 92% 4.0 mph ESE6.4 kmh ESE 11.0 mph17.7 kmh 29.92 in1013.2 mb 0.00 in0.0 mm 0.00 in/hr0.0 mm/hr 0.23 in5.8 mm
02:12 PM 70.5°F21.4°C 67.8°F19.9°C 91% 7.0 mph SSE11.3 kmh SSE 11.0 mph17.7 kmh 29.92 in1013.2 mb 0.00 in0.0 mm 0.00 in/hr0.0 mm/hr 0.23 in5.8 mm
02:13 PM 70.5°F21.4°C 67.8°F19.9°C 91% 4.0 mph SE6.4 kmh SE 11.0 mph17.7 kmh 29.92 in1013.2 mb 0.00 in0.0 mm 0.00 in/hr0.0 mm/hr 0.23 in5.8 mm
02:14 PM 70.5°F21.4°C 67.8°F19.9°C 91% 6.0 mph E9.7 kmh E 11.0 mph17.7 kmh 29.92 in1013.2 mb 0.00 in0.0 mm 0.00 in/hr0.0 mm/hr 0.23 in5.8 mm
02:15 PM 70.6°F21.4°C 68.2°F20.1°C 92% 7.0 mph SE11.3 kmh SE 11.0 mph17.7 kmh 29.92 in1013.2 mb 0.00 in0.0 mm 0.00 in/hr0.0 mm/hr 0.23 in5.8 mm
02:16 PM 70.7°F21.5°C 68.0°F20.0°C 91% 9.0 mph ESE14.5 kmh ESE 11.0 mph17.7 kmh 29.92 in1013.2 mb 0.00 in0.0 mm 0.00 in/hr0.0 mm/hr 0.23 in5.8 mm
02:17 PM 70.7°F21.5°C 68.0°F20.0°C 91% 7.0 mph SSE11.3 kmh SSE 11.0 mph17.7 kmh 29.92 in1013.2 mb 0.00 in0.0 mm 0.00 in/hr0.0 mm/hr 0.23 in5.8 mm
02:18 PM 70.7°F21.5°C 68.0°F20.0°C 91% 5.0 mph SE8.0 kmh SE 11.0 mph17.7 kmh 29.92 in1013.2 mb 0.00 in0.0 mm 0.00 in/hr0.0 mm/hr 0.23 in5.8 mm
02:19 PM 70.8°F21.6°C 68.1°F20.1°C 91% 3.0 mph SE4.8 kmh SE 11.0 mph17.7 kmh 29.92 in1013.2 mb 0.00 in0.0 mm 0.00 in/hr0.0 mm/hr 0.23 in5.8 mm
02:20 PM 70.9°F21.6°C 68.2°F20.1°C 91% 6.0 mph S9.7 kmh S 11.0 mph17.7 kmh 29.91 in1012.9 mb 0.00 in0.0 mm 0.00 in/hr0.0 mm/hr 0.23 in5.8 mm
02:21 PM 70.9°F21.6°C 68.2°F20.1°C 91% 5.0 mph SE8.0 kmh SE 11.0 mph17.7 kmh 29.91 in1012.9 mb 0.00 in0.0 mm 0.00 in/hr0.0 mm/hr 0.23 in5.8 mm
02:22 PM 71.0°F21.7°C 68.2°F20.1°C 91% 9.0 mph SE14.5 kmh SE 11.0 mph17.7 kmh 29.91 in1012.9 mb 0.00 in0.0 mm 0.00 in/hr0.0 mm/hr 0.23 in5.8 mm
02:23 PM 71.1°F21.7°C 68.0°F20.0°C 90% 4.0 mph SE6.4 kmh SE 11.0 mph17.7 kmh 29.91 in1012.9 mb 0.00 in0.0 mm 0.00 in/hr0.0 mm/hr 0.23 in5.8 mm
02:24 PM 71.3°F21.8°C 68.5°F20.3°C 91% 4.0 mph SE6.4 kmh SE 11.0 mph17.7 kmh 29.91 in1012.9 mb 0.00 in0.0 mm 0.00 in/hr0.0 mm/hr 0.23 in5.8 mm
02:25 PM 71.4°F21.9°C 68.6°F20.3°C 91% 7.0 mph SSE11.3 kmh SSE 11.0 mph17.7 kmh 29.91 in1012.9 mb 0.00 in0.0 mm 0.00 in/hr0.0 mm/hr 0.23 in5.8 mm
02:26 PM 71.5°F21.9°C 68.7°F20.4°C 91% 5.0 mph SE8.0 kmh SE 11.0 mph17.7 kmh 29.91 in1012.9 mb 0.00 in0.0 mm 0.00 in/hr0.0 mm/hr 0.23 in5.8 mm
02:27 PM 71.7°F22.1°C 68.9°F20.5°C 91% 11.0 mph SE17.7 kmh SE 11.0 mph17.7 kmh 29.91 in1012.9 mb 0.00 in0.0 mm 0.00 in/hr0.0 mm/hr 0.23 in5.8 mm
02:28 PM 71.8°F22.1°C 68.7°F20.4°C 90% 8.0 mph SE12.9 kmh SE 11.0 mph17.7 kmh 29.91 in1012.9 mb 0.00 in0.0 mm 0.00 in/hr0.0 mm/hr 0.23 in5.8 mm
02:29 PM 71.9°F22.2°C 68.8°F20.4°C 90% 7.0 mph SE11.3 kmh SE 11.0 mph17.7 kmh 29.91 in1012.9 mb 0.00 in0.0 mm 0.00 in/hr0.0 mm/hr 0.23 in5.8 mm
02:30 PM 71.8°F22.1°C 68.4°F20.2°C 89% 6.0 mph SE9.7 kmh SE 11.0 mph17.7 kmh 29.91 in1012.9 mb 0.00 in0.0 mm 0.00 in/hr0.0 mm/hr 0.23 in5.8 mm
02:31 PM 71.8°F22.1°C 68.4°F20.2°C 89% 6.0 mph SE9.7 kmh SE 7.0 mph11.3 kmh 29.91 in1012.9 mb 0.00 in0.0 mm 0.00 in/hr0.0 mm/hr 0.23 in5.8 mm
02:32 PM 71.8°F22.1°C 68.7°F20.4°C 90% 5.0 mph SE8.0 kmh SE 11.0 mph17.7 kmh 29.91 in1012.9 mb 0.00 in0.0 mm 0.00 in/hr0.0 mm/hr 0.23 in5.8 mm
02:33 PM 71.7°F22.1°C 68.3°F20.2°C 89% 6.0 mph SE9.7 kmh SE 11.0 mph17.7 kmh 29.91 in1012.9 mb 0.00 in0.0 mm 0.00 in/hr0.0 mm/hr 0.23 in5.8 mm
02:34 PM 71.6°F22.0°C 68.2°F20.1°C 89% 6.0 mph SE9.7 kmh SE 11.0 mph17.7 kmh 29.91 in1012.9 mb 0.00 in0.0 mm 0.00 in/hr0.0 mm/hr 0.23 in5.8 mm
02:35 PM 71.6°F22.0°C 68.5°F20.3°C 90% 8.0 mph SE12.9 kmh SE 11.0 mph17.7 kmh 29.91 in1012.9 mb 0.00 in0.0 mm 0.00 in/hr0.0 mm/hr 0.23 in5.8 mm
02:36 PM 71.5°F21.9°C 68.1°F20.1°C 89% 8.0 mph SE12.9 kmh SE 12.0 mph19.3 kmh 29.91 in1012.9 mb 0.00 in0.0 mm 0.00 in/hr0.0 mm/hr 0.23 in5.8 mm
02:37 PM 71.5°F21.9°C 68.1°F20.1°C 89% 3.0 mph SE4.8 kmh SE 12.0 mph19.3 kmh 29.91 in1012.9 mb 0.00 in0.0 mm 0.00 in/hr0.0 mm/hr 0.23 in5.8 mm
02:38 PM 71.5°F21.9°C 68.1°F20.1°C 89% 4.0 mph SE6.4 kmh SE 12.0 mph19.3 kmh 29.91 in1012.9 mb 0.00 in0.0 mm 0.00 in/hr0.0 mm/hr 0.23 in5.8 mm
02:39 PM 71.4°F21.9°C 68.0°F20.0°C 89% 6.0 mph SE9.7 kmh SE 12.0 mph19.3 kmh 29.91 in1012.9 mb 0.00 in0.0 mm 0.00 in/hr0.0 mm/hr 0.23 in5.8 mm
02:40 PM 71.4°F21.9°C 68.3°F20.2°C 90% 10.0 mph ESE16.1 kmh ESE 12.0 mph19.3 kmh 29.91 in1012.9 mb 0.00 in0.0 mm 0.00 in/hr0.0 mm/hr 0.23 in5.8 mm
02:41 PM 71.3°F21.8°C 67.9°F19.9°C 89% 6.0 mph SE9.7 kmh SE 12.0 mph19.3 kmh 29.91 in1012.9 mb 0.00 in0.0 mm 0.00 in/hr0.0 mm/hr 0.23 in5.8 mm
02:42 PM 71.3°F21.8°C 68.2°F20.1°C 90% 8.0 mph SE12.9 kmh SE 12.0 mph19.3 kmh 29.91 in1012.9 mb 0.00 in0.0 mm 0.00 in/hr0.0 mm/hr 0.23 in5.8 mm
02:43 PM 71.3°F21.8°C 68.2°F20.1°C 90% 3.0 mph ESE4.8 kmh ESE 12.0 mph19.3 kmh 29.91 in1012.9 mb 0.00 in0.0 mm 0.00 in/hr0.0 mm/hr 0.23 in5.8 mm
02:44 PM 71.3°F21.8°C 68.2°F20.1°C 90% 6.0 mph SE9.7 kmh SE 12.0 mph19.3 kmh 29.91 in1012.9 mb 0.00 in0.0 mm 0.00 in/hr0.0 mm/hr 0.23 in5.8 mm
02:45 PM 71.4°F21.9°C 68.3°F20.2°C 90% 9.0 mph ESE14.5 kmh ESE 12.0 mph19.3 kmh 29.91 in1012.9 mb 0.00 in0.0 mm 0.00 in/hr0.0 mm/hr 0.23 in5.8 mm
02:46 PM 71.4°F21.9°C 68.3°F20.2°C 90% 6.0 mph SE9.7 kmh SE 12.0 mph19.3 kmh 29.91 in1012.9 mb 0.00 in0.0 mm 0.00 in/hr0.0 mm/hr 0.23 in5.8 mm
02:47 PM 71.3°F21.8°C 68.2°F20.1°C 90% 9.0 mph S14.5 kmh S 12.0 mph19.3 kmh 29.91 in1012.9 mb 0.00 in0.0 mm 0.00 in/hr0.0 mm/hr 0.23 in5.8 mm
02:48 PM 71.3°F21.8°C 68.2°F20.1°C 90% 4.0 mph SE6.4 kmh SE 12.0 mph19.3 kmh 29.91 in1012.9 mb 0.00 in0.0 mm 0.00 in/hr0.0 mm/hr 0.23 in5.8 mm
02:49 PM 71.3°F21.8°C 68.2°F20.1°C 90% 3.0 mph ESE4.8 kmh ESE 12.0 mph19.3 kmh 29.91 in1012.9 mb 0.00 in0.0 mm 0.00 in/hr0.0 mm/hr 0.23 in5.8 mm
02:50 PM 71.3°F21.8°C 68.2°F20.1°C 90% 7.0 mph SE11.3 kmh SE 12.0 mph19.3 kmh 29.91 in1012.9 mb 0.00 in0.0 mm 0.00 in/hr0.0 mm/hr 0.23 in5.8 mm
02:51 PM 71.3°F21.8°C 68.2°F20.1°C 90% 6.0 mph SSE9.7 kmh SSE 12.0 mph19.3 kmh 29.91 in1012.9 mb 0.00 in0.0 mm 0.00 in/hr0.0 mm/hr 0.23 in5.8 mm
02:52 PM 71.4°F21.9°C 68.3°F20.2°C 90% 5.0 mph SE8.0 kmh SE 12.0 mph19.3 kmh 29.91 in1012.9 mb 0.00 in0.0 mm 0.00 in/hr0.0 mm/hr 0.23 in5.8 mm
02:53 PM 71.5°F21.9°C 68.7°F20.4°C 91% 5.0 mph SE8.0 kmh SE 12.0 mph19.3 kmh 29.91 in1012.9 mb 0.00 in0.0 mm 0.00 in/hr0.0 mm/hr 0.23 in5.8 mm
02:54 PM 71.5°F21.9°C 68.4°F20.2°C 90% 10.0 mph SE16.1 kmh SE 12.0 mph19.3 kmh 29.90 in1012.5 mb 0.00 in0.0 mm 0.00 in/hr0.0 mm/hr 0.23 in5.8 mm
02:55 PM 71.5°F21.9°C 68.4°F20.2°C 90% 7.0 mph SE11.3 kmh SE 12.0 mph19.3 kmh 29.90 in1012.5 mb 0.00 in0.0 mm 0.00 in/hr0.0 mm/hr 0.23 in5.8 mm
02:56 PM 71.6°F22.0°C 68.5°F20.3°C 90% 4.0 mph SE6.4 kmh SE 12.0 mph19.3 kmh 29.90 in1012.5 mb 0.00 in0.0 mm 0.00 in/hr0.0 mm/hr 0.23 in5.8 mm
02:57 PM 71.6°F22.0°C 68.5°F20.3°C 90% 6.0 mph SE9.7 kmh SE 12.0 mph19.3 kmh 29.90 in1012.5 mb 0.00 in0.0 mm 0.00 in/hr0.0 mm/hr 0.23 in5.8 mm
02:58 PM 71.7°F22.1°C 68.6°F20.3°C 90% 5.0 mph ESE8.0 kmh ESE 12.0 mph19.3 kmh 29.90 in1012.5 mb 0.00 in0.0 mm 0.00 in/hr0.0 mm/hr 0.23 in5.8 mm
02:59 PM 71.7°F22.1°C 68.6°F20.3°C 90% 7.0 mph SE11.3 kmh SE 12.0 mph19.3 kmh 29.90 in1012.5 mb 0.00 in0.0 mm 0.00 in/hr0.0 mm/hr 0.23 in5.8 mm
03:00 PM 71.7°F22.1°C 68.6°F20.3°C 90% 5.0 mph ESE8.0 kmh ESE 12.0 mph19.3 kmh 29.90 in1012.5 mb 0.00 in0.0 mm 0.00 in/hr0.0 mm/hr 0.23 in5.8 mm
03:01 PM 71.7°F22.1°C 68.3°F20.2°C 89% 6.0 mph SE9.7 kmh SE 6.0 mph9.7 kmh 29.90 in1012.5 mb 0.00 in0.0 mm 0.00 in/hr0.0 mm/hr 0.23 in5.8 mm
03:02 PM 71.7°F22.1°C 68.3°F20.2°C 89% 4.0 mph SE6.4 kmh SE 6.0 mph9.7 kmh 29.90 in1012.5 mb 0.00 in0.0 mm 0.00 in/hr0.0 mm/hr 0.23 in5.8 mm
03:03 PM 71.6°F22.0°C 68.5°F20.3°C 90% 6.0 mph SE9.7 kmh SE 6.0 mph9.7 kmh 29.90 in1012.5 mb 0.00 in0.0 mm 0.00 in/hr0.0 mm/hr 0.23 in5.8 mm
03:04 PM 71.6°F22.0°C 68.2°F20.1°C 89% 3.0 mph SE4.8 kmh SE 8.0 mph12.9 kmh 29.90 in1012.5 mb 0.00 in0.0 mm 0.00 in/hr0.0 mm/hr 0.23 in5.8 mm
03:05 PM 71.6°F22.0°C 68.5°F20.3°C 90% 6.0 mph SE9.7 kmh SE 9.0 mph14.5 kmh 29.90 in1012.5 mb 0.00 in0.0 mm 0.00 in/hr0.0 mm/hr 0.23 in5.8 mm
03:06 PM 71.6°F22.0°C 68.5°F20.3°C 90% 4.0 mph SE6.4 kmh SE 9.0 mph14.5 kmh 29.90 in1012.5 mb 0.00 in0.0 mm 0.00 in/hr0.0 mm/hr 0.23 in5.8 mm
03:07 PM 71.6°F22.0°C 68.2°F20.1°C 89% 6.0 mph SE9.7 kmh SE 9.0 mph14.5 kmh 29.90 in1012.5 mb 0.00 in0.0 mm 0.00 in/hr0.0 mm/hr 0.23 in5.8 mm
03:08 PM 71.6°F22.0°C 68.5°F20.3°C 90% 4.0 mph SSE6.4 kmh SSE 9.0 mph14.5 kmh 29.90 in1012.5 mb 0.00 in0.0 mm 0.00 in/hr0.0 mm/hr 0.23 in5.8 mm
03:09 PM 71.6°F22.0°C 68.5°F20.3°C 90% 3.0 mph SE4.8 kmh SE 9.0 mph14.5 kmh 29.90 in1012.5 mb 0.00 in0.0 mm 0.00 in/hr0.0 mm/hr 0.23 in5.8 mm
03:10 PM 71.6°F22.0°C 68.5°F20.3°C 90% 3.0 mph E4.8 kmh E 9.0 mph14.5 kmh 29.90 in1012.5 mb 0.00 in0.0 mm 0.00 in/hr0.0 mm/hr 0.23 in5.8 mm
03:11 PM 71.7°F22.1°C 68.6°F20.3°C 90% 7.0 mph SE11.3 kmh SE 9.0 mph14.5 kmh 29.90 in1012.5 mb 0.00 in0.0 mm 0.00 in/hr0.0 mm/hr 0.23 in5.8 mm
03:12 PM 71.7°F22.1°C 68.6°F20.3°C 90% 3.0 mph SE4.8 kmh SE 9.0 mph14.5 kmh 29.90 in1012.5 mb 0.00 in0.0 mm 0.00 in/hr0.0 mm/hr 0.23 in5.8 mm
03:13 PM 71.7°F22.1°C 68.6°F20.3°C 90% 5.0 mph SE8.0 kmh SE 9.0 mph14.5 kmh 29.90 in1012.5 mb 0.00 in0.0 mm 0.00 in/hr0.0 mm/hr 0.23 in5.8 mm
03:14 PM 71.7°F22.1°C 68.3°F20.2°C 89% 3.0 mph ESE4.8 kmh ESE 9.0 mph14.5 kmh 29.90 in1012.5 mb 0.00 in0.0 mm 0.00 in/hr0.0 mm/hr 0.23 in5.8 mm
03:15 PM 71.7°F22.1°C 68.3°F20.2°C 89% 4.0 mph SSE6.4 kmh SSE 9.0 mph14.5 kmh 29.90 in1012.5 mb 0.00 in0.0 mm 0.00 in/hr0.0 mm/hr 0.23 in5.8 mm
03:16 PM 71.7°F22.1°C 68.3°F20.2°C 89% 4.0 mph SE6.4 kmh SE 9.0 mph14.5 kmh 29.90 in1012.5 mb 0.00 in0.0 mm 0.00 in/hr0.0 mm/hr 0.23 in5.8 mm
03:17 PM 71.7°F22.1°C 68.3°F20.2°C 89% 4.0 mph SE6.4 kmh SE 9.0 mph14.5 kmh 29.90 in1012.5 mb 0.00 in0.0 mm 0.00 in/hr0.0 mm/hr 0.23 in5.8 mm
03:18 PM 71.7°F22.1°C 68.3°F20.2°C 89% 5.0 mph SE8.0 kmh SE 10.0 mph16.1 kmh 29.90 in1012.5 mb 0.00 in0.0 mm 0.00 in/hr0.0 mm/hr 0.23 in5.8 mm
03:19 PM 71.7°F22.1°C 68.3°F20.2°C 89% 10.0 mph ESE16.1 kmh ESE 11.0 mph17.7 kmh 29.90 in1012.5 mb 0.00 in0.0 mm 0.00 in/hr0.0 mm/hr 0.23 in5.8 mm
03:20 PM 71.6°F22.0°C 68.2°F20.1°C 89% 8.0 mph SE12.9 kmh SE 11.0 mph17.7 kmh 29.90 in1012.5 mb 0.00 in0.0 mm 0.00 in/hr0.0 mm/hr 0.23 in5.8 mm
03:21 PM 71.6°F22.0°C 68.2°F20.1°C 89% 5.0 mph SE8.0 kmh SE 11.0 mph17.7 kmh 29.90 in1012.5 mb 0.00 in0.0 mm 0.00 in/hr0.0 mm/hr 0.23 in5.8 mm
03:22 PM 71.5°F21.9°C 68.1°F20.1°C 89% 7.0 mph SE11.3 kmh SE 11.0 mph17.7 kmh 29.90 in1012.5 mb 0.00 in0.0 mm 0.00 in/hr0.0 mm/hr 0.23 in5.8 mm
03:23 PM 71.5°F21.9°C 68.1°F20.1°C 89% 6.0 mph SE9.7 kmh SE 11.0 mph17.7 kmh 29.89 in1012.2 mb 0.00 in0.0 mm 0.00 in/hr0.0 mm/hr 0.23 in5.8 mm
03:24 PM 71.5°F21.9°C 68.1°F20.1°C 89% 11.0 mph SE17.7 kmh SE 12.0 mph19.3 kmh 29.89 in1012.2 mb 0.00 in0.0 mm 0.00 in/hr0.0 mm/hr 0.23 in5.8 mm
03:25 PM 71.5°F21.9°C 68.1°F20.1°C 89% 6.0 mph SSE9.7 kmh SSE 12.0 mph19.3 kmh 29.89 in1012.2 mb 0.00 in0.0 mm 0.00 in/hr0.0 mm/hr 0.23 in5.8 mm
03:26 PM 71.5°F21.9°C 68.1°F20.1°C 89% 5.0 mph SE8.0 kmh SE 12.0 mph19.3 kmh 29.89 in1012.2 mb 0.00 in0.0 mm 0.00 in/hr0.0 mm/hr 0.23 in5.8 mm
03:27 PM 71.5°F21.9°C 68.1°F20.1°C 89% 5.0 mph ESE8.0 kmh ESE 12.0 mph19.3 kmh 29.89 in1012.2 mb 0.00 in0.0 mm 0.00 in/hr0.0 mm/hr 0.23 in5.8 mm
03:28 PM 71.5°F21.9°C 68.1°F20.1°C 89% 7.0 mph SE11.3 kmh SE 12.0 mph19.3 kmh 29.89 in1012.2 mb 0.00 in0.0 mm 0.00 in/hr0.0 mm/hr 0.23 in5.8 mm
03:29 PM 71.5°F21.9°C 68.1°F20.1°C 89% 7.0 mph SE11.3 kmh SE 12.0 mph19.3 kmh 29.89 in1012.2 mb 0.00 in0.0 mm 0.00 in/hr0.0 mm/hr 0.23 in5.8 mm
03:30 PM 71.4°F21.9°C 68.0°F20.0°C 89% 8.0 mph SE12.9 kmh SE 12.0 mph19.3 kmh 29.89 in1012.2 mb 0.00 in0.0 mm 0.00 in/hr0.0 mm/hr 0.23 in5.8 mm
03:31 PM 71.4°F21.9°C 68.0°F20.0°C 89% 7.0 mph SE11.3 kmh SE 8.0 mph12.9 kmh 29.89 in1012.2 mb 0.00 in0.0 mm 0.00 in/hr0.0 mm/hr 0.23 in5.8 mm
03:32 PM 71.3°F21.8°C 68.2°F20.1°C 90% 3.0 mph SE4.8 kmh SE 8.0 mph12.9 kmh 29.89 in1012.2 mb 0.00 in0.0 mm 0.00 in/hr0.0 mm/hr 0.23 in5.8 mm
03:33 PM 71.3°F21.8°C 68.2°F20.1°C 90% 5.0 mph SE8.0 kmh SE 8.0 mph12.9 kmh 29.89 in1012.2 mb 0.00 in0.0 mm 0.00 in/hr0.0 mm/hr 0.23 in5.8 mm
03:34 PM 71.3°F21.8°C 68.2°F20.1°C 90% 8.0 mph SE12.9 kmh SE 8.0 mph12.9 kmh 29.89 in1012.2 mb 0.00 in0.0 mm 0.00 in/hr0.0 mm/hr 0.23 in5.8 mm
03:35 PM 71.3°F21.8°C 68.2°F20.1°C 90% 7.0 mph SE11.3 kmh SE 13.0 mph20.9 kmh 29.89 in1012.2 mb 0.00 in0.0 mm 0.00 in/hr0.0 mm/hr 0.23 in5.8 mm
03:36 PM 71.2°F21.8°C 68.1°F20.1°C 90% 10.0 mph SSE16.1 kmh SSE 13.0 mph20.9 kmh 29.89 in1012.2 mb 0.00 in0.0 mm 0.00 in/hr0.0 mm/hr 0.23 in5.8 mm
03:37 PM 71.2°F21.8°C 68.1°F20.1°C 90% 6.0 mph SE9.7 kmh SE 13.0 mph20.9 kmh 29.89 in1012.2 mb 0.00 in0.0 mm 0.00 in/hr0.0 mm/hr 0.23 in5.8 mm
03:38 PM 71.1°F21.7°C 68.0°F20.0°C 90% 7.0 mph SSE11.3 kmh SSE 13.0 mph20.9 kmh 29.89 in1012.2 mb 0.00 in0.0 mm 0.00 in/hr0.0 mm/hr 0.23 in5.8 mm
03:39 PM 71.1°F21.7°C 68.0°F20.0°C 90% 7.0 mph SE11.3 kmh SE 13.0 mph20.9 kmh 29.89 in1012.2 mb 0.00 in0.0 mm 0.00 in/hr0.0 mm/hr 0.23 in5.8 mm
03:40 PM 71.1°F21.7°C 67.7°F19.8°C 89% 10.0 mph SSE16.1 kmh SSE 13.0 mph20.9 kmh 29.89 in1012.2 mb 0.00 in0.0 mm 0.00 in/hr0.0 mm/hr 0.23 in5.8 mm
03:41 PM 71.1°F21.7°C 67.7°F19.8°C 89% 8.0 mph SE12.9 kmh SE 13.0 mph20.9 kmh 29.89 in1012.2 mb 0.00 in0.0 mm 0.00 in/hr0.0 mm/hr 0.23 in5.8 mm
03:42 PM 71.1°F21.7°C 68.0°F20.0°C 90% 7.0 mph ESE11.3 kmh ESE 13.0 mph20.9 kmh 29.89 in1012.2 mb 0.00 in0.0 mm 0.00 in/hr0.0 mm/hr 0.23 in5.8 mm
03:43 PM 71.1°F21.7°C 68.0°F20.0°C 90% 9.0 mph SE14.5 kmh SE 13.0 mph20.9 kmh 29.89 in1012.2 mb 0.00 in0.0 mm 0.00 in/hr0.0 mm/hr 0.23 in5.8 mm
03:44 PM 71.1°F21.7°C 68.0°F20.0°C 90% 4.0 mph SE6.4 kmh SE 13.0 mph20.9 kmh 29.89 in1012.2 mb 0.00 in0.0 mm 0.00 in/hr0.0 mm/hr 0.23 in5.8 mm
03:45 PM 71.1°F21.7°C 68.0°F20.0°C 90% 8.0 mph S12.9 kmh S 13.0 mph20.9 kmh 29.89 in1012.2 mb 0.00 in0.0 mm 0.00 in/hr0.0 mm/hr 0.23 in5.8 mm
03:46 PM 71.1°F21.7°C 68.0°F20.0°C 90% 11.0 mph ESE17.7 kmh ESE 13.0 mph20.9 kmh 29.89 in1012.2 mb 0.00 in0.0 mm 0.00 in/hr0.0 mm/hr 0.23 in5.8 mm
03:47 PM 71.1°F21.7°C 68.0°F20.0°C 90% 6.0 mph SE9.7 kmh SE 13.0 mph20.9 kmh 29.89 in1012.2 mb 0.00 in0.0 mm 0.00 in/hr0.0 mm/hr 0.23 in5.8 mm
03:48 PM 71.0°F21.7°C 67.9°F19.9°C 90% 7.0 mph SE11.3 kmh SE 13.0 mph20.9 kmh 29.89 in1012.2 mb 0.00 in0.0 mm 0.00 in/hr0.0 mm/hr 0.23 in5.8 mm
03:49 PM 71.0°F21.7°C 67.9°F19.9°C 90% 8.0 mph SSE12.9 kmh SSE 13.0 mph20.9 kmh 29.89 in1012.2 mb 0.00 in0.0 mm 0.00 in/hr0.0 mm/hr 0.23 in5.8 mm
03:50 PM 71.0°F21.7°C 67.9°F19.9°C 90% 5.0 mph SE8.0 kmh SE 13.0 mph20.9 kmh 29.89 in1012.2 mb 0.00 in0.0 mm 0.00 in/hr0.0 mm/hr 0.23 in5.8 mm
03:51 PM 70.9°F21.6°C 67.8°F19.9°C 90% 7.0 mph SE11.3 kmh SE 13.0 mph20.9 kmh 29.89 in1012.2 mb 0.00 in0.0 mm 0.00 in/hr0.0 mm/hr 0.23 in5.8 mm
03:52 PM 70.8°F21.6°C 68.1°F20.1°C 91% 3.0 mph SE4.8 kmh SE 13.0 mph20.9 kmh 29.89 in1012.2 mb 0.00 in0.0 mm 0.00 in/hr0.0 mm/hr 0.23 in5.8 mm
03:53 PM 70.8°F21.6°C 68.1°F20.1°C 91% 4.0 mph SE6.4 kmh SE 13.0 mph20.9 kmh 29.89 in1012.2 mb 0.00 in0.0 mm 0.00 in/hr0.0 mm/hr 0.23 in5.8 mm
03:54 PM 70.7°F21.5°C 68.0°F20.0°C 91% 5.0 mph ESE8.0 kmh ESE 13.0 mph20.9 kmh 29.89 in1012.2 mb 0.00 in0.0 mm 0.00 in/hr0.0 mm/hr 0.23 in5.8 mm
03:55 PM 70.6°F21.4°C 67.9°F19.9°C 91% 7.0 mph ESE11.3 kmh ESE 13.0 mph20.9 kmh 29.89 in1012.2 mb 0.00 in0.0 mm 0.00 in/hr0.0 mm/hr 0.23 in5.8 mm
03:56 PM 70.6°F21.4°C 67.9°F19.9°C 91% 7.0 mph SE11.3 kmh SE 13.0 mph20.9 kmh 29.89 in1012.2 mb 0.00 in0.0 mm 0.00 in/hr0.0 mm/hr 0.23 in5.8 mm
03:57 PM 70.5°F21.4°C 67.8°F19.9°C 91% 5.0 mph SE8.0 kmh SE 13.0 mph20.9 kmh 29.89 in1012.2 mb 0.00 in0.0 mm 0.00 in/hr0.0 mm/hr 0.23 in5.8 mm
03:58 PM 70.4°F21.3°C 68.0°F20.0°C 92% 5.0 mph SE8.0 kmh SE 13.0 mph20.9 kmh 29.89 in1012.2 mb 0.00 in0.0 mm 0.00 in/hr0.0 mm/hr 0.23 in5.8 mm
03:59 PM 70.4°F21.3°C 68.0°F20.0°C 92% 8.0 mph SE12.9 kmh SE 13.0 mph20.9 kmh 29.89 in1012.2 mb 0.00 in0.0 mm 0.00 in/hr0.0 mm/hr 0.23 in5.8 mm
04:00 PM 70.4°F21.3°C 68.0°F20.0°C 92% 4.0 mph SE6.4 kmh SE 13.0 mph20.9 kmh 29.89 in1012.2 mb 0.00 in0.0 mm 0.00 in/hr0.0 mm/hr 0.23 in5.8 mm
04:01 PM 70.3°F21.3°C 67.9°F19.9°C 92% 6.0 mph SE9.7 kmh SE 7.0 mph11.3 kmh 29.89 in1012.2 mb 0.00 in0.0 mm 0.00 in/hr0.0 mm/hr 0.23 in5.8 mm
04:02 PM 70.3°F21.3°C 67.6°F19.8°C 91% 8.0 mph SE12.9 kmh SE 10.0 mph16.1 kmh 29.89 in1012.2 mb 0.00 in0.0 mm 0.00 in/hr0.0 mm/hr 0.23 in5.8 mm
04:03 PM 70.3°F21.3°C 67.6°F19.8°C 91% 8.0 mph SE12.9 kmh SE 10.0 mph16.1 kmh 29.89 in1012.2 mb 0.00 in0.0 mm 0.00 in/hr0.0 mm/hr 0.23 in5.8 mm
04:04 PM 70.2°F21.2°C 67.5°F19.7°C 91% 7.0 mph SE11.3 kmh SE 10.0 mph16.1 kmh 29.89 in1012.2 mb 0.00 in0.0 mm 0.00 in/hr0.0 mm/hr 0.23 in5.8 mm
04:05 PM 70.2°F21.2°C 67.8°F19.9°C 92% 7.0 mph E11.3 kmh E 10.0 mph16.1 kmh 29.89 in1012.2 mb 0.00 in0.0 mm 0.00 in/hr0.0 mm/hr 0.23 in5.8 mm
04:06 PM 70.1°F21.2°C 67.7°F19.8°C 92% 7.0 mph SE11.3 kmh SE 10.0 mph16.1 kmh 29.89 in1012.2 mb 0.00 in0.0 mm 0.00 in/hr0.0 mm/hr 0.23 in5.8 mm
04:07 PM 70.1°F21.2°C 67.7°F19.8°C 92% 4.0 mph ESE6.4 kmh ESE 10.0 mph16.1 kmh 29.89 in1012.2 mb 0.00 in0.0 mm 0.00 in/hr0.0 mm/hr 0.23 in5.8 mm
04:08 PM 70.1°F21.2°C 67.7°F19.8°C 92% 5.0 mph SE8.0 kmh SE 10.0 mph16.1 kmh 29.89 in1012.2 mb 0.00 in0.0 mm 0.00 in/hr0.0 mm/hr 0.23 in5.8 mm
04:09 PM 70.1°F21.2°C 67.7°F19.8°C 92% 3.0 mph SSE4.8 kmh SSE 10.0 mph16.1 kmh 29.89 in1012.2 mb 0.00 in0.0 mm 0.00 in/hr0.0 mm/hr 0.23 in5.8 mm
04:10 PM 70.1°F21.2°C 68.0°F20.0°C 93% 9.0 mph SE14.5 kmh SE 10.0 mph16.1 kmh 29.89 in1012.2 mb 0.00 in0.0 mm 0.00 in/hr0.0 mm/hr 0.23 in5.8 mm
04:11 PM 70.0°F21.1°C 67.6°F19.8°C 92% 7.0 mph SE11.3 kmh SE 10.0 mph16.1 kmh 29.89 in1012.2 mb 0.00 in0.0 mm 0.00 in/hr0.0 mm/hr 0.23 in5.8 mm
04:12 PM 70.0°F21.1°C 67.6°F19.8°C 92% 4.0 mph SE6.4 kmh SE 10.0 mph16.1 kmh 29.89 in1012.2 mb 0.00 in0.0 mm 0.00 in/hr0.0 mm/hr 0.23 in5.8 mm
04:13 PM 70.1°F21.2°C 67.7°F19.8°C 92% 5.0 mph SE8.0 kmh SE 10.0 mph16.1 kmh 29.89 in1012.2 mb 0.00 in0.0 mm 0.00 in/hr0.0 mm/hr 0.23 in5.8 mm
04:14 PM 70.1°F21.2°C 67.7°F19.8°C 92% 7.0 mph SE11.3 kmh SE 10.0 mph16.1 kmh 29.89 in1012.2 mb 0.00 in0.0 mm 0.00 in/hr0.0 mm/hr 0.23 in5.8 mm
04:15 PM 70.0°F21.1°C 67.6°F19.8°C 92% 9.0 mph SSE14.5 kmh SSE 10.0 mph16.1 kmh 29.89 in1012.2 mb 0.00 in0.0 mm 0.00 in/hr0.0 mm/hr 0.23 in5.8 mm
04:16 PM 70.0°F21.1°C 67.6°F19.8°C 92% 7.0 mph SE11.3 kmh SE 10.0 mph16.1 kmh 29.89 in1012.2 mb 0.00 in0.0 mm 0.00 in/hr0.0 mm/hr 0.23 in5.8 mm
04:17 PM 70.0°F21.1°C 67.6°F19.8°C 92% 6.0 mph SE9.7 kmh SE 10.0 mph16.1 kmh 29.89 in1012.2 mb 0.00 in0.0 mm 0.00 in/hr0.0 mm/hr 0.23 in5.8 mm
04:18 PM 70.0°F21.1°C 67.6°F19.8°C 92% 7.0 mph SE11.3 kmh SE 10.0 mph16.1 kmh 29.89 in1012.2 mb 0.00 in0.0 mm 0.00 in/hr0.0 mm/hr 0.23 in5.8 mm
04:19 PM 70.0°F21.1°C 67.6°F19.8°C 92% 4.0 mph SSE6.4 kmh SSE 11.0 mph17.7 kmh 29.89 in1012.2 mb 0.00 in0.0 mm 0.00 in/hr0.0 mm/hr 0.23 in5.8 mm
04:20 PM 69.9°F21.1°C 67.5°F19.7°C 92% 7.0 mph ESE11.3 kmh ESE 11.0 mph17.7 kmh 29.89 in1012.2 mb 0.00 in0.0 mm 0.00 in/hr0.0 mm/hr 0.23 in5.8 mm
04:21 PM 69.9°F21.1°C 67.5°F19.7°C 92% 4.0 mph SE6.4 kmh SE 11.0 mph17.7 kmh 29.89 in1012.2 mb 0.00 in0.0 mm 0.00 in/hr0.0 mm/hr 0.23 in5.8 mm
04:22 PM 69.9°F21.1°C 67.5°F19.7°C 92% 5.0 mph SE8.0 kmh SE 11.0 mph17.7 kmh 29.89 in1012.2 mb 0.00 in0.0 mm 0.00 in/hr0.0 mm/hr 0.23 in5.8 mm
04:23 PM 69.9°F21.1°C 67.5°F19.7°C 92% 6.0 mph SE9.7 kmh SE 11.0 mph17.7 kmh 29.89 in1012.2 mb 0.00 in0.0 mm 0.00 in/hr0.0 mm/hr 0.23 in5.8 mm
04:24 PM 69.9°F21.1°C 67.5°F19.7°C 92% 6.0 mph SE9.7 kmh SE 11.0 mph17.7 kmh 29.89 in1012.2 mb 0.00 in0.0 mm 0.00 in/hr0.0 mm/hr 0.23 in5.8 mm
04:25 PM 69.9°F21.1°C 67.5°F19.7°C 92% 9.0 mph SE14.5 kmh SE 11.0 mph17.7 kmh 29.89 in1012.2 mb 0.00 in0.0 mm 0.00 in/hr0.0 mm/hr 0.23 in5.8 mm
04:26 PM 69.9°F21.1°C 67.5°F19.7°C 92% 4.0 mph ESE6.4 kmh ESE 11.0 mph17.7 kmh 29.89 in1012.2 mb 0.00 in0.0 mm 0.00 in/hr0.0 mm/hr 0.23 in5.8 mm
04:27 PM 69.9°F21.1°C 67.5°F19.7°C 92% 5.0 mph SE8.0 kmh SE 11.0 mph17.7 kmh 29.89 in1012.2 mb 0.00 in0.0 mm 0.00 in/hr0.0 mm/hr 0.23 in5.8 mm
04:28 PM 69.9°F21.1°C 67.5°F19.7°C 92% 4.0 mph SE6.4 kmh SE 11.0 mph17.7 kmh 29.89 in1012.2 mb 0.00 in0.0 mm 0.00 in/hr0.0 mm/hr 0.23 in5.8 mm
04:29 PM 69.9°F21.1°C 67.5°F19.7°C 92% 8.0 mph SE12.9 kmh SE 11.0 mph17.7 kmh 29.89 in1012.2 mb 0.00 in0.0 mm 0.00 in/hr0.0 mm/hr 0.23 in5.8 mm
04:30 PM 69.9°F21.1°C 67.5°F19.7°C 92% 6.0 mph SE9.7 kmh SE 11.0 mph17.7 kmh 29.89 in1012.2 mb 0.00 in0.0 mm 0.00 in/hr0.0 mm/hr 0.23 in5.8 mm
04:31 PM 69.9°F21.1°C 67.5°F19.7°C 92% 4.0 mph SE6.4 kmh SE 5.0 mph8.0 kmh 29.89 in1012.2 mb 0.00 in0.0 mm 0.00 in/hr0.0 mm/hr 0.23 in5.8 mm
04:32 PM 69.9°F21.1°C 67.5°F19.7°C 92% 5.0 mph SE8.0 kmh SE 5.0 mph8.0 kmh 29.88 in1011.9 mb 0.00 in0.0 mm 0.00 in/hr0.0 mm/hr 0.23 in5.8 mm
04:33 PM 69.9°F21.1°C 67.5°F19.7°C 92% 4.0 mph SE6.4 kmh SE 6.0 mph9.7 kmh 29.89 in1012.2 mb 0.00 in0.0 mm 0.00 in/hr0.0 mm/hr 0.23 in5.8 mm
04:34 PM 69.9°F21.1°C 67.5°F19.7°C 92% 9.0 mph SE14.5 kmh SE 10.0 mph16.1 kmh 29.89 in1012.2 mb 0.00 in0.0 mm 0.00 in/hr0.0 mm/hr 0.23 in5.8 mm
04:35 PM 69.9°F21.1°C 67.5°F19.7°C 92% 9.0 mph ESE14.5 kmh ESE 10.0 mph16.1 kmh 29.89 in1012.2 mb 0.00 in0.0 mm 0.00 in/hr0.0 mm/hr 0.23 in5.8 mm
04:36 PM 69.8°F21.0°C 67.4°F19.7°C 92% 8.0 mph SE12.9 kmh SE 10.0 mph16.1 kmh 29.89 in1012.2 mb 0.00 in0.0 mm 0.00 in/hr0.0 mm/hr 0.23 in5.8 mm
04:37 PM 69.8°F21.0°C 67.4°F19.7°C 92% 5.0 mph SSE8.0 kmh SSE 10.0 mph16.1 kmh 29.89 in1012.2 mb 0.00 in0.0 mm 0.00 in/hr0.0 mm/hr 0.23 in5.8 mm
04:38 PM 69.8°F21.0°C 67.4°F19.7°C 92% 8.0 mph ESE12.9 kmh ESE 10.0 mph16.1 kmh 29.88 in1011.9 mb 0.00 in0.0 mm 0.00 in/hr0.0 mm/hr 0.23 in5.8 mm
04:39 PM 69.8°F21.0°C 67.4°F19.7°C 92% 11.0 mph SE17.7 kmh SE 12.0 mph19.3 kmh 29.89 in1012.2 mb 0.00 in0.0 mm 0.00 in/hr0.0 mm/hr 0.23 in5.8 mm
04:40 PM 69.8°F21.0°C 67.4°F19.7°C 92% 7.0 mph ESE11.3 kmh ESE 12.0 mph19.3 kmh 29.88 in1011.9 mb 0.00 in0.0 mm 0.00 in/hr0.0 mm/hr 0.23 in5.8 mm
04:41 PM 69.8°F21.0°C 67.4°F19.7°C 92% 9.0 mph ESE14.5 kmh ESE 12.0 mph19.3 kmh 29.88 in1011.9 mb 0.00 in0.0 mm 0.00 in/hr0.0 mm/hr 0.23 in5.8 mm
04:42 PM 69.7°F20.9°C 67.3°F19.6°C 92% 4.0 mph SE6.4 kmh SE 12.0 mph19.3 kmh 29.88 in1011.9 mb 0.00 in0.0 mm 0.00 in/hr0.0 mm/hr 0.23 in5.8 mm
04:43 PM 69.7°F20.9°C 67.3°F19.6°C 92% 5.0 mph SSE8.0 kmh SSE 12.0 mph19.3 kmh 29.88 in1011.9 mb 0.00 in0.0 mm 0.00 in/hr0.0 mm/hr 0.23 in5.8 mm
04:44 PM 69.7°F20.9°C 67.3°F19.6°C 92% 7.0 mph ESE11.3 kmh ESE 12.0 mph19.3 kmh 29.88 in1011.9 mb 0.00 in0.0 mm 0.00 in/hr0.0 mm/hr 0.23 in5.8 mm
04:45 PM 69.7°F20.9°C 67.3°F19.6°C 92% 5.0 mph SE8.0 kmh SE 12.0 mph19.3 kmh 29.88 in1011.9 mb 0.00 in0.0 mm 0.00 in/hr0.0 mm/hr 0.23 in5.8 mm
04:46 PM 69.7°F20.9°C 67.3°F19.6°C 92% 4.0 mph ESE6.4 kmh ESE 12.0 mph19.3 kmh 29.88 in1011.9 mb 0.00 in0.0 mm 0.00 in/hr0.0 mm/hr 0.23 in5.8 mm
04:47 PM 69.7°F20.9°C 67.3°F19.6°C 92% 5.0 mph SE8.0 kmh SE 12.0 mph19.3 kmh 29.88 in1011.9 mb 0.00 in0.0 mm 0.00 in/hr0.0 mm/hr 0.23 in5.8 mm
04:48 PM 69.7°F20.9°C 67.6°F19.8°C 93% 5.0 mph SE8.0 kmh SE 12.0 mph19.3 kmh 29.88 in1011.9 mb 0.00 in0.0 mm 0.00 in/hr0.0 mm/hr 0.23 in5.8 mm
04:49 PM 69.7°F20.9°C 67.3°F19.6°C 92% 5.0 mph E8.0 kmh E 12.0 mph19.3 kmh 29.88 in1011.9 mb 0.00 in0.0 mm 0.00 in/hr0.0 mm/hr 0.23 in5.8 mm
04:50 PM 69.7°F20.9°C 67.6°F19.8°C 93% 5.0 mph ESE8.0 kmh ESE 12.0 mph19.3 kmh 29.88 in1011.9 mb 0.00 in0.0 mm 0.00 in/hr0.0 mm/hr 0.23 in5.8 mm
04:51 PM 69.6°F20.9°C 67.2°F19.6°C 92% 6.0 mph SE9.7 kmh SE 12.0 mph19.3 kmh 29.88 in1011.9 mb 0.00 in0.0 mm 0.00 in/hr0.0 mm/hr 0.23 in5.8 mm
04:52 PM 69.6°F20.9°C 67.5°F19.7°C 93% 3.0 mph SE4.8 kmh SE 12.0 mph19.3 kmh 29.88 in1011.9 mb 0.00 in0.0 mm 0.00 in/hr0.0 mm/hr 0.23 in5.8 mm
04:53 PM 69.5°F20.8°C 67.4°F19.7°C 93% 9.0 mph ESE14.5 kmh ESE 12.0 mph19.3 kmh 29.88 in1011.9 mb 0.00 in0.0 mm 0.00 in/hr0.0 mm/hr 0.23 in5.8 mm
04:54 PM 69.5°F20.8°C 67.4°F19.7°C 93% 5.0 mph SE8.0 kmh SE 12.0 mph19.3 kmh 29.88 in1011.9 mb 0.00 in0.0 mm 0.00 in/hr0.0 mm/hr 0.23 in5.8 mm
04:55 PM 69.4°F20.8°C 67.3°F19.6°C 93% 6.0 mph SE9.7 kmh SE 12.0 mph19.3 kmh 29.88 in1011.9 mb 0.00 in0.0 mm 0.00 in/hr0.0 mm/hr 0.23 in5.8 mm
04:56 PM 69.4°F20.8°C 67.3°F19.6°C 93% 3.0 mph SE4.8 kmh SE 12.0 mph19.3 kmh 29.88 in1011.9 mb 0.00 in0.0 mm 0.00 in/hr0.0 mm/hr 0.23 in5.8 mm
04:57 PM 69.3°F20.7°C 67.2°F19.6°C 93% 2.0 mph SE3.2 kmh SE 12.0 mph19.3 kmh 29.88 in1011.9 mb 0.00 in0.0 mm 0.00 in/hr0.0 mm/hr 0.23 in5.8 mm
04:58 PM 69.3°F20.7°C 67.2°F19.6°C 93% 2.0 mph ESE3.2 kmh ESE 12.0 mph19.3 kmh 29.88 in1011.9 mb 0.00 in0.0 mm 0.00 in/hr0.0 mm/hr 0.23 in5.8 mm
04:59 PM 69.3°F20.7°C 67.2°F19.6°C 93% 3.0 mph SSE4.8 kmh SSE 12.0 mph19.3 kmh 29.88 in1011.9 mb 0.00 in0.0 mm 0.00 in/hr0.0 mm/hr 0.23 in5.8 mm
05:00 PM 69.3°F20.7°C 67.5°F19.7°C 94% 7.0 mph ESE11.3 kmh ESE 12.0 mph19.3 kmh 29.88 in1011.9 mb 0.00 in0.0 mm 0.00 in/hr0.0 mm/hr 0.23 in5.8 mm
05:01 PM 69.2°F20.7°C 67.4°F19.7°C 94% 2.0 mph SE3.2 kmh SE 7.0 mph11.3 kmh 29.88 in1011.9 mb 0.00 in0.0 mm 0.00 in/hr0.0 mm/hr 0.23 in5.8 mm
05:02 PM 69.2°F20.7°C 67.4°F19.7°C 94% 3.0 mph SE4.8 kmh SE 7.0 mph11.3 kmh 29.88 in1011.9 mb 0.00 in0.0 mm 0.00 in/hr0.0 mm/hr 0.23 in5.8 mm
05:03 PM 69.2°F20.7°C 67.4°F19.7°C 94% 3.0 mph SE4.8 kmh SE 7.0 mph11.3 kmh 29.88 in1011.9 mb 0.00 in0.0 mm 0.00 in/hr0.0 mm/hr 0.23 in5.8 mm
05:04 PM 69.2°F20.7°C 67.4°F19.7°C 94% 4.0 mph SE6.4 kmh SE 8.0 mph12.9 kmh 29.88 in1011.9 mb 0.00 in0.0 mm 0.00 in/hr0.0 mm/hr 0.23 in5.8 mm
05:05 PM 69.2°F20.7°C 67.4°F19.7°C 94% 4.0 mph SE6.4 kmh SE 8.0 mph12.9 kmh 29.88 in1011.9 mb 0.00 in0.0 mm 0.00 in/hr0.0 mm/hr 0.23 in5.8 mm
05:06 PM 69.2°F20.7°C 67.4°F19.7°C 94% 8.0 mph SE12.9 kmh SE 8.0 mph12.9 kmh 29.88 in1011.9 mb 0.00 in0.0 mm 0.00 in/hr0.0 mm/hr 0.23 in5.8 mm
05:07 PM 69.2°F20.7°C 67.4°F19.7°C 94% 5.0 mph E8.0 kmh E 8.0 mph12.9 kmh 29.88 in1011.9 mb 0.00 in0.0 mm 0.00 in/hr0.0 mm/hr 0.23 in5.8 mm
05:08 PM 69.2°F20.7°C 67.4°F19.7°C 94% 5.0 mph ESE8.0 kmh ESE 8.0 mph12.9 kmh 29.88 in1011.9 mb 0.00 in0.0 mm 0.00 in/hr0.0 mm/hr 0.23 in5.8 mm
05:09 PM 69.2°F20.7°C 67.4°F19.7°C 94% 8.0 mph SE12.9 kmh SE 8.0 mph12.9 kmh 29.88 in1011.9 mb 0.00 in0.0 mm 0.00 in/hr0.0 mm/hr 0.23 in5.8 mm
05:10 PM 69.2°F20.7°C 67.4°F19.7°C 94% 5.0 mph SE8.0 kmh SE 9.0 mph14.5 kmh 29.88 in1011.9 mb 0.00 in0.0 mm 0.00 in/hr0.0 mm/hr 0.23 in5.8 mm
05:11 PM 69.2°F20.7°C 67.4°F19.7°C 94% 5.0 mph ESE8.0 kmh ESE 9.0 mph14.5 kmh 29.88 in1011.9 mb 0.00 in0.0 mm 0.00 in/hr0.0 mm/hr 0.23 in5.8 mm
05:12 PM 69.2°F20.7°C 67.4°F19.7°C 94% 4.0 mph ENE6.4 kmh ENE 9.0 mph14.5 kmh 29.88 in1011.9 mb 0.00 in0.0 mm 0.00 in/hr0.0 mm/hr 0.23 in5.8 mm
05:13 PM 69.3°F20.7°C 67.5°F19.7°C 94% 4.0 mph ESE6.4 kmh ESE 9.0 mph14.5 kmh 29.88 in1011.9 mb 0.00 in0.0 mm 0.00 in/hr0.0 mm/hr 0.23 in5.8 mm
05:14 PM 69.3°F20.7°C 67.5°F19.7°C 94% 5.0 mph SE8.0 kmh SE 9.0 mph14.5 kmh 29.88 in1011.9 mb 0.00 in0.0 mm 0.00 in/hr0.0 mm/hr 0.23 in5.8 mm
05:15 PM 69.3°F20.7°C 67.2°F19.6°C 93% 7.0 mph E11.3 kmh E 11.0 mph17.7 kmh 29.88 in1011.9 mb 0.00 in0.0 mm 0.00 in/hr0.0 mm/hr 0.23 in5.8 mm
05:16 PM 69.2°F20.7°C 67.1°F19.5°C 93% 3.0 mph SE4.8 kmh SE 11.0 mph17.7 kmh 29.88 in1011.9 mb 0.00 in0.0 mm 0.00 in/hr0.0 mm/hr 0.23 in5.8 mm
05:17 PM 69.3°F20.7°C 67.2°F19.6°C 93% 4.0 mph ESE6.4 kmh ESE 11.0 mph17.7 kmh 29.88 in1011.9 mb 0.00 in0.0 mm 0.00 in/hr0.0 mm/hr 0.23 in5.8 mm
05:18 PM 69.3°F20.7°C 67.2°F19.6°C 93% 4.0 mph SE6.4 kmh SE 11.0 mph17.7 kmh 29.88 in1011.9 mb 0.00 in0.0 mm 0.00 in/hr0.0 mm/hr 0.23 in5.8 mm
05:19 PM 69.3°F20.7°C 67.2°F19.6°C 93% 7.0 mph ESE11.3 kmh ESE 11.0 mph17.7 kmh 29.88 in1011.9 mb 0.00 in0.0 mm 0.00 in/hr0.0 mm/hr 0.23 in5.8 mm
05:20 PM 69.4°F20.8°C 67.3°F19.6°C 93% 2.0 mph ESE3.2 kmh ESE 11.0 mph17.7 kmh 29.88 in1011.9 mb 0.00 in0.0 mm 0.00 in/hr0.0 mm/hr 0.23 in5.8 mm
05:21 PM 69.4°F20.8°C 67.3°F19.6°C 93% 5.0 mph ESE8.0 kmh ESE 11.0 mph17.7 kmh 29.88 in1011.9 mb 0.00 in0.0 mm 0.00 in/hr0.0 mm/hr 0.23 in5.8 mm
05:22 PM 69.4°F20.8°C 67.3°F19.6°C 93% 4.0 mph SE6.4 kmh SE 11.0 mph17.7 kmh 29.88 in1011.9 mb 0.00 in0.0 mm 0.00 in/hr0.0 mm/hr 0.23 in5.8 mm
05:23 PM 69.4°F20.8°C 67.3°F19.6°C 93% 5.0 mph SE8.0 kmh SE 11.0 mph17.7 kmh 29.88 in1011.9 mb 0.00 in0.0 mm 0.00 in/hr0.0 mm/hr 0.23 in5.8 mm
05:24 PM 69.3°F20.7°C 67.2°F19.6°C 93% 7.0 mph SE11.3 kmh SE 11.0 mph17.7 kmh 29.88 in1011.9 mb 0.00 in0.0 mm 0.00 in/hr0.0 mm/hr 0.23 in5.8 mm
05:25 PM 69.3°F20.7°C 67.2°F19.6°C 93% 4.0 mph SSE6.4 kmh SSE 11.0 mph17.7 kmh 29.88 in1011.9 mb 0.00 in0.0 mm 0.00 in/hr0.0 mm/hr 0.23 in5.8 mm
05:26 PM 69.3°F20.7°C 67.2°F19.6°C 93% 7.0 mph ESE11.3 kmh ESE 11.0 mph17.7 kmh 29.88 in1011.9 mb 0.00 in0.0 mm 0.00 in/hr0.0 mm/hr 0.23 in5.8 mm
05:27 PM 69.3°F20.7°C 67.2°F19.6°C 93% 8.0 mph SE12.9 kmh SE 11.0 mph17.7 kmh 29.88 in1011.9 mb 0.00 in0.0 mm 0.00 in/hr0.0 mm/hr 0.23 in5.8 mm
05:28 PM 69.2°F20.7°C 67.1°F19.5°C 93% 6.0 mph SE9.7 kmh SE 11.0 mph17.7 kmh 29.88 in1011.9 mb 0.00 in0.0 mm 0.00 in/hr0.0 mm/hr 0.23 in5.8 mm
05:29 PM 69.2°F20.7°C 67.1°F19.5°C 93% 5.0 mph SE8.0 kmh SE 11.0 mph17.7 kmh 29.88 in1011.9 mb 0.00 in0.0 mm 0.00 in/hr0.0 mm/hr 0.23 in5.8 mm
05:30 PM 69.2°F20.7°C 67.1°F19.5°C 93% 5.0 mph SE8.0 kmh SE 11.0 mph17.7 kmh 29.88 in1011.9 mb 0.00 in0.0 mm 0.00 in/hr0.0 mm/hr 0.23 in5.8 mm
05:31 PM 69.1°F20.6°C 67.0°F19.4°C 93% 7.0 mph SE11.3 kmh SE 12.0 mph19.3 kmh 29.88 in1011.9 mb 0.00 in0.0 mm 0.00 in/hr0.0 mm/hr 0.23 in5.8 mm
05:32 PM 69.1°F20.6°C 67.0°F19.4°C 93% 8.0 mph ESE12.9 kmh ESE 12.0 mph19.3 kmh 29.88 in1011.9 mb 0.00 in0.0 mm 0.00 in/hr0.0 mm/hr 0.23 in5.8 mm
05:33 PM 69.0°F20.6°C 66.9°F19.4°C 93% 7.0 mph SE11.3 kmh SE 12.0 mph19.3 kmh 29.88 in1011.9 mb 0.00 in0.0 mm 0.00 in/hr0.0 mm/hr 0.23 in5.8 mm
05:34 PM 69.0°F20.6°C 66.9°F19.4°C 93% 3.0 mph SE4.8 kmh SE 12.0 mph19.3 kmh 29.88 in1011.9 mb 0.00 in0.0 mm 0.00 in/hr0.0 mm/hr 0.23 in5.8 mm
05:35 PM 69.0°F20.6°C 66.9°F19.4°C 93% 5.0 mph SE8.0 kmh SE 12.0 mph19.3 kmh 29.88 in1011.9 mb 0.00 in0.0 mm 0.00 in/hr0.0 mm/hr 0.23 in5.8 mm
05:36 PM 69.0°F20.6°C 66.9°F19.4°C 93% 8.0 mph SE12.9 kmh SE 12.0 mph19.3 kmh 29.88 in1011.9 mb 0.00 in0.0 mm 0.00 in/hr0.0 mm/hr 0.23 in5.8 mm
05:37 PM 68.9°F20.5°C 66.8°F19.3°C 93% 9.0 mph SE14.5 kmh SE 12.0 mph19.3 kmh 29.88 in1011.9 mb 0.00 in0.0 mm 0.00 in/hr0.0 mm/hr 0.23 in5.8 mm
05:38 PM 68.8°F20.4°C 66.7°F19.3°C 93% 6.0 mph E9.7 kmh E 12.0 mph19.3 kmh 29.88 in1011.9 mb 0.00 in0.0 mm 0.00 in/hr0.0 mm/hr 0.23 in5.8 mm
05:39 PM 68.8°F20.4°C 66.7°F19.3°C 93% 5.0 mph ESE8.0 kmh ESE 12.0 mph19.3 kmh 29.88 in1011.9 mb 0.00 in0.0 mm 0.00 in/hr0.0 mm/hr 0.23 in5.8 mm
05:40 PM 68.8°F20.4°C 67.0°F19.4°C 94% 3.0 mph ESE4.8 kmh ESE 12.0 mph19.3 kmh 29.88 in1011.9 mb 0.00 in0.0 mm 0.00 in/hr0.0 mm/hr 0.23 in5.8 mm
05:41 PM 68.8°F20.4°C 67.0°F19.4°C 94% 4.0 mph ESE6.4 kmh ESE 12.0 mph19.3 kmh 29.88 in1011.9 mb 0.00 in0.0 mm 0.00 in/hr0.0 mm/hr 0.23 in5.8 mm
05:42 PM 68.7°F20.4°C 66.9°F19.4°C 94% 8.0 mph ENE12.9 kmh ENE 12.0 mph19.3 kmh 29.88 in1011.9 mb 0.00 in0.0 mm 0.00 in/hr0.0 mm/hr 0.23 in5.8 mm
05:43 PM 68.7°F20.4°C 66.9°F19.4°C 94% 7.0 mph ESE11.3 kmh ESE 12.0 mph19.3 kmh 29.88 in1011.9 mb 0.00 in0.0 mm 0.00 in/hr0.0 mm/hr 0.23 in5.8 mm
05:44 PM 68.6°F20.3°C 66.8°F19.3°C 94% 4.0 mph ESE6.4 kmh ESE 12.0 mph19.3 kmh 29.88 in1011.9 mb 0.00 in0.0 mm 0.00 in/hr0.0 mm/hr 0.23 in5.8 mm
05:45 PM 68.6°F20.3°C 66.8°F19.3°C 94% 3.0 mph SE4.8 kmh SE 12.0 mph19.3 kmh 29.88 in1011.9 mb 0.00 in0.0 mm 0.00 in/hr0.0 mm/hr 0.23 in5.8 mm
05:46 PM 68.5°F20.3°C 66.7°F19.3°C 94% 4.0 mph SE6.4 kmh SE 12.0 mph19.3 kmh 29.88 in1011.9 mb 0.00 in0.0 mm 0.00 in/hr0.0 mm/hr 0.23 in5.8 mm
05:47 PM 68.5°F20.3°C 66.7°F19.3°C 94% 3.0 mph ESE4.8 kmh ESE 12.0 mph19.3 kmh 29.88 in1011.9 mb 0.00 in0.0 mm 0.00 in/hr0.0 mm/hr 0.23 in5.8 mm
05:48 PM 68.5°F20.3°C 66.7°F19.3°C 94% 9.0 mph SE14.5 kmh SE 12.0 mph19.3 kmh 29.88 in1011.9 mb 0.00 in0.0 mm 0.00 in/hr0.0 mm/hr 0.23 in5.8 mm
05:49 PM 68.4°F20.2°C 66.6°F19.2°C 94% 5.0 mph SE8.0 kmh SE 12.0 mph19.3 kmh 29.88 in1011.9 mb 0.00 in0.0 mm 0.00 in/hr0.0 mm/hr 0.23 in5.8 mm
05:50 PM 68.4°F20.2°C 66.6°F19.2°C 94% 5.0 mph SE8.0 kmh SE 12.0 mph19.3 kmh 29.88 in1011.9 mb 0.00 in0.0 mm 0.00 in/hr0.0 mm/hr 0.23 in5.8 mm
05:51 PM 68.4°F20.2°C 66.6°F19.2°C 94% 7.0 mph E11.3 kmh E 12.0 mph19.3 kmh 29.88 in1011.9 mb 0.00 in0.0 mm 0.00 in/hr0.0 mm/hr 0.23 in5.8 mm
05:52 PM 68.4°F20.2°C 66.6°F19.2°C 94% 5.0 mph SE8.0 kmh SE 12.0 mph19.3 kmh 29.88 in1011.9 mb 0.00 in0.0 mm 0.00 in/hr0.0 mm/hr 0.23 in5.8 mm
05:53 PM 68.4°F20.2°C 66.6°F19.2°C 94% 8.0 mph SE12.9 kmh SE 12.0 mph19.3 kmh 29.88 in1011.9 mb 0.00 in0.0 mm 0.00 in/hr0.0 mm/hr 0.23 in5.8 mm
05:54 PM 68.4°F20.2°C 66.6°F19.2°C 94% 4.0 mph SE6.4 kmh SE 12.0 mph19.3 kmh 29.88 in1011.9 mb 0.00 in0.0 mm 0.00 in/hr0.0 mm/hr 0.23 in5.8 mm
05:55 PM 68.4°F20.2°C 66.6°F19.2°C 94% 4.0 mph ESE6.4 kmh ESE 12.0 mph19.3 kmh 29.88 in1011.9 mb 0.00 in0.0 mm 0.00 in/hr0.0 mm/hr 0.23 in5.8 mm
05:56 PM 68.4°F20.2°C 66.6°F19.2°C 94% 5.0 mph SE8.0 kmh SE 12.0 mph19.3 kmh 29.88 in1011.9 mb 0.00 in0.0 mm 0.00 in/hr0.0 mm/hr 0.23 in5.8 mm
05:57 PM 68.4°F20.2°C 66.6°F19.2°C 94% 6.0 mph SE9.7 kmh SE 12.0 mph19.3 kmh 29.88 in1011.9 mb 0.00 in0.0 mm 0.00 in/hr0.0 mm/hr 0.23 in5.8 mm
05:58 PM 68.4°F20.2°C 66.6°F19.2°C 94% 5.0 mph ESE8.0 kmh ESE 12.0 mph19.3 kmh 29.88 in1011.9 mb 0.00 in0.0 mm 0.00 in/hr0.0 mm/hr 0.23 in5.8 mm
05:59 PM 68.4°F20.2°C 66.6°F19.2°C 94% 8.0 mph ESE12.9 kmh ESE 12.0 mph19.3 kmh 29.88 in1011.9 mb 0.00 in0.0 mm 0.00 in/hr0.0 mm/hr 0.23 in5.8 mm
06:00 PM 68.4°F20.2°C 66.6°F19.2°C 94% 6.0 mph SE9.7 kmh SE 12.0 mph19.3 kmh 29.88 in1011.9 mb 0.00 in0.0 mm 0.00 in/hr0.0 mm/hr 0.23 in5.8 mm
06:01 PM 68.5°F20.3°C 66.7°F19.3°C 94% 3.0 mph SE4.8 kmh SE 5.0 mph8.0 kmh 29.88 in1011.9 mb 0.00 in0.0 mm 0.00 in/hr0.0 mm/hr 0.23 in5.8 mm
06:02 PM 68.5°F20.3°C 66.7°F19.3°C 94% 7.0 mph SE11.3 kmh SE 10.0 mph16.1 kmh 29.88 in1011.9 mb 0.00 in0.0 mm 0.00 in/hr0.0 mm/hr 0.23 in5.8 mm
06:03 PM 68.5°F20.3°C 66.7°F19.3°C 94% 5.0 mph ESE8.0 kmh ESE 10.0 mph16.1 kmh 29.88 in1011.9 mb 0.00 in0.0 mm 0.00 in/hr0.0 mm/hr 0.23 in5.8 mm
06:04 PM 68.5°F20.3°C 66.7°F19.3°C 94% 6.0 mph SE9.7 kmh SE 10.0 mph16.1 kmh 29.87 in1011.5 mb 0.00 in0.0 mm 0.00 in/hr0.0 mm/hr 0.23 in5.8 mm
06:05 PM 68.6°F20.3°C 66.8°F19.3°C 94% 2.0 mph SE3.2 kmh SE 10.0 mph16.1 kmh 29.87 in1011.5 mb 0.00 in0.0 mm 0.00 in/hr0.0 mm/hr 0.23 in5.8 mm
06:06 PM 68.6°F20.3°C 66.8°F19.3°C 94% 4.0 mph SSE6.4 kmh SSE 10.0 mph16.1 kmh 29.87 in1011.5 mb 0.00 in0.0 mm 0.00 in/hr0.0 mm/hr 0.23 in5.8 mm
06:07 PM 68.6°F20.3°C 66.8°F19.3°C 94% 5.0 mph E8.0 kmh E 10.0 mph16.1 kmh 29.87 in1011.5 mb 0.00 in0.0 mm 0.00 in/hr0.0 mm/hr 0.23 in5.8 mm
06:08 PM 68.6°F20.3°C 66.8°F19.3°C 94% 5.0 mph ESE8.0 kmh ESE 10.0 mph16.1 kmh 29.87 in1011.5 mb 0.00 in0.0 mm 0.00 in/hr0.0 mm/hr 0.23 in5.8 mm
06:09 PM 68.5°F20.3°C 66.7°F19.3°C 94% 10.0 mph ESE16.1 kmh ESE 10.0 mph16.1 kmh 29.87 in1011.5 mb 0.00 in0.0 mm 0.00 in/hr0.0 mm/hr 0.23 in5.8 mm
06:10 PM 68.5°F20.3°C 66.7°F19.3°C 94% 7.0 mph ESE11.3 kmh ESE 11.0 mph17.7 kmh 29.87 in1011.5 mb 0.00 in0.0 mm 0.00 in/hr0.0 mm/hr 0.23 in5.8 mm
06:11 PM 68.5°F20.3°C 66.7°F19.3°C 94% 8.0 mph ESE12.9 kmh ESE 11.0 mph17.7 kmh 29.87 in1011.5 mb 0.00 in0.0 mm 0.00 in/hr0.0 mm/hr 0.23 in5.8 mm
06:12 PM 68.4°F20.2°C 66.6°F19.2°C 94% 4.0 mph SE6.4 kmh SE 11.0 mph17.7 kmh 29.87 in1011.5 mb 0.00 in0.0 mm 0.00 in/hr0.0 mm/hr 0.23 in5.8 mm
06:13 PM 68.4°F20.2°C 66.6°F19.2°C 94% 4.0 mph ESE6.4 kmh ESE 12.0 mph19.3 kmh 29.87 in1011.5 mb 0.00 in0.0 mm 0.00 in/hr0.0 mm/hr 0.23 in5.8 mm
06:14 PM 68.4°F20.2°C 66.6°F19.2°C 94% 2.0 mph SE3.2 kmh SE 12.0 mph19.3 kmh 29.87 in1011.5 mb 0.00 in0.0 mm 0.00 in/hr0.0 mm/hr 0.23 in5.8 mm
06:15 PM 68.4°F20.2°C 66.6°F19.2°C 94% 7.0 mph ESE11.3 kmh ESE 12.0 mph19.3 kmh 29.87 in1011.5 mb 0.00 in0.0 mm 0.00 in/hr0.0 mm/hr 0.23 in5.8 mm
06:16 PM 68.4°F20.2°C 66.6°F19.2°C 94% 5.0 mph ESE8.0 kmh ESE 12.0 mph19.3 kmh 29.87 in1011.5 mb 0.00 in0.0 mm 0.00 in/hr0.0 mm/hr 0.23 in5.8 mm
06:17 PM 68.4°F20.2°C 66.6°F19.2°C 94% 3.0 mph ESE4.8 kmh ESE 12.0 mph19.3 kmh 29.87 in1011.5 mb 0.00 in0.0 mm 0.00 in/hr0.0 mm/hr 0.23 in5.8 mm
06:18 PM 68.4°F20.2°C 66.6°F19.2°C 94% 5.0 mph SE8.0 kmh SE 12.0 mph19.3 kmh 29.87 in1011.5 mb 0.00 in0.0 mm 0.00 in/hr0.0 mm/hr 0.23 in5.8 mm
06:19 PM 68.3°F20.2°C 66.5°F19.2°C 94% 3.0 mph SE4.8 kmh SE 12.0 mph19.3 kmh 29.87 in1011.5 mb 0.00 in0.0 mm 0.00 in/hr0.0 mm/hr 0.23 in5.8 mm
06:20 PM 68.3°F20.2°C 66.5°F19.2°C 94% 4.0 mph SE6.4 kmh SE 12.0 mph19.3 kmh 29.87 in1011.5 mb 0.00 in0.0 mm 0.00 in/hr0.0 mm/hr 0.23 in5.8 mm
06:21 PM 68.3°F20.2°C 66.5°F19.2°C 94% 5.0 mph ESE8.0 kmh ESE 12.0 mph19.3 kmh 29.87 in1011.5 mb 0.00 in0.0 mm 0.00 in/hr0.0 mm/hr 0.23 in5.8 mm
06:22 PM 68.3°F20.2°C 66.5°F19.2°C 94% 4.0 mph SE6.4 kmh SE 12.0 mph19.3 kmh 29.88 in1011.9 mb 0.00 in0.0 mm 0.00 in/hr0.0 mm/hr 0.23 in5.8 mm
06:23 PM 68.3°F20.2°C 66.5°F19.2°C 94% 9.0 mph ESE14.5 kmh ESE 12.0 mph19.3 kmh 29.87 in1011.5 mb 0.00 in0.0 mm 0.00 in/hr0.0 mm/hr 0.23 in5.8 mm
06:24 PM 68.3°F20.2°C 66.8°F19.3°C 95% 4.0 mph SE6.4 kmh SE 12.0 mph19.3 kmh 29.87 in1011.5 mb 0.00 in0.0 mm 0.00 in/hr0.0 mm/hr 0.23 in5.8 mm
06:25 PM 68.3°F20.2°C 66.8°F19.3°C 95% 4.0 mph SE6.4 kmh SE 12.0 mph19.3 kmh 29.87 in1011.5 mb 0.00 in0.0 mm 0.00 in/hr0.0 mm/hr 0.23 in5.8 mm
06:26 PM 68.2°F20.1°C 66.7°F19.3°C 95% 7.0 mph SE11.3 kmh SE 12.0 mph19.3 kmh 29.87 in1011.5 mb 0.00 in0.0 mm 0.00 in/hr0.0 mm/hr 0.23 in5.8 mm
06:27 PM 68.2°F20.1°C 66.7°F19.3°C 95% 4.0 mph ESE6.4 kmh ESE 12.0 mph19.3 kmh 29.87 in1011.5 mb 0.00 in0.0 mm 0.00 in/hr0.0 mm/hr 0.23 in5.8 mm
06:28 PM 68.2°F20.1°C 66.7°F19.3°C 95% 4.0 mph ESE6.4 kmh ESE 12.0 mph19.3 kmh 29.87 in1011.5 mb 0.00 in0.0 mm 0.00 in/hr0.0 mm/hr 0.23 in5.8 mm
06:29 PM 68.1°F20.1°C 66.6°F19.2°C 95% 4.0 mph E6.4 kmh E 12.0 mph19.3 kmh 29.87 in1011.5 mb 0.00 in0.0 mm 0.00 in/hr0.0 mm/hr 0.23 in5.8 mm
06:30 PM 68.1°F20.1°C 66.6°F19.2°C 95% 10.0 mph ESE16.1 kmh ESE 12.0 mph19.3 kmh 29.87 in1011.5 mb 0.00 in0.0 mm 0.00 in/hr0.0 mm/hr 0.23 in5.8 mm
06:31 PM 68.1°F20.1°C 66.6°F19.2°C 95% 4.0 mph E6.4 kmh E 8.0 mph12.9 kmh 29.87 in1011.5 mb 0.00 in0.0 mm 0.00 in/hr0.0 mm/hr 0.23 in5.8 mm
06:32 PM 68.0°F20.0°C 66.5°F19.2°C 95% 4.0 mph SE6.4 kmh SE 9.0 mph14.5 kmh 29.87 in1011.5 mb 0.00 in0.0 mm 0.00 in/hr0.0 mm/hr 0.23 in5.8 mm
06:33 PM 68.0°F20.0°C 66.5°F19.2°C 95% 7.0 mph ESE11.3 kmh ESE 9.0 mph14.5 kmh 29.87 in1011.5 mb 0.00 in0.0 mm 0.00 in/hr0.0 mm/hr 0.23 in5.8 mm
06:34 PM 67.9°F19.9°C 66.4°F19.1°C 95% 6.0 mph SE9.7 kmh SE 10.0 mph16.1 kmh 29.87 in1011.5 mb 0.00 in0.0 mm 0.00 in/hr0.0 mm/hr 0.23 in5.8 mm
06:35 PM 67.9°F19.9°C 66.4°F19.1°C 95% 7.0 mph ESE11.3 kmh ESE 10.0 mph16.1 kmh 29.87 in1011.5 mb 0.00 in0.0 mm 0.00 in/hr0.0 mm/hr 0.23 in5.8 mm
06:36 PM 67.8°F19.9°C 66.3°F19.1°C 95% 4.0 mph SE6.4 kmh SE 10.0 mph16.1 kmh 29.87 in1011.5 mb 0.00 in0.0 mm 0.00 in/hr0.0 mm/hr 0.23 in5.8 mm
06:37 PM 67.8°F19.9°C 66.3°F19.1°C 95% 7.0 mph ESE11.3 kmh ESE 11.0 mph17.7 kmh 29.87 in1011.5 mb 0.00 in0.0 mm 0.00 in/hr0.0 mm/hr 0.23 in5.8 mm
06:38 PM 67.7°F19.8°C 66.2°F19.0°C 95% 8.0 mph SE12.9 kmh SE 11.0 mph17.7 kmh 29.87 in1011.5 mb 0.00 in0.0 mm 0.00 in/hr0.0 mm/hr 0.23 in5.8 mm
06:39 PM 67.8°F19.9°C 66.3°F19.1°C 95% 7.0 mph ESE11.3 kmh ESE 11.0 mph17.7 kmh 29.87 in1011.5 mb 0.00 in0.0 mm 0.00 in/hr0.0 mm/hr 0.23 in5.8 mm
06:40 PM 67.7°F19.8°C 66.2°F19.0°C 95% 7.0 mph ESE11.3 kmh ESE 11.0 mph17.7 kmh 29.87 in1011.5 mb 0.00 in0.0 mm 0.00 in/hr0.0 mm/hr 0.23 in5.8 mm
06:41 PM 67.7°F19.8°C 66.2°F19.0°C 95% 8.0 mph E12.9 kmh E 11.0 mph17.7 kmh 29.87 in1011.5 mb 0.00 in0.0 mm 0.00 in/hr0.0 mm/hr 0.23 in5.8 mm
06:42 PM 67.7°F19.8°C 66.2°F19.0°C 95% 9.0 mph SE14.5 kmh SE 12.0 mph19.3 kmh 29.87 in1011.5 mb 0.00 in0.0 mm 0.00 in/hr0.0 mm/hr 0.23 in5.8 mm
06:43 PM 67.7°F19.8°C 66.2°F19.0°C 95% 7.0 mph SE11.3 kmh SE 12.0 mph19.3 kmh 29.87 in1011.5 mb 0.00 in0.0 mm 0.00 in/hr0.0 mm/hr 0.23 in5.8 mm
06:44 PM 67.7°F19.8°C 66.2°F19.0°C 95% 9.0 mph ESE14.5 kmh ESE 12.0 mph19.3 kmh 29.87 in1011.5 mb 0.00 in0.0 mm 0.00 in/hr0.0 mm/hr 0.23 in5.8 mm
06:45 PM 67.6°F19.8°C 66.1°F18.9°C 95% 10.0 mph ESE16.1 kmh ESE 12.0 mph19.3 kmh 29.87 in1011.5 mb 0.00 in0.0 mm 0.00 in/hr0.0 mm/hr 0.23 in5.8 mm
06:46 PM 67.6°F19.8°C 66.1°F18.9°C 95% 4.0 mph SE6.4 kmh SE 12.0 mph19.3 kmh 29.87 in1011.5 mb 0.00 in0.0 mm 0.00 in/hr0.0 mm/hr 0.23 in5.8 mm
06:47 PM 67.6°F19.8°C 66.1°F18.9°C 95% 9.0 mph ESE14.5 kmh ESE 12.0 mph19.3 kmh 29.87 in1011.5 mb 0.00 in0.0 mm 0.00 in/hr0.0 mm/hr 0.23 in5.8 mm
06:48 PM 67.6°F19.8°C 66.1°F18.9°C 95% 7.0 mph SE11.3 kmh SE 12.0 mph19.3 kmh 29.87 in1011.5 mb 0.00 in0.0 mm 0.00 in/hr0.0 mm/hr 0.23 in5.8 mm
06:49 PM 67.5°F19.7°C 66.0°F18.9°C 95% 10.0 mph SE16.1 kmh SE 12.0 mph19.3 kmh 29.87 in1011.5 mb 0.00 in0.0 mm 0.00 in/hr0.0 mm/hr 0.23 in5.8 mm
06:50 PM 67.6°F19.8°C 66.1°F18.9°C 95% 8.0 mph SE12.9 kmh SE 12.0 mph19.3 kmh 29.87 in1011.5 mb 0.00 in0.0 mm 0.00 in/hr0.0 mm/hr 0.23 in5.8 mm
06:51 PM 67.6°F19.8°C 66.1°F18.9°C 95% 10.0 mph SE16.1 kmh SE 12.0 mph19.3 kmh 29.87 in1011.5 mb 0.00 in0.0 mm 0.00 in/hr0.0 mm/hr 0.23 in5.8 mm
06:52 PM 67.5°F19.7°C 66.0°F18.9°C 95% 7.0 mph SE11.3 kmh SE 12.0 mph19.3 kmh 29.87 in1011.5 mb 0.00 in0.0 mm 0.00 in/hr0.0 mm/hr 0.23 in5.8 mm
06:53 PM 67.5°F19.7°C 66.0°F18.9°C 95% 5.0 mph SE8.0 kmh SE 12.0 mph19.3 kmh 29.87 in1011.5 mb 0.00 in0.0 mm 0.00 in/hr0.0 mm/hr 0.23 in5.8 mm
06:54 PM 67.5°F19.7°C 66.0°F18.9°C 95% 9.0 mph ESE14.5 kmh ESE 12.0 mph19.3 kmh 29.87 in1011.5 mb 0.00 in0.0 mm 0.00 in/hr0.0 mm/hr 0.23 in5.8 mm
06:55 PM 67.5°F19.7°C 66.3°F19.1°C 96% 5.0 mph SE8.0 kmh SE 12.0 mph19.3 kmh 29.87 in1011.5 mb 0.00 in0.0 mm 0.00 in/hr0.0 mm/hr 0.23 in5.8 mm
06:56 PM 67.5°F19.7°C 66.3°F19.1°C 96% 5.0 mph SE8.0 kmh SE 12.0 mph19.3 kmh 29.87 in1011.5 mb 0.00 in0.0 mm 0.00 in/hr0.0 mm/hr 0.23 in5.8 mm
06:57 PM 67.5°F19.7°C 66.3°F19.1°C 96% 5.0 mph SE8.0 kmh SE 12.0 mph19.3 kmh 29.87 in1011.5 mb 0.00 in0.0 mm 0.00 in/hr0.0 mm/hr 0.23 in5.8 mm
06:58 PM 67.5°F19.7°C 66.3°F19.1°C 96% 11.0 mph ESE17.7 kmh ESE 12.0 mph19.3 kmh 29.87 in1011.5 mb 0.00 in0.0 mm 0.00 in/hr0.0 mm/hr 0.23 in5.8 mm
06:59 PM 67.5°F19.7°C 66.3°F19.1°C 96% 5.0 mph SE8.0 kmh SE 12.0 mph19.3 kmh 29.87 in1011.5 mb 0.00 in0.0 mm 0.00 in/hr0.0 mm/hr 0.23 in5.8 mm
07:00 PM 67.5°F19.7°C 66.3°F19.1°C 96% 3.0 mph SE4.8 kmh SE 12.0 mph19.3 kmh 29.87 in1011.5 mb 0.00 in0.0 mm 0.00 in/hr0.0 mm/hr 0.23 in5.8 mm
07:01 PM 67.5°F19.7°C 66.3°F19.1°C 96% 4.0 mph ESE6.4 kmh ESE 5.0 mph8.0 kmh 29.87 in1011.5 mb 0.00 in0.0 mm 0.00 in/hr0.0 mm/hr 0.23 in5.8 mm
07:02 PM 67.5°F19.7°C 66.3°F19.1°C 96% 8.0 mph SE12.9 kmh SE 9.0 mph14.5 kmh 29.87 in1011.5 mb 0.00 in0.0 mm 0.00 in/hr0.0 mm/hr 0.23 in5.8 mm
07:03 PM 67.5°F19.7°C 66.0°F18.9°C 95% 5.0 mph SSE8.0 kmh SSE 10.0 mph16.1 kmh 29.87 in1011.5 mb 0.00 in0.0 mm 0.00 in/hr0.0 mm/hr 0.23 in5.8 mm
07:04 PM 67.5°F19.7°C 66.0°F18.9°C 95% 7.0 mph SE11.3 kmh SE 10.0 mph16.1 kmh 29.87 in1011.5 mb 0.00 in0.0 mm 0.00 in/hr0.0 mm/hr 0.23 in5.8 mm
07:05 PM 67.5°F19.7°C 66.3°F19.1°C 96% 4.0 mph SE6.4 kmh SE 10.0 mph16.1 kmh 29.87 in1011.5 mb 0.00 in0.0 mm 0.00 in/hr0.0 mm/hr 0.23 in5.8 mm
07:06 PM 67.5°F19.7°C 66.0°F18.9°C 95% 6.0 mph SE9.7 kmh SE 10.0 mph16.1 kmh 29.87 in1011.5 mb 0.00 in0.0 mm 0.00 in/hr0.0 mm/hr 0.23 in5.8 mm
07:07 PM 67.5°F19.7°C 66.0°F18.9°C 95% 8.0 mph SE12.9 kmh SE 14.0 mph22.5 kmh 29.87 in1011.5 mb 0.00 in0.0 mm 0.00 in/hr0.0 mm/hr 0.23 in5.8 mm
07:08 PM 67.5°F19.7°C 66.0°F18.9°C 95% 7.0 mph SE11.3 kmh SE 14.0 mph22.5 kmh 29.87 in1011.5 mb 0.00 in0.0 mm 0.00 in/hr0.0 mm/hr 0.23 in5.8 mm
07:09 PM 67.5°F19.7°C 66.0°F18.9°C 95% 4.0 mph SE6.4 kmh SE 14.0 mph22.5 kmh 29.87 in1011.5 mb 0.00 in0.0 mm 0.00 in/hr0.0 mm/hr 0.23 in5.8 mm
07:10 PM 67.6°F19.8°C 66.1°F18.9°C 95% 6.0 mph SE9.7 kmh SE 14.0 mph22.5 kmh 29.87 in1011.5 mb 0.00 in0.0 mm 0.00 in/hr0.0 mm/hr 0.23 in5.8 mm
07:11 PM 67.6°F19.8°C 66.1°F18.9°C 95% 7.0 mph SE11.3 kmh SE 14.0 mph22.5 kmh 29.87 in1011.5 mb 0.00 in0.0 mm 0.00 in/hr0.0 mm/hr 0.23 in5.8 mm
07:12 PM 67.6°F19.8°C 66.1°F18.9°C 95% 3.0 mph ESE4.8 kmh ESE 14.0 mph22.5 kmh 29.87 in1011.5 mb 0.00 in0.0 mm 0.00 in/hr0.0 mm/hr 0.23 in5.8 mm
07:13 PM 67.6°F19.8°C 66.1°F18.9°C 95% 2.0 mph SE3.2 kmh SE 14.0 mph22.5 kmh 29.87 in1011.5 mb 0.00 in0.0 mm 0.00 in/hr0.0 mm/hr 0.23 in5.8 mm
07:14 PM 67.6°F19.8°C 66.1°F18.9°C 95% 5.0 mph ESE8.0 kmh ESE 14.0 mph22.5 kmh 29.87 in1011.5 mb 0.00 in0.0 mm 0.00 in/hr0.0 mm/hr 0.23 in5.8 mm
07:15 PM 67.6°F19.8°C 66.1°F18.9°C 95% 7.0 mph SE11.3 kmh SE 14.0 mph22.5 kmh 29.87 in1011.5 mb 0.00 in0.0 mm 0.00 in/hr0.0 mm/hr 0.23 in5.8 mm
07:16 PM 67.6°F19.8°C 66.1°F18.9°C 95% 3.0 mph ESE4.8 kmh ESE 14.0 mph22.5 kmh 29.87 in1011.5 mb 0.00 in0.0 mm 0.00 in/hr0.0 mm/hr 0.23 in5.8 mm
07:17 PM 67.6°F19.8°C 66.1°F18.9°C 95% 7.0 mph E11.3 kmh E 14.0 mph22.5 kmh 29.87 in1011.5 mb 0.00 in0.0 mm 0.00 in/hr0.0 mm/hr 0.23 in5.8 mm
07:18 PM 67.6°F19.8°C 66.1°F18.9°C 95% 5.0 mph SE8.0 kmh SE 14.0 mph22.5 kmh 29.87 in1011.5 mb 0.00 in0.0 mm 0.00 in/hr0.0 mm/hr 0.23 in5.8 mm
07:19 PM 67.6°F19.8°C 66.1°F18.9°C 95% 8.0 mph S12.9 kmh S 14.0 mph22.5 kmh 29.87 in1011.5 mb 0.00 in0.0 mm 0.00 in/hr0.0 mm/hr 0.23 in5.8 mm
07:20 PM 67.5°F19.7°C 66.0°F18.9°C 95% 7.0 mph ESE11.3 kmh ESE 14.0 mph22.5 kmh 29.86 in1011.2 mb 0.00 in0.0 mm 0.00 in/hr0.0 mm/hr 0.23 in5.8 mm
07:21 PM 67.5°F19.7°C 66.0°F18.9°C 95% 7.0 mph SE11.3 kmh SE 14.0 mph22.5 kmh 29.86 in1011.2 mb 0.00 in0.0 mm 0.00 in/hr0.0 mm/hr